Provisional Data: Apalachin Creek near Apalachin, NY


Please select a monitoring station.
Please select start date.
Please select start date.

Toggle Unit: C/F Toggle Unit: C/F
Sample Time Temperature (C) Temperature (F) Specific Conductivity (mS/cm) pH   Turbidity (NTU+) DO (mg/L)
3/23/2021 12:00:00 AM 5.37 41.666 0.103 7.11 16.62 12.11
3/23/2021 12:15:00 AM 5.28 41.504 0.103 7.11 16.87 12.14
3/23/2021 12:30:00 AM 5.2 41.36 0.103 7.12 18.31 12.17
3/23/2021 12:45:00 AM 5.11 41.198 0.103 7.1 16.32 12.19
3/23/2021 1:00:00 AM 5.03 41.054 0.103 7.12 16.24 12.23
3/23/2021 1:15:00 AM 4.94 40.892 0.103 7.11 17.5 12.26
3/23/2021 1:30:00 AM 4.86 40.748 0.103 7.11 18.64 12.3
3/23/2021 1:45:00 AM 4.78 40.604 0.103 7.11 18.27 12.32
3/23/2021 2:00:00 AM 4.7 40.46 0.103 7.11 17.51 12.36
3/23/2021 2:15:00 AM 4.62 40.316 0.103 7.1 16.99 12.38
3/23/2021 2:30:00 AM 4.54 40.172 0.103 7.1 16.49 12.41
3/23/2021 2:45:00 AM 4.46 40.028 0.103 7.1 18.14 12.44
3/23/2021 3:00:00 AM 4.38 39.884 0.103 7.1 16.76 12.46
3/23/2021 3:15:00 AM 4.3 39.74 0.103 7.1 17.02 12.49
3/23/2021 3:30:00 AM 4.22 39.596 0.103 7.1 14.99 12.52
3/23/2021 3:45:00 AM 4.14 39.452 0.103 7.1 15.51 12.55
3/23/2021 4:00:00 AM 4.06 39.308 0.103 7.1 16.03 12.58
3/23/2021 4:15:00 AM 3.99 39.182 0.103 7.1 17.27 12.61
3/23/2021 4:30:00 AM 3.92 39.056 0.103 7.09 16.3 12.63
3/23/2021 4:45:00 AM 3.85 38.93 0.103 7.1 16.44 12.66
3/23/2021 5:00:00 AM 3.77 38.786 0.103 7.1 16.53 12.69
3/23/2021 5:15:00 AM 3.7 38.66 0.103 7.09 16.5 12.71
3/23/2021 5:30:00 AM 3.63 38.534 0.103 7.09 15.78 12.74
3/23/2021 5:45:00 AM 3.56 38.408 0.103 7.07 15.56 12.76
3/23/2021 6:00:00 AM 3.49 38.282 0.103 7.08 16.19 12.79
3/23/2021 6:15:00 AM 3.42 38.156 0.104 7.08 17.51 12.81
3/23/2021 6:30:00 AM 3.35 38.03 0.104 7.08 15.17 12.84
3/23/2021 6:45:00 AM 3.28 37.904 0.104 7.09 15 12.87
3/23/2021 7:00:00 AM 3.22 37.796 0.104 7.08 15.56 12.89
3/23/2021 7:15:00 AM 3.16 37.688 0.104 7.08 14.89 12.92
3/23/2021 7:30:00 AM 3.11 37.598 0.104 7.08 13.54 12.95
3/23/2021 7:45:00 AM 3.07 37.526 0.104 7.08 14.87 12.99
3/23/2021 8:00:00 AM 3.04 37.472 0.104 7.09 15.13 13.02
3/23/2021 8:15:00 AM 3.03 37.454 0.104 7.09 14.24 13.06
3/23/2021 8:30:00 AM 3.04 37.472 0.104 7.1 14.57 13.09
3/23/2021 8:45:00 AM 3.06 37.508 0.104 7.1 13.36 13.1
3/23/2021 9:00:00 AM 3.1 37.58 0.104 7.11 14.34 13.12
3/23/2021 9:15:00 AM 3.16 37.688 0.104 7.12 13.77 13.14
3/23/2021 9:30:00 AM 3.23 37.814 0.104 7.12 14.59 13.15
3/23/2021 9:45:00 AM 3.32 37.976 0.104 7.12 14.18 13.16
3/23/2021 10:00:00 AM 3.43 38.174 0.104 7.13 12.44 13.15
3/23/2021 10:15:00 AM 3.57 38.426 0.104 7.13 12.39 13.14
3/23/2021 10:30:00 AM 3.72 38.696 0.104 7.13 13.88 13.13
3/23/2021 10:45:00 AM 3.9 39.02 0.104 7.15 16.64 13.1
3/23/2021 11:00:00 AM 4.06 39.308 0.104 7.14 40.82 13.06
3/23/2021 11:15:00 AM 4.25 39.65 0.104 7.15 42.07 13
3/23/2021 11:30:00 AM 4.47 40.046 0.104 7.15 57.37 12.94
3/23/2021 11:45:00 AM 4.71 40.478 0.104 7.16 51.26 12.89
3/23/2021 12:00:00 PM 4.98 40.964 0.104 7.17 32.64 12.83
3/23/2021 12:15:00 PM 5.24 41.432 0.104 7.18 21.21 12.76
3/23/2021 12:30:00 PM 5.52 41.936 0.104 7.19 32.68 12.69
3/23/2021 12:45:00 PM 5.8 42.44 0.104 7.2 35.62 12.6
3/23/2021 1:00:00 PM 6.06 42.908 0.104 7.21 46.11 12.52
3/23/2021 1:15:00 PM 6.32 43.376 0.104 7.19 26.17 12.44
3/23/2021 1:30:00 PM 6.6 43.88 0.104 7.22 22.6 12.38
3/23/2021 1:45:00 PM 6.87 44.366 0.103 7.23 19.34 12.3
3/23/2021 2:00:00 PM 7.11 44.798 0.103 7.23 22.43 12.22
3/23/2021 2:15:00 PM 7.31 45.158 0.103 7.23 17.81 12.13
3/23/2021 2:30:00 PM 7.52 45.536 0.103 7.24 16.09 12.07
3/23/2021 2:45:00 PM 7.69 45.842 0.103 7.25 13.75 12.02
3/23/2021 3:00:00 PM 7.84 46.112 0.103 7.25 14.71 11.96
3/23/2021 3:15:00 PM 7.93 46.274 0.103 7.25 13.27 11.91
3/23/2021 3:30:00 PM 8.01 46.418 0.103 7.26 18.4 11.86
3/23/2021 3:45:00 PM 8.11 46.598 0.103 7.26 13.53 11.82
3/23/2021 4:00:00 PM 8.14 46.652 0.103 7.26 13.54 11.78
3/23/2021 4:15:00 PM 8.18 46.724 0.103 7.26 12.6 11.75
3/23/2021 4:30:00 PM 8.17 46.706 0.103 7.27 13.25 11.73
3/23/2021 4:45:00 PM 8.14 46.652 0.103 7.26 12.94 11.71
3/23/2021 5:00:00 PM 8.12 46.616 0.103 7.26 12.86 11.7
3/23/2021 5:15:00 PM 8.08 46.544 0.103 7.27 13.51 11.68
3/23/2021 5:30:00 PM 8.01 46.418 0.103 7.26 14.06 11.67
3/23/2021 5:45:00 PM 7.94 46.292 0.103 7.26 13 11.67
3/23/2021 6:00:00 PM 7.88 46.184 0.103 7.26 13.44 11.67
3/23/2021 6:15:00 PM 7.8 46.04 0.103 7.25 13.02 11.66
3/23/2021 6:30:00 PM 7.73 45.914 0.103 7.24 12.87 11.64
3/23/2021 6:45:00 PM 7.66 45.788 0.103 7.23 13.49 11.63
3/23/2021 7:00:00 PM 7.59 45.662 0.103 7.23 13.46 11.62
3/23/2021 7:15:00 PM 7.52 45.536 0.103 7.22 14.38 11.6
3/23/2021 7:30:00 PM 7.44 45.392 0.104 7.21 14.32 11.59
3/23/2021 7:45:00 PM 7.37 45.266 0.104 7.2 14.08 11.58
3/23/2021 8:00:00 PM 7.3 45.14 0.104 7.19 15.51 11.57
3/23/2021 8:15:00 PM 7.23 45.014 0.104 7.19 15.56 11.58
3/23/2021 8:30:00 PM 7.15 44.87 0.104 7.18 16.45 11.59
3/23/2021 8:45:00 PM 7.08 44.744 0.104 7.18 16.21 11.6
3/23/2021 9:00:00 PM 7.01 44.618 0.104 7.17 17.01 11.61
3/23/2021 9:15:00 PM 6.94 44.492 0.104 7.16 18.77 11.62
3/23/2021 9:30:00 PM 6.88 44.384 0.104 7.16 21.64 11.63
3/23/2021 9:45:00 PM 6.81 44.258 0.103 7.15 21.45 11.64
3/23/2021 10:00:00 PM 6.75 44.15 0.103 7.15 23.9 11.65
3/23/2021 10:15:00 PM 6.68 44.024 0.103 7.14 30.65 11.66
3/23/2021 10:30:00 PM 6.62 43.916 0.103 7.14 26.61 11.68
3/23/2021 10:45:00 PM 6.56 43.808 0.103 7.14 28.29 11.71
3/23/2021 11:00:00 PM 6.5 43.7 0.103 7.13 28.12 11.73
3/23/2021 11:15:00 PM 6.43 43.574 0.103 7.13 16.96 11.75
3/23/2021 11:30:00 PM 6.37 43.466 0.103 7.13 21.15 11.77
3/23/2021 11:45:00 PM 6.31 43.358 0.103 7.13 18.92 11.79
3/24/2021 12:00:00 AM 6.24 43.232 0.103 7.13 20.03 11.8
3/24/2021 12:15:00 AM 6.18 43.124 0.103 7.13 18.62 11.82
3/24/2021 12:30:00 AM 6.12 43.016 0.103 7.13 19.3 11.83
3/24/2021 12:45:00 AM 6.06 42.908 0.103 7.13 17.5 11.84
3/24/2021 1:00:00 AM 6.01 42.818 0.103 7.12 18.64 11.86
3/24/2021 1:15:00 AM 5.98 42.764 0.103 7.13 17.3 11.87
3/24/2021 1:30:00 AM 5.95 42.71 0.103 7.13 17.94 11.89
3/24/2021 1:45:00 AM 5.93 42.674 0.103 7.13 23.72 11.9
3/24/2021 2:00:00 AM 5.9 42.62 0.103 7.11 20.26 11.91
3/24/2021 2:15:00 AM 5.88 42.584 0.103 7.12 18.4 11.93
3/24/2021 2:30:00 AM 5.85 42.53 0.103 7.12 18.85 11.94
3/24/2021 2:45:00 AM 5.81 42.458 0.103 7.12 12.2 11.95
3/24/2021 3:00:00 AM 5.76 42.368 0.103 7.12 17.59 11.96
3/24/2021 3:15:00 AM 5.72 42.296 0.103 7.12 17.64 11.98
3/24/2021 3:30:00 AM 5.67 42.206 0.103 7.12 17.23 11.99
3/24/2021 3:45:00 AM 5.62 42.116 0.103 7.12 17.76 12.01
3/24/2021 4:00:00 AM 5.59 42.062 0.103 7.12 13.63 12.02
3/24/2021 4:15:00 AM 5.56 42.008 0.103 7.12 17.11 12.03
3/24/2021 4:30:00 AM 5.54 41.972 0.103 7.11 16.79 12.04
3/24/2021 4:45:00 AM 5.51 41.918 0.103 7.12 16.6 12.05
3/24/2021 5:00:00 AM 5.49 41.882 0.103 7.11 16.58 12.06
3/24/2021 5:15:00 AM 5.46 41.828 0.103 7.11 15.66 12.07
3/24/2021 5:30:00 AM 5.44 41.792 0.103 7.11 16.03 12.08
3/24/2021 5:45:00 AM 5.42 41.756 0.103 7.11 15.3 12.09
3/24/2021 6:00:00 AM 5.39 41.702 0.103 7.11 15.57 12.1
3/24/2021 6:15:00 AM 5.37 41.666 0.103 7.11 22.51 12.1
3/24/2021 6:30:00 AM 5.35 41.63 0.103 7.11 16.15 12.11
3/24/2021 6:45:00 AM 5.34 41.612 0.103 7.11 15.36 12.12
3/24/2021 7:00:00 AM 5.32 41.576 0.103 7.11 16.04 12.12
3/24/2021 7:15:00 AM 5.31 41.558 0.103 7.11 15.31 12.13
3/24/2021 7:30:00 AM 5.3 41.54 0.103 7.11 15 12.13
3/24/2021 7:45:00 AM 5.3 41.54 0.103 7.11 15.52 12.15
3/24/2021 8:00:00 AM 5.29 41.522 0.103 7.11 16.5 12.16
3/24/2021 8:15:00 AM 5.29 41.522 0.103 7.11 15.25 12.17
3/24/2021 8:30:00 AM 5.28 41.504 0.103 7.11 15.89 12.18
3/24/2021 8:45:00 AM 5.29 41.522 0.103 7.12 14.97 12.19
3/24/2021 9:00:00 AM 5.29 41.522 0.103 7.12 15.41 12.21
3/24/2021 9:15:00 AM 5.31 41.558 0.103 7.13 15.16 12.23
3/24/2021 9:30:00 AM 5.32 41.576 0.103 7.14 14.36 12.24
3/24/2021 9:45:00 AM 5.33 41.594 0.103 7.13 14.47 12.25
3/24/2021 10:00:00 AM 5.34 41.612 0.103 7.14 15.71 12.26
3/24/2021 10:15:00 AM 5.36 41.648 0.102 7.14 15.81 12.26
3/24/2021 10:30:00 AM 5.38 41.684 0.102 7.15 15.87 12.26
3/24/2021 10:45:00 AM 5.4 41.72 0.102 7.16 15.33 12.27
3/24/2021 11:00:00 AM 5.42 41.756 0.102 7.14 15.51 12.27
3/24/2021 11:15:00 AM 5.46 41.828 0.102 7.16 15.6 12.27
3/24/2021 11:30:00 AM 5.49 41.882 0.102 7.16 18.55 12.28
3/24/2021 11:45:00 AM 5.53 41.954 0.102 7.17 18.82 12.28
3/24/2021 12:00:00 PM 5.58 42.044 0.102 7.17 13.28 12.28
3/24/2021 12:15:00 PM 5.63 42.134 0.101 7.18 26.8 12.28
3/24/2021 12:30:00 PM 5.71 42.278 0.101 7.18 51.98 12.26
3/24/2021 12:45:00 PM 5.78 42.404 0.101 7.18 31.99 12.26
3/24/2021 1:00:00 PM 5.88 42.584 0.101 7.19 36.96 12.25
3/24/2021 1:15:00 PM 5.98 42.764 0.101 7.2 28.07 12.23
3/24/2021 1:30:00 PM 6.08 42.944 0.101 7.2 39.35 12.2
3/24/2021 1:45:00 PM 6.17 43.106 0.101 7.2 73.78 12.14
3/24/2021 2:00:00 PM 6.24 43.232 0.101 7.2 73 12.11
3/24/2021 2:15:00 PM 6.34 43.412 0.101 7.2 91.93 12.1
3/24/2021 2:30:00 PM 6.42 43.556 0.101 7.2 46.67 12.09
3/24/2021 2:45:00 PM 6.48 43.664 0.101 7.21 64.4 12.04
3/24/2021 3:00:00 PM 6.55 43.79 0.101 7.19 93.92 11.97
3/24/2021 3:15:00 PM 6.58 43.844 0.101 7.19 133.3 11.92
3/24/2021 3:30:00 PM 6.63 43.934 0.101 7.2 182.86 11.9
3/24/2021 3:45:00 PM 6.67 44.006 0.1 7.19 112.99 11.89
3/24/2021 4:00:00 PM 6.71 44.078 0.1 7.19 171.71 11.87
3/24/2021 4:15:00 PM 6.76 44.168 0.099 7.19 147.5 11.85
3/24/2021 4:30:00 PM 6.79 44.222 0.099 7.19 134.72 11.82
3/24/2021 4:45:00 PM 6.82 44.276 0.098 7.19 209.4 11.81
3/24/2021 5:00:00 PM 6.86 44.348 0.097 7.17 93.62 11.81
3/24/2021 5:15:00 PM 6.91 44.438 0.097 7.18 137.68 11.79
3/24/2021 5:30:00 PM 6.98 44.564 0.096 7.18 95.21 11.78
3/24/2021 5:45:00 PM 7.03 44.654 0.096 7.16 83.76 11.76
3/24/2021 6:00:00 PM 7.07 44.726 0.096 7.17 87.14 11.74
3/24/2021 6:15:00 PM 7.09 44.762 0.096 7.17 83.62 11.72
3/24/2021 6:30:00 PM 7.11 44.798 0.096 7.16 103.57 11.7
3/24/2021 6:45:00 PM 7.11 44.798 0.097 7.16 116.69 11.69
3/24/2021 7:00:00 PM 7.11 44.798 0.097 7.16 95.75 11.68
3/24/2021 7:15:00 PM 7.1 44.78 0.097 7.16 72.38 11.67
3/24/2021 7:30:00 PM 7.09 44.762 0.096 7.13 98.69 11.67
3/24/2021 7:45:00 PM 7.09 44.762 0.096 7.14 73 11.66
3/24/2021 8:00:00 PM 7.07 44.726 0.096 7.14 120.16 11.66
3/24/2021 8:15:00 PM 7.06 44.708 0.095 7.14 98.54 11.67
3/24/2021 8:30:00 PM 7.05 44.69 0.095 7.14 80.51 11.66
3/24/2021 8:45:00 PM 7.03 44.654 0.095 7.14 82.51 11.67
3/24/2021 9:00:00 PM 7.01 44.618 0.095 7.12 75.2 11.67
3/24/2021 9:15:00 PM 7 44.6 0.094 7.13 82.78 11.67
3/24/2021 9:30:00 PM 6.98 44.564 0.094 7.13 59.81 11.67
3/24/2021 9:45:00 PM 6.96 44.528 0.094 7.12 109.36 11.68
3/24/2021 10:00:00 PM 6.94 44.492 0.094 7.12 65.78 11.68
3/24/2021 10:15:00 PM 6.93 44.474 0.094 7.12 63.06 11.69
3/24/2021 10:30:00 PM 6.91 44.438 0.093 7.12 88.6 11.69
3/24/2021 10:45:00 PM 6.89 44.402 0.093 7.12 53.34 11.69
3/24/2021 11:00:00 PM 6.87 44.366 0.093 7.11 85.09 11.69
3/24/2021 11:15:00 PM 6.87 44.366 0.093 7.12 74.03 11.69
3/24/2021 11:30:00 PM 6.85 44.33 0.093 7.1 108.21 11.7
3/24/2021 11:45:00 PM 6.83 44.294 0.093 7.11 62.81 11.7
3/25/2021 12:00:00 AM 6.81 44.258 0.093 7.11 73.49 11.7
3/25/2021 12:15:00 AM 6.79 44.222 0.093 7.09 91.74 11.7
3/25/2021 12:30:00 AM 6.78 44.204 0.093 7.1 56.03 11.7
3/25/2021 12:45:00 AM 6.77 44.186 0.093 7.1 46 11.7
3/25/2021 1:00:00 AM 6.76 44.168 0.093 7.11 51 11.7
3/25/2021 1:15:00 AM 6.74 44.132 0.093 7.1 48.65 11.71
3/25/2021 1:30:00 AM 6.72 44.096 0.093 7.09 58.19 11.71
3/25/2021 1:45:00 AM 6.7 44.06 0.093 7.09 41.23 11.71
3/25/2021 2:00:00 AM 6.69 44.042 0.093 7.09 61.49 11.71
3/25/2021 2:15:00 AM 6.67 44.006 0.093 7.09 42.63 11.71
3/25/2021 2:30:00 AM 6.66 43.988 0.093 7.09 79.26 11.72
3/25/2021 2:45:00 AM 6.65 43.97 0.093 7.09 43.46 11.72
3/25/2021 3:00:00 AM 6.63 43.934 0.093 7.09 45.02 11.72
3/25/2021 3:15:00 AM 6.62 43.916 0.093 7.09 60.93 11.72
3/25/2021 3:30:00 AM 6.6 43.88 0.093 7.09 45.29 11.72
3/25/2021 3:45:00 AM 6.59 43.862 0.093 7.08 39.34 11.72
3/25/2021 4:00:00 AM 6.58 43.844 0.093 7.08 41.96 11.72
3/25/2021 4:15:00 AM 6.57 43.826 0.094 7.08 37.06 11.72
3/25/2021 4:30:00 AM 6.55 43.79 0.094 7.08 44.52 11.73
3/25/2021 4:45:00 AM 6.54 43.772 0.094 7.08 31.06 11.73
3/25/2021 5:00:00 AM 6.53 43.754 0.094 7.08 32.79 11.74
3/25/2021 5:15:00 AM 6.52 43.736 0.094 7.08 33.72 11.74
3/25/2021 5:30:00 AM 6.51 43.718 0.094 7.08 25.95 11.74
3/25/2021 5:45:00 AM 6.5 43.7 0.094 7.08 29.54 11.74
3/25/2021 6:00:00 AM 6.5 43.7 0.094 7.07 30.49 11.74
3/25/2021 6:15:00 AM 6.49 43.682 0.094 7.08 34.8 11.74
3/25/2021 6:30:00 AM 6.48 43.664 0.094 7.07 28.14 11.74
3/25/2021 6:45:00 AM 6.47 43.646 0.094 7.07 36.32 11.75
3/25/2021 7:00:00 AM 6.46 43.628 0.094 7.07 32.17 11.75
3/25/2021 7:15:00 AM 6.46 43.628 0.094 7.08 33.61 11.76
3/25/2021 7:30:00 AM 6.46 43.628 0.094 7.07 38.63 11.76
3/25/2021 7:45:00 AM 6.47 43.646 0.094 7.08 30.9 11.78
3/25/2021 8:00:00 AM 6.48 43.664 0.094 7.09 52.58 11.8
3/25/2021 8:15:00 AM 6.51 43.718 0.095 7.1 30.85 11.82
3/25/2021 8:30:00 AM 6.54 43.772 0.095 7.11 50.46 11.84
3/25/2021 8:45:00 AM 6.57 43.826 0.095 7.1 28.81 11.85
3/25/2021 9:00:00 AM 6.61 43.898 0.095 7.12 29.36 11.87
3/25/2021 9:15:00 AM 6.66 43.988 0.095 7.12 25.8 11.88
3/25/2021 9:30:00 AM 6.73 44.114 0.095 7.14 45.07 11.9
3/25/2021 9:45:00 AM 6.83 44.294 0.095 7.15 26.4 11.9
3/25/2021 10:00:00 AM 6.95 44.51 0.095 7.16 66.16 11.89
3/25/2021 10:15:00 AM 7.06 44.708 0.095 7.18 23.42 11.88
3/25/2021 10:30:00 AM 7.22 44.996 0.095 7.17 23.74 11.86
3/25/2021 10:45:00 AM 7.34 45.212 0.095 7.18 28.64 11.86
3/25/2021 11:00:00 AM 7.54 45.572 0.095 7.2 20.97 11.83
3/25/2021 11:15:00 AM 7.76 45.968 0.095 7.21 22.07 11.79
3/25/2021 11:30:00 AM 7.95 46.31 0.095 7.21 24.98 11.77
3/25/2021 11:45:00 AM 8.17 46.706 0.095 7.22 30.35 11.71
3/25/2021 12:00:00 PM 8.39 47.102 0.095 7.23 31.59 11.67
3/25/2021 12:15:00 PM 8.62 47.516 0.095 7.23 23.08 11.63
3/25/2021 12:30:00 PM 8.83 47.894 0.095 7.24 32.95 11.56
3/25/2021 12:45:00 PM 9.09 48.362 0.095 7.24 25.37 11.52
3/25/2021 1:00:00 PM 9.39 48.902 0.095 7.25 25.37 11.46
3/25/2021 1:15:00 PM 9.65 49.37 0.095 7.27 25.93 11.4
3/25/2021 1:30:00 PM 9.91 49.838 0.095 7.27 28.07 11.34
3/25/2021 1:45:00 PM 10.14 50.252 0.095 7.27 27.48 11.28
3/25/2021 2:00:00 PM 10.37 50.666 0.095 7.28 22.71 11.23
3/25/2021 2:15:00 PM 10.57 51.026 0.095 7.28 21.35 11.16
3/25/2021 2:30:00 PM 10.77 51.386 0.095 7.29 37.9 11.12
3/25/2021 2:45:00 PM 10.94 51.692 0.095 7.29 31.03 11.06
3/25/2021 3:00:00 PM 11.06 51.908 0.095 7.3 21.99 11.01
3/25/2021 3:15:00 PM 11.16 52.088 0.095 7.29 24.97 10.98
3/25/2021 3:30:00 PM 11.22 52.196 0.095 7.3 28.24 10.95
3/25/2021 3:45:00 PM 11.27 52.286 0.095 7.3 28.2 10.91
3/25/2021 4:00:00 PM 11.28 52.304 0.095 7.31 22.33 10.88
3/25/2021 4:15:00 PM 11.28 52.304 0.095 7.3 21.26 10.86
3/25/2021 4:30:00 PM 11.25 52.25 0.095 7.3 27.38 10.83
3/25/2021 4:45:00 PM 11.23 52.214 0.095 7.29 26.79 10.82
3/25/2021 5:00:00 PM 11.17 52.106 0.095 7.28 24.77 10.81
3/25/2021 5:15:00 PM 11.13 52.034 0.095 7.29 26.42 10.79
3/25/2021 5:30:00 PM 11.07 51.926 0.095 7.27 22.06 10.77
3/25/2021 5:45:00 PM 11 51.8 0.095 7.27 33.31 10.76
3/25/2021 6:00:00 PM 10.93 51.674 0.096 7.25 25.61 10.74
3/25/2021 6:15:00 PM 10.85 51.53 0.096 7.25 30.04 10.73
3/25/2021 6:30:00 PM 10.78 51.404 0.096 7.24 26 10.71
3/25/2021 6:45:00 PM 10.7 51.26 0.096 7.22 28.21 10.69
3/25/2021 7:00:00 PM 10.62 51.116 0.096 7.21 23.59 10.67
3/25/2021 7:15:00 PM 10.53 50.954 0.096 7.2 27.85 10.66
3/25/2021 7:30:00 PM 10.44 50.792 0.096 7.18 33.08 10.65
3/25/2021 7:45:00 PM 10.36 50.648 0.096 7.17 27.19 10.63
3/25/2021 8:00:00 PM 10.27 50.486 0.096 7.16 27.03 10.62
3/25/2021 8:15:00 PM 10.18 50.324 0.096 7.14 27.72 10.62
3/25/2021 8:30:00 PM 10.11 50.198 0.096 7.15 21.78 10.63
3/25/2021 8:45:00 PM 10.04 50.072 0.096 7.13 35.94 10.65
3/25/2021 9:00:00 PM 9.97 49.946 0.096 7.12 26.23 10.66
3/25/2021 9:15:00 PM 9.91 49.838 0.096 7.12 23.98 10.67
3/25/2021 9:30:00 PM 9.85 49.73 0.097 7.11 33.47 10.67
3/25/2021 9:45:00 PM 9.8 49.64 0.097 7.11 24.93 10.68
3/25/2021 10:00:00 PM 9.75 49.55 0.097 7.11 28.26 10.69
3/25/2021 10:15:00 PM 9.72 49.496 0.097 7.11 22.69 10.71
3/25/2021 10:30:00 PM 9.68 49.424 0.097 7.12 26.61 10.72
3/25/2021 10:45:00 PM 9.63 49.334 0.097 7.12 26.18 10.73
3/25/2021 11:00:00 PM 9.59 49.262 0.097 7.12 20.88 10.74
3/25/2021 11:15:00 PM 9.55 49.19 0.097 7.12 24.46 10.74
3/25/2021 11:30:00 PM 9.52 49.136 0.097 7.12 24.73 10.75
3/25/2021 11:45:00 PM 9.48 49.064 0.097 7.12 22.02 10.76
3/26/2021 12:00:00 AM 9.44 48.992 0.097 7.12 30.65 10.76
3/26/2021 12:15:00 AM 9.4 48.92 0.097 7.12 35.58 10.77
3/26/2021 12:30:00 AM 9.37 48.866 0.097 7.11 23.23 10.77
3/26/2021 12:45:00 AM 9.32 48.776 0.098 7.12 22.02 10.78
3/26/2021 1:00:00 AM 9.28 48.704 0.098 7.12 22.33 10.8
3/26/2021 1:15:00 AM 9.24 48.632 0.098 7.13 23.95 10.81
3/26/2021 1:30:00 AM 9.2 48.56 0.098 7.12 20.5 10.82
3/26/2021 1:45:00 AM 9.17 48.506 0.098 7.12 20.61 10.83
3/26/2021 2:00:00 AM 9.13 48.434 0.098 7.13 20.43 10.84
3/26/2021 2:15:00 AM 9.1 48.38 0.098 7.12 20.62 10.85
3/26/2021 2:30:00 AM 9.07 48.326 0.098 7.12 21.93 10.85
3/26/2021 2:45:00 AM 9.04 48.272 0.098 7.13 20.8 10.85
3/26/2021 3:00:00 AM 9.01 48.218 0.098 7.12 22.06 10.85
3/26/2021 3:15:00 AM 8.98 48.164 0.098 7.13 17.98 10.85
3/26/2021 3:30:00 AM 8.95 48.11 0.099 7.12 19.76 10.85
3/26/2021 3:45:00 AM 8.94 48.092 0.099 7.12 22.59 10.85
3/26/2021 4:00:00 AM 8.91 48.038 0.099 7.13 18.56 10.86
3/26/2021 4:15:00 AM 8.9 48.02 0.099 7.13 29.91 10.86
3/26/2021 4:30:00 AM 8.89 48.002 0.099 7.12 17.28 10.85
3/26/2021 4:45:00 AM 8.88 47.984 0.099 7.13 18.43 10.85
3/26/2021 5:00:00 AM 8.85 47.93 0.099 7.13 21.22 10.86
3/26/2021 5:15:00 AM 8.83 47.894 0.099 7.13 19.63 10.86
3/26/2021 5:30:00 AM 8.79 47.822 0.099 7.13 19.05 10.86
3/26/2021 5:45:00 AM 8.73 47.714 0.099 7.12 20.26 10.88
3/26/2021 6:00:00 AM 8.7 47.66 0.099 7.13 19.63 10.89
3/26/2021 6:15:00 AM 8.65 47.57 0.099 7.13 16.08 10.89
3/26/2021 6:30:00 AM 8.61 47.498 0.1 7.13 17.28 10.9
3/26/2021 6:45:00 AM 8.58 47.444 0.1 7.12 20.34 10.91
3/26/2021 7:00:00 AM 8.57 47.426 0.1 7.13 18.39 10.92
3/26/2021 7:15:00 AM 8.57 47.426 0.1 7.13 18.57 10.92
3/26/2021 7:30:00 AM 8.57 47.426 0.1 7.13 18.18 10.92
3/26/2021 7:45:00 AM 8.59 47.462 0.1 7.14 23.22 10.95
3/26/2021 8:00:00 AM 8.62 47.516 0.1 7.16 15.06 10.97
3/26/2021 8:15:00 AM 8.66 47.588 0.1 7.16 18.25 11.01
3/26/2021 8:30:00 AM 8.71 47.678 0.1 7.18 18 11.04
3/26/2021 8:45:00 AM 8.79 47.822 0.1 7.19 17.87 11.05
3/26/2021 9:00:00 AM 8.88 47.984 0.1 7.2 18.23 11.05
3/26/2021 9:15:00 AM 9.02 48.236 0.1 7.21 16.7 11.07
3/26/2021 9:30:00 AM 9.2 48.56 0.1 7.22 18.53 11.08
3/26/2021 9:45:00 AM 9.38 48.884 0.1 7.23 13.32 11.05
3/26/2021 10:00:00 AM 9.56 49.208 0.1 7.24 15.96 11.06
3/26/2021 10:15:00 AM 9.77 49.586 0.1 7.25 17.81 11.02
3/26/2021 10:30:00 AM 10 50 0.1 7.26 17.24 11.01
3/26/2021 10:45:00 AM 10.16 50.288 0.1 7.26 17.63 10.95
3/26/2021 11:00:00 AM 10.27 50.486 0.1 7.27 16.3 10.94
3/26/2021 11:15:00 AM 10.34 50.612 0.1 7.28 16.83 10.92
3/26/2021 11:30:00 AM 10.4 50.72 0.1 7.28 16.55 10.9
3/26/2021 11:45:00 AM 10.46 50.828 0.1 7.29 16.92 10.87
3/26/2021 12:00:00 PM 10.53 50.954 0.1 7.3 17.64 10.85
3/26/2021 12:15:00 PM 10.61 51.098 0.1 7.3 17.69 10.83
3/26/2021 12:30:00 PM 10.66 51.188 0.1 7.3 16.62 10.82
3/26/2021 12:45:00 PM 10.7 51.26 0.1 7.3 17.18 10.81
3/26/2021 1:00:00 PM 10.71 51.278 0.1 7.31 17.12 10.78
3/26/2021 1:15:00 PM 10.7 51.26 0.1 7.31 18.43 10.77
3/26/2021 1:30:00 PM 10.69 51.242 0.1 7.3 16.2 10.77
3/26/2021 1:45:00 PM 10.73 51.314 0.1 7.31 16.58 10.78
3/26/2021 2:00:00 PM 10.82 51.476 0.1 7.31 28.68 10.76
3/26/2021 2:15:00 PM 10.88 51.584 0.1 7.31 28.23 10.75
3/26/2021 2:30:00 PM 10.97 51.746 0.1 7.31 23.99 10.75
3/26/2021 2:45:00 PM 10.95 51.71 0.1 7.3 61.96 10.71
3/26/2021 3:00:00 PM 10.91 51.638 0.1 7.28 69.54 10.66
3/26/2021 3:15:00 PM 10.85 51.53 0.1 7.29 35.78 10.65
3/26/2021 3:30:00 PM 10.8 51.44 0.1 7.29 21.57 10.64
3/26/2021 3:45:00 PM 10.75 51.35 0.1 7.28 21.32 10.64
3/26/2021 4:00:00 PM 10.7 51.26 0.1 7.27 21.08 10.65
3/26/2021 4:15:00 PM 10.69 51.242 0.1 7.27 18.17 10.67
3/26/2021 4:30:00 PM 10.64 51.152 0.1 7.28 18.92 10.69
3/26/2021 4:45:00 PM 10.59 51.062 0.1 7.28 19.95 10.71
3/26/2021 5:00:00 PM 10.51 50.918 0.1 7.28 18.99 10.72
3/26/2021 5:15:00 PM 10.43 50.774 0.101 7.27 17.48 10.73
3/26/2021 5:30:00 PM 10.34 50.612 0.101 7.26 17.02 10.74
3/26/2021 5:45:00 PM 10.23 50.414 0.101 7.26 14.02 10.75
3/26/2021 6:00:00 PM 10.14 50.252 0.101 7.25 22.34 10.75
3/26/2021 6:15:00 PM 10.06 50.108 0.101 7.24 17.47 10.74
3/26/2021 6:30:00 PM 9.98 49.964 0.101 7.24 17.32 10.75
3/26/2021 6:45:00 PM 9.89 49.802 0.101 7.23 17.36 10.76
3/26/2021 7:00:00 PM 9.81 49.658 0.101 7.22 16.9 10.77
3/26/2021 7:15:00 PM 9.73 49.514 0.101 7.21 16.02 10.75
3/26/2021 7:30:00 PM 9.64 49.352 0.101 7.21 17.28 10.74
3/26/2021 7:45:00 PM 9.57 49.226 0.101 7.2 17.32 10.74
3/26/2021 8:00:00 PM 9.5 49.1 0.102 7.19 16.64 10.74
3/26/2021 8:15:00 PM 9.44 48.992 0.102 7.19 16.87 10.76
3/26/2021 8:30:00 PM 9.38 48.884 0.102 7.18 16.82 10.76
3/26/2021 8:45:00 PM 9.32 48.776 0.102 7.18 16.36 10.77
3/26/2021 9:00:00 PM 9.26 48.668 0.102 7.17 16.37 10.78
3/26/2021 9:15:00 PM 9.21 48.578 0.102 7.17 16.33 10.79
3/26/2021 9:30:00 PM 9.16 48.488 0.102 7.16 15.96 10.79
3/26/2021 9:45:00 PM 9.1 48.38 0.102 7.16 15.32 10.81
3/26/2021 10:00:00 PM 9.05 48.29 0.102 7.17 14.55 10.83
3/26/2021 10:15:00 PM 8.99 48.182 0.102 7.17 15.31 10.86
3/26/2021 10:30:00 PM 8.95 48.11 0.102 7.16 16.08 10.88
3/26/2021 10:45:00 PM 8.9 48.02 0.102 7.16 14.78 10.88
3/26/2021 11:00:00 PM 8.85 47.93 0.103 7.16 14.62 10.89
3/26/2021 11:15:00 PM 8.81 47.858 0.103 7.15 14.82 10.89
3/26/2021 11:30:00 PM 8.76 47.768 0.103 7.16 14.86 10.9
3/26/2021 11:45:00 PM 8.72 47.696 0.103 7.15 14.13 10.92
3/27/2021 12:00:00 AM 8.67 47.606 0.103 7.15 14.32 10.94
3/27/2021 12:15:00 AM 8.61 47.498 0.103 7.15 14.82 10.96
3/27/2021 12:30:00 AM 8.56 47.408 0.103 7.16 14.22 10.98
3/27/2021 12:45:00 AM 8.5 47.3 0.103 7.15 14.68 11
3/27/2021 1:00:00 AM 8.45 47.21 0.103 7.15 13.77 11.01
3/27/2021 1:15:00 AM 8.38 47.084 0.103 7.16 13.83 11.02
3/27/2021 1:30:00 AM 8.32 46.976 0.103 7.15 14.52 11.03
3/27/2021 1:45:00 AM 8.25 46.85 0.104 7.15 14.76 11.05
3/27/2021 2:00:00 AM 8.17 46.706 0.104 7.15 13.09 11.07
3/27/2021 2:15:00 AM 8.11 46.598 0.104 7.15 14.79 11.09
3/27/2021 2:30:00 AM 8.06 46.508 0.104 7.14 13.24 11.11
3/27/2021 2:45:00 AM 8.03 46.454 0.104 7.15 14.45 11.13
3/27/2021 3:00:00 AM 8.01 46.418 0.104 7.14 13.46 11.14
3/27/2021 3:15:00 AM 7.99 46.382 0.104 7.14 12.71 11.15
3/27/2021 3:30:00 AM 7.97 46.346 0.104 7.15 13.13 11.15
3/27/2021 3:45:00 AM 7.94 46.292 0.104 7.14 13.13 11.16
3/27/2021 4:00:00 AM 7.91 46.238 0.104 7.13 12.57 11.17
3/27/2021 4:15:00 AM 7.88 46.184 0.104 7.14 14.13 11.17
3/27/2021 4:30:00 AM 7.85 46.13 0.105 7.13 11.96 11.18
3/27/2021 4:45:00 AM 7.82 46.076 0.105 7.14 13.02 11.19
3/27/2021 5:00:00 AM 7.79 46.022 0.105 7.13 13.19 11.19
3/27/2021 5:15:00 AM 7.76 45.968 0.105 7.14 12.59 11.2
3/27/2021 5:30:00 AM 7.73 45.914 0.105 7.15 12.23 11.21
3/27/2021 5:45:00 AM 7.7 45.86 0.105 7.13 12.05 11.22
3/27/2021 6:00:00 AM 7.67 45.806 0.105 7.15 12.38 11.23
3/27/2021 6:15:00 AM 7.65 45.77 0.105 7.14 12.22 11.25
3/27/2021 6:30:00 AM 7.61 45.698 0.105 7.14 12.03 11.26
3/27/2021 6:45:00 AM 7.58 45.644 0.105 7.14 11.72 11.27
3/27/2021 7:00:00 AM 7.55 45.59 0.105 7.14 12.24 11.29
3/27/2021 7:15:00 AM 7.52 45.536 0.105 7.15 12.07 11.31
3/27/2021 7:30:00 AM 7.49 45.482 0.106 7.15 12.31 11.34
3/27/2021 7:45:00 AM 7.47 45.446 0.106 7.16 11.05 11.36
3/27/2021 8:00:00 AM 7.45 45.41 0.106 7.16 11.54 11.39
3/27/2021 8:15:00 AM 7.44 45.392 0.106 7.16 11.47 11.43
3/27/2021 8:30:00 AM 7.43 45.374 0.106 7.17 11.62 11.47
3/27/2021 8:45:00 AM 7.44 45.392 0.106 7.18 11.14 11.51
3/27/2021 9:00:00 AM 7.45 45.41 0.106 7.19 11.69 11.55
3/27/2021 9:15:00 AM 7.47 45.446 0.106 7.2 11.24 11.59
3/27/2021 9:30:00 AM 7.49 45.482 0.106 7.21 11.36 11.62
3/27/2021 9:45:00 AM 7.5 45.5 0.106 7.22 11.52 11.64
3/27/2021 10:00:00 AM 7.52 45.536 0.106 7.22 10.37 11.65
3/27/2021 10:15:00 AM 7.65 45.77 0.106 7.23 10.73 11.66
3/27/2021 10:30:00 AM 7.72 45.896 0.106 7.24 10.25 11.65
3/27/2021 10:45:00 AM 7.78 46.004 0.106 7.25 10.56 11.66
3/27/2021 11:00:00 AM 7.82 46.076 0.106 7.25 11.61 11.67
3/27/2021 11:15:00 AM 7.84 46.112 0.106 7.26 18.57 11.66
3/27/2021 11:30:00 AM 7.92 46.256 0.106 7.25 32.58 11.64
3/27/2021 11:45:00 AM 8.08 46.544 0.106 7.25 32.88 11.62
3/27/2021 12:00:00 PM 8.36 47.048 0.106 7.27 30.01 11.6
3/27/2021 12:15:00 PM 8.64 47.552 0.106 7.27 20.68 11.6
3/27/2021 12:30:00 PM 8.93 48.074 0.106 7.29 18.65 11.54
3/27/2021 12:45:00 PM 9.15 48.47 0.106 7.29 15.61 11.51
3/27/2021 1:00:00 PM 9.36 48.848 0.106 7.3 14.34 11.46
3/27/2021 1:15:00 PM 9.65 49.37 0.106 7.31 13.39 11.41
3/27/2021 1:30:00 PM 9.92 49.856 0.106 7.32 14.7 11.35
3/27/2021 1:45:00 PM 10.08 50.144 0.106 7.32 16.74 11.28
3/27/2021 2:00:00 PM 10.23 50.414 0.106 7.33 17.69 11.26
3/27/2021 2:15:00 PM 10.32 50.576 0.106 7.33 17.13 11.23
3/27/2021 2:30:00 PM 10.34 50.612 0.106 7.33 14.7 11.19
3/27/2021 2:45:00 PM 10.54 50.972 0.106 7.34 13.63 11.14
3/27/2021 3:00:00 PM 10.65 51.17 0.106 7.35 12.98 11.11
3/27/2021 3:15:00 PM 10.72 51.296 0.106 7.35 11.53 11.08
3/27/2021 3:30:00 PM 10.79 51.422 0.106 7.35 11.44 11.04
3/27/2021 3:45:00 PM 10.81 51.458 0.106 7.35 11.03 11.03
3/27/2021 4:00:00 PM 10.81 51.458 0.106 7.36 11.1 11.01
3/27/2021 4:15:00 PM 10.82 51.476 0.106 7.35 11.88 10.99
3/27/2021 4:30:00 PM 10.81 51.458 0.107 7.35 15.88 10.97
3/27/2021 4:45:00 PM 10.78 51.404 0.107 7.34 25.36 10.93
3/27/2021 5:00:00 PM 10.73 51.314 0.107 7.32 51.22 10.85
3/27/2021 5:15:00 PM 10.66 51.188 0.107 7.31 71.61 10.82
3/27/2021 5:30:00 PM 10.6 51.08 0.107 7.31 72.92 10.83
3/27/2021 5:45:00 PM 10.55 50.99 0.107 7.3 69.57 10.84
3/27/2021 6:00:00 PM 10.48 50.864 0.107 7.3 38.38 10.85
3/27/2021 6:15:00 PM 10.41 50.738 0.107 7.3 37 10.82
3/27/2021 6:30:00 PM 10.34 50.612 0.107 7.27 47.49 10.78
3/27/2021 6:45:00 PM 10.26 50.468 0.107 7.27 63.91 10.73
3/27/2021 7:00:00 PM 10.18 50.324 0.107 7.25 60.77 10.72
3/27/2021 7:15:00 PM 10.09 50.162 0.107 7.24 58.93 10.71
3/27/2021 7:30:00 PM 10.01 50.018 0.107 7.23 44.23 10.71
3/27/2021 7:45:00 PM 9.94 49.892 0.107 7.22 39.91 10.69
3/27/2021 8:00:00 PM 9.86 49.748 0.107 7.22 30.8 10.68
3/27/2021 8:15:00 PM 9.79 49.622 0.107 7.21 27.34 10.68
3/27/2021 8:30:00 PM 9.72 49.496 0.107 7.19 24.24 10.69
3/27/2021 8:45:00 PM 9.65 49.37 0.108 7.19 17.54 10.69
3/27/2021 9:00:00 PM 9.57 49.226 0.108 7.19 15.33 10.69
3/27/2021 9:15:00 PM 9.49 49.082 0.108 7.17 13.68 10.69
3/27/2021 9:30:00 PM 9.41 48.938 0.108 7.17 14.29 10.71
3/27/2021 9:45:00 PM 9.32 48.776 0.108 7.16 12.57 10.73
3/27/2021 10:00:00 PM 9.24 48.632 0.108 7.17 12.74 10.75
3/27/2021 10:15:00 PM 9.16 48.488 0.108 7.15 11.94 10.76
3/27/2021 10:30:00 PM 9.07 48.326 0.108 7.16 11.85 10.77
3/27/2021 10:45:00 PM 9 48.2 0.108 7.15 11.97 10.79
3/27/2021 11:00:00 PM 8.93 48.074 0.108 7.15 12.46 10.8
3/27/2021 11:15:00 PM 8.86 47.948 0.108 7.15 11.5 10.82
3/27/2021 11:30:00 PM 8.8 47.84 0.108 7.15 11.04 10.85
3/27/2021 11:45:00 PM 8.73 47.714 0.108 7.15 12.29 10.86
3/28/2021 12:00:00 AM 8.68 47.624 0.109 7.14 11.28 10.86
3/28/2021 12:15:00 AM 8.63 47.534 0.109 7.14 10.98 10.88
3/28/2021 12:30:00 AM 8.59 47.462 0.109 7.15 10.77 10.87
3/28/2021 12:45:00 AM 8.56 47.408 0.109 7.16 11.22 10.88
3/28/2021 1:00:00 AM 8.54 47.372 0.109 7.16 10.78 10.89
3/28/2021 1:15:00 AM 8.51 47.318 0.109 7.15 11.39 10.89
3/28/2021 1:30:00 AM 8.47 47.246 0.109 7.16 10.56 10.9
3/28/2021 1:45:00 AM 8.44 47.192 0.109 7.16 10.45 10.91
3/28/2021 2:00:00 AM 8.41 47.138 0.109 7.16 10.58 10.92
3/28/2021 2:15:00 AM 8.37 47.066 0.109 7.16 10.49 10.94
3/28/2021 2:30:00 AM 8.34 47.012 0.109 7.16 9.94 10.94
3/28/2021 2:45:00 AM 8.3 46.94 0.109 7.15 10.18 10.96
3/28/2021 3:00:00 AM 8.28 46.904 0.109 7.16 10.38 10.96
3/28/2021 3:15:00 AM 8.25 46.85 0.109 7.17 10.24 10.97
3/28/2021 3:30:00 AM 8.22 46.796 0.11 7.16 10.39 10.97
3/28/2021 3:45:00 AM 8.18 46.724 0.11 7.15 10.03 10.98
3/28/2021 4:00:00 AM 8.14 46.652 0.11 7.16 10.18 10.99
3/28/2021 4:15:00 AM 8.11 46.598 0.11 7.16 10.1 10.99
3/28/2021 4:30:00 AM 8.07 46.526 0.11 7.16 10.84 10.99
3/28/2021 4:45:00 AM 8.04 46.472 0.11 7.16 9.6 11
3/28/2021 5:00:00 AM 8.01 46.418 0.11 7.16 10.3 11
3/28/2021 5:15:00 AM 7.98 46.364 0.11 7.16 10.08 11.01
3/28/2021 5:30:00 AM 7.96 46.328 0.11 7.16 9.94 11.02
3/28/2021 5:45:00 AM 7.94 46.292 0.11 7.16 9.57 11.03
3/28/2021 6:00:00 AM 7.93 46.274 0.11 7.16 9.58 11.03
3/28/2021 6:15:00 AM 7.92 46.256 0.11 7.16 10.63 11.03
3/28/2021 6:30:00 AM 7.92 46.256 0.11 7.16 9.47 11.04
3/28/2021 6:45:00 AM 7.93 46.274 0.11 7.17 10.41 11.04
3/28/2021 7:00:00 AM 7.93 46.274 0.11 7.17 9.91 11.04
3/28/2021 7:15:00 AM 7.93 46.274 0.11 7.16 9.61 11.04
3/28/2021 7:30:00 AM 7.94 46.292 0.111 7.16 9.56 11.05
3/28/2021 7:45:00 AM 7.94 46.292 0.111 7.17 9.39 11.06
3/28/2021 8:00:00 AM 7.95 46.31 0.111 7.17 9.36 11.06
3/28/2021 8:15:00 AM 7.96 46.328 0.111 7.17 9.45 11.07
3/28/2021 8:30:00 AM 7.98 46.364 0.111 7.18 9.13 11.08
3/28/2021 8:45:00 AM 8 46.4 0.111 7.18 8.99 11.09
3/28/2021 9:00:00 AM 8.02 46.436 0.111 7.19 8.78 11.11
3/28/2021 9:15:00 AM 8.04 46.472 0.111 7.2 9.35 11.14
3/28/2021 9:30:00 AM 8.07 46.526 0.111 7.21 9.09 11.18
3/28/2021 9:45:00 AM 8.1 46.58 0.111 7.22 9.62 11.22
3/28/2021 10:00:00 AM 8.12 46.616 0.11 7.23 9.25 11.25
3/28/2021 10:15:00 AM 8.15 46.67 0.11 7.24 8.95 11.27
3/28/2021 10:30:00 AM 8.19 46.742 0.11 7.24 8.69 11.29
3/28/2021 10:45:00 AM 8.22 46.796 0.11 7.26 8.85 11.31
3/28/2021 11:00:00 AM 8.26 46.868 0.11 7.26 8.83 11.33
3/28/2021 11:15:00 AM 8.29 46.922 0.11 7.27 8.67 11.34
3/28/2021 11:30:00 AM 8.34 47.012 0.11 7.28 8.72 11.35
3/28/2021 11:45:00 AM 8.38 47.084 0.11 7.29 8.45 11.34
3/28/2021 12:00:00 PM 8.42 47.156 0.11 7.28 9 11.34
3/28/2021 12:15:00 PM 8.47 47.246 0.11 7.29 8.74 11.33
3/28/2021 12:30:00 PM 8.51 47.318 0.11 7.3 9.07 11.31
3/28/2021 12:45:00 PM 8.55 47.39 0.11 7.3 8.58 11.3
3/28/2021 1:00:00 PM 8.58 47.444 0.11 7.3 8.56 11.27
3/28/2021 1:15:00 PM 8.63 47.534 0.11 7.3 8.52 11.28
3/28/2021 1:30:00 PM 8.72 47.696 0.11 7.31 8.5 11.28
3/28/2021 1:45:00 PM 8.81 47.858 0.11 7.32 9.12 11.28
3/28/2021 2:00:00 PM 8.88 47.984 0.11 7.32 8.77 11.26
3/28/2021 2:15:00 PM 8.94 48.092 0.11 7.32 8.75 11.24
3/28/2021 2:30:00 PM 9.05 48.29 0.11 7.33 8.97 11.23
3/28/2021 2:45:00 PM 9.08 48.344 0.11 7.33 8.37 11.21
3/28/2021 3:00:00 PM 9.16 48.488 0.11 7.34 9.45 11.21
3/28/2021 3:15:00 PM 9.26 48.668 0.11 7.35 8.81 11.18
3/28/2021 3:30:00 PM 9.29 48.722 0.11 7.34 9.06 11.15
3/28/2021 3:45:00 PM 9.31 48.758 0.11 7.33 8.34 11.11
3/28/2021 4:00:00 PM 9.3 48.74 0.11 7.33 8.78 11.05
3/28/2021 4:15:00 PM 9.26 48.668 0.11 7.32 9.01 10.99
3/28/2021 4:30:00 PM 9.28 48.704 0.109 7.3 9.8 10.95
3/28/2021 4:45:00 PM 9.26 48.668 0.109 7.29 9.23 10.93
3/28/2021 5:00:00 PM 9.24 48.632 0.109 7.29 9.34 10.93
3/28/2021 5:15:00 PM 9.22 48.596 0.109 7.29 9.4 10.92
3/28/2021 5:30:00 PM 9.19 48.542 0.109 7.28 9.43 10.91
3/28/2021 5:45:00 PM 9.16 48.488 0.109 7.27 10.05 10.89
3/28/2021 6:00:00 PM 9.14 48.452 0.109 7.27 11 10.89
3/28/2021 6:15:00 PM 9.12 48.416 0.109 7.27 11.67 10.89
3/28/2021 6:30:00 PM 9.07 48.326 0.109 7.26 11.29 10.9
3/28/2021 6:45:00 PM 9.03 48.254 0.109 7.26 11.21 10.9
3/28/2021 7:00:00 PM 8.99 48.182 0.109 7.26 12.66 10.91
3/28/2021 7:15:00 PM 8.94 48.092 0.109 7.25 11.98 10.9
3/28/2021 7:30:00 PM 8.89 48.002 0.109 7.25 11.93 10.9
3/28/2021 7:45:00 PM 8.84 47.912 0.11 7.24 13.43 10.88
3/28/2021 8:00:00 PM 8.79 47.822 0.11 7.23 13.51 10.86
3/28/2021 8:15:00 PM 8.73 47.714 0.109 7.22 15.86 10.86
3/28/2021 8:30:00 PM 8.68 47.624 0.109 7.22 15.97 10.85
3/28/2021 8:45:00 PM 8.64 47.552 0.109 7.21 18.22 10.86
3/28/2021 9:00:00 PM 8.59 47.462 0.109 7.21 30.65 10.87
3/28/2021 9:15:00 PM 8.51 47.318 0.108 7.22 28.83 10.88
3/28/2021 9:30:00 PM 8.44 47.192 0.108 7.21 42.59 10.9
3/28/2021 9:45:00 PM 8.38 47.084 0.108 7.21 39.96 10.93
3/28/2021 10:00:00 PM 8.33 46.994 0.108 7.21 40.46 10.96
3/28/2021 10:15:00 PM 8.27 46.886 0.108 7.21 50.42 10.98
3/28/2021 10:30:00 PM 8.2 46.76 0.108 7.21 38.34 11
3/28/2021 10:45:00 PM 8.11 46.598 0.107 7.19 44.48 11.01
3/28/2021 11:00:00 PM 8.03 46.454 0.107 7.19 38.55 11.03
3/28/2021 11:15:00 PM 7.96 46.328 0.107 7.2 31.3 11.05
3/28/2021 11:30:00 PM 7.9 46.22 0.107 7.2 41.84 11.07
3/28/2021 11:45:00 PM 7.83 46.094 0.107 7.2 38.53 11.1
3/29/2021 12:00:00 AM 7.74 45.932 0.107 7.19 52.43 11.14
3/29/2021 12:15:00 AM 7.63 45.734 0.107 7.19 47.06 11.16
3/29/2021 12:30:00 AM 7.54 45.572 0.107 7.2 41.07 11.17
3/29/2021 12:45:00 AM 7.44 45.392 0.107 7.19 48.41 11.19
3/29/2021 1:00:00 AM 7.35 45.23 0.107 7.19 35.19 11.22
3/29/2021 1:15:00 AM 7.27 45.086 0.107 7.18 28.38 11.26
3/29/2021 1:30:00 AM 7.2 44.96 0.106 7.18 39.33 11.29
3/29/2021 1:45:00 AM 7.14 44.852 0.106 7.18 53.05 11.31
3/29/2021 2:00:00 AM 7.09 44.762 0.106 7.17 29.88 11.32
3/29/2021 2:15:00 AM 7.02 44.636 0.107 7.18 32.55 11.33
3/29/2021 2:30:00 AM 6.97 44.546 0.107 7.17 30.45 11.35
3/29/2021 2:45:00 AM 6.91 44.438 0.107 7.18 38.15 11.37
3/29/2021 3:00:00 AM 6.84 44.312 0.107 7.17 42.66 11.38
3/29/2021 3:15:00 AM 6.77 44.186 0.107 7.17 30.92 11.41
3/29/2021 3:30:00 AM 6.71 44.078 0.107 7.16 27.46 11.43
3/29/2021 3:45:00 AM 6.66 43.988 0.107 7.16 32.03 11.45
3/29/2021 4:00:00 AM 6.61 43.898 0.107 7.17 30.18 11.47
3/29/2021 4:15:00 AM 6.56 43.808 0.107 7.16 20.92 11.49
3/29/2021 4:30:00 AM 6.5 43.7 0.107 7.16 25.83 11.51
3/29/2021 4:45:00 AM 6.44 43.592 0.107 7.15 22.56 11.54
3/29/2021 5:00:00 AM 6.4 43.52 0.107 7.15 23.32 11.55
3/29/2021 5:15:00 AM 6.35 43.43 0.107 7.15 19.76 11.57
3/29/2021 5:30:00 AM 6.3 43.34 0.107 7.14 22.67 11.59
3/29/2021 5:45:00 AM 6.25 43.25 0.107 7.12 21.29 11.61
3/29/2021 6:00:00 AM 6.2 43.16 0.107 7.11 15.46 11.63
3/29/2021 6:15:00 AM 6.15 43.07 0.107 7.11 21.23 11.65
3/29/2021 6:30:00 AM 6.11 42.998 0.107 7.11 21.87 11.67
3/29/2021 6:45:00 AM 6.07 42.926 0.107 7.1 18.82 11.69
3/29/2021 7:00:00 AM 6.03 42.854 0.107 7.11 18.86 11.7
3/29/2021 7:15:00 AM 5.98 42.764 0.107 7.12 17.77 11.73
3/29/2021 7:30:00 AM 5.94 42.692 0.107 7.12 19.18 11.76
3/29/2021 7:45:00 AM 5.89 42.602 0.107 7.12 24.01 11.79
3/29/2021 8:00:00 AM 5.86 42.548 0.107 7.13 15.82 11.82
3/29/2021 8:15:00 AM 5.84 42.512 0.107 7.14 15.68 11.86
3/29/2021 8:30:00 AM 5.82 42.476 0.107 7.15 15.2 11.91
3/29/2021 8:45:00 AM 5.81 42.458 0.107 7.16 15.15 11.96
3/29/2021 9:00:00 AM 5.79 42.422 0.107 7.17 15.85 12
3/29/2021 9:15:00 AM 5.78 42.404 0.107 7.18 15.1 12.05
3/29/2021 9:30:00 AM 5.77 42.386 0.107 7.19 14.53 12.08
3/29/2021 9:45:00 AM 5.78 42.404 0.107 7.2 13.71 12.11
3/29/2021 10:00:00 AM 5.8 42.44 0.107 7.21 12.97 12.15
3/29/2021 10:15:00 AM 5.81 42.458 0.108 7.22 12.93 12.18
3/29/2021 10:30:00 AM 5.84 42.512 0.108 7.23 12.74 12.21
3/29/2021 10:45:00 AM 5.89 42.602 0.108 7.24 12.46 12.23
3/29/2021 11:00:00 AM 5.94 42.692 0.108 7.25 12.11 12.25
3/29/2021 11:15:00 AM 6.09 42.962 0.108 7.26 11.99 12.25
3/29/2021 11:30:00 AM 6.4 43.52 0.108 7.28 12.4 12.25
3/29/2021 11:45:00 AM 6.6 43.88 0.108 7.29 12.19 12.22
3/29/2021 12:00:00 PM 6.77 44.186 0.108 7.3 11.76 12.18
3/29/2021 12:15:00 PM 6.92 44.456 0.108 7.31 11.17 12.15
3/29/2021 12:30:00 PM 7.19 44.942 0.108 7.31 11.67 12.14
3/29/2021 12:45:00 PM 7.44 45.392 0.108 7.32 11.37 12.07
3/29/2021 1:00:00 PM 7.7 45.86 0.108 7.33 11.27 12.03
3/29/2021 1:15:00 PM 7.93 46.274 0.108 7.34 12.41 11.97
3/29/2021 1:30:00 PM 8.11 46.598 0.108 7.35 10.83 11.92
3/29/2021 1:45:00 PM 8.3 46.94 0.108 7.35 10.88 11.88
3/29/2021 2:00:00 PM 8.49 47.282 0.108 7.36 11.52 11.81
3/29/2021 2:15:00 PM 8.67 47.606 0.108 7.36 10.54 11.79
3/29/2021 2:30:00 PM 8.85 47.93 0.108 7.37 11.41 11.72
3/29/2021 2:45:00 PM 9.02 48.236 0.108 7.38 11.07 11.68
3/29/2021 3:00:00 PM 9.17 48.506 0.108 7.39 10.67 11.65
3/29/2021 3:15:00 PM 9.3 48.74 0.108 7.4 10.39 11.59
3/29/2021 3:30:00 PM 9.42 48.956 0.108 7.4 10.77 11.55
3/29/2021 3:45:00 PM 9.51 49.118 0.108 7.41 10.33 11.52
3/29/2021 4:00:00 PM 9.56 49.208 0.109 7.41 10.37 11.49
3/29/2021 4:15:00 PM 9.59 49.262 0.109 7.41 10.1 11.48
3/29/2021 4:30:00 PM 9.59 49.262 0.109 7.41 9.67 11.46
3/29/2021 4:45:00 PM 9.55 49.19 0.109 7.4 9.57 11.45
3/29/2021 5:00:00 PM 9.49 49.082 0.109 7.4 9.86 11.44
3/29/2021 5:15:00 PM 9.39 48.902 0.109 7.39 9.77 11.42
3/29/2021 5:30:00 PM 9.29 48.722 0.109 7.4 9.25 11.42
3/29/2021 5:45:00 PM 9.18 48.524 0.109 7.37 9.79 11.43
3/29/2021 6:00:00 PM 9.05 48.29 0.109 7.38 10.36 11.43
3/29/2021 6:15:00 PM 8.91 48.038 0.109 7.36 9.54 11.4
3/29/2021 6:30:00 PM 8.79 47.822 0.109 7.35 9.83 11.4
3/29/2021 6:45:00 PM 8.65 47.57 0.11 7.34 13.58 11.38
3/29/2021 7:00:00 PM 8.54 47.372 0.11 7.31 17.48 11.34
3/29/2021 7:15:00 PM 8.42 47.156 0.11 7.3 19.03 11.3
3/29/2021 7:30:00 PM 8.31 46.958 0.11 7.28 16.03 11.29
3/29/2021 7:45:00 PM 8.21 46.778 0.11 7.27 13.85 11.29
3/29/2021 8:00:00 PM 8.09 46.562 0.11 7.24 11.14 11.27
3/29/2021 8:15:00 PM 7.98 46.364 0.11 7.23 10.6 11.25
3/29/2021 8:30:00 PM 7.88 46.184 0.11 7.22 9.58 11.25
3/29/2021 8:45:00 PM 7.78 46.004 0.111 7.21 9.88 11.27
3/29/2021 9:00:00 PM 7.67 45.806 0.111 7.2 9.73 11.28
3/29/2021 9:15:00 PM 7.58 45.644 0.111 7.21 9.41 11.3
3/29/2021 9:30:00 PM 7.49 45.482 0.111 7.19 9.29 11.31
3/29/2021 9:45:00 PM 7.39 45.302 0.111 7.18 9.29 11.33
3/29/2021 10:00:00 PM 7.31 45.158 0.111 7.18 9.28 11.35
3/29/2021 10:15:00 PM 7.22 44.996 0.111 7.18 8.9 11.38
3/29/2021 10:30:00 PM 7.14 44.852 0.111 7.18 9.34 11.41
3/29/2021 10:45:00 PM 7.05 44.69 0.111 7.18 9.06 11.43
3/29/2021 11:00:00 PM 6.97 44.546 0.111 7.18 8.98 11.44
3/29/2021 11:15:00 PM 6.9 44.42 0.111 7.16 9.2 11.45
3/29/2021 11:30:00 PM 6.82 44.276 0.111 7.16 9.26 11.48
3/29/2021 11:45:00 PM 6.74 44.132 0.111 7.17 9.03 11.51
3/30/2021 12:00:00 AM 6.66 43.988 0.111 7.16 9.57 11.54
3/30/2021 12:15:00 AM 6.59 43.862 0.112 7.16 8.89 11.56
3/30/2021 12:30:00 AM 6.52 43.736 0.112 7.15 8.92 11.58
3/30/2021 12:45:00 AM 6.45 43.61 0.112 7.15 8.9 11.6
3/30/2021 1:00:00 AM 6.38 43.484 0.112 7.16 8.75 11.62
3/30/2021 1:15:00 AM 6.31 43.358 0.112 7.13 8.93 11.64
3/30/2021 1:30:00 AM 6.24 43.232 0.112 7.14 8.54 11.66
3/30/2021 1:45:00 AM 6.17 43.106 0.112 7.15 9.17 11.69
3/30/2021 2:00:00 AM 6.1 42.98 0.112 7.13 8.67 11.71
3/30/2021 2:15:00 AM 6.04 42.872 0.113 7.14 8.5 11.73
3/30/2021 2:30:00 AM 5.98 42.764 0.113 7.13 8.42 11.76
3/30/2021 2:45:00 AM 5.92 42.656 0.113 7.13 8.88 11.78
3/30/2021 3:00:00 AM 5.86 42.548 0.113 7.12 8.27 11.8
3/30/2021 3:15:00 AM 5.8 42.44 0.113 7.12 8.45 11.82
3/30/2021 3:30:00 AM 5.73 42.314 0.113 7.11 8 11.85
3/30/2021 3:45:00 AM 5.67 42.206 0.114 7.11 8.29 11.86
3/30/2021 4:00:00 AM 5.61 42.098 0.114 7.08 8.03 11.88
3/30/2021 4:15:00 AM 5.55 41.99 0.114 7.1 8.07 11.9
3/30/2021 4:30:00 AM 5.49 41.882 0.114 7.04 7.94 11.91
3/30/2021 4:45:00 AM 5.43 41.774 0.114 7.07 7.85 11.93
3/30/2021 5:00:00 AM 5.37 41.666 0.114 7.06 8.22 11.95
3/30/2021 5:15:00 AM 5.31 41.558 0.114 7.05 7.99 11.97
3/30/2021 5:30:00 AM 5.25 41.45 0.114 7.05 8.11 11.99
3/30/2021 5:45:00 AM 5.19 41.342 0.115 7.04 7.92 12.01
3/30/2021 6:00:00 AM 5.14 41.252 0.115 7.04 8.45 12.03
3/30/2021 6:15:00 AM 5.08 41.144 0.115 7.05 7.85 12.06
3/30/2021 6:30:00 AM 5.02 41.036 0.115 7.02 7.59 12.08
3/30/2021 6:45:00 AM 4.96 40.928 0.115 7.03 7.63 12.1
3/30/2021 7:00:00 AM 4.91 40.838 0.115 7.04 7.75 12.13
3/30/2021 7:15:00 AM 4.86 40.748 0.115 7.04 7.88 12.18
3/30/2021 7:30:00 AM 4.82 40.676 0.115 7.05 7.57 12.22
3/30/2021 7:45:00 AM 4.79 40.622 0.115 7.06 7.54 12.29
3/30/2021 8:00:00 AM 4.78 40.604 0.115 7.08 7.33 12.36
3/30/2021 8:15:00 AM 4.78 40.604 0.115 7.09 7.43 12.43
3/30/2021 8:30:00 AM 4.81 40.658 0.115 7.1 7.58 12.49
3/30/2021 8:45:00 AM 4.85 40.73 0.115 7.12 7.47 12.53
3/30/2021 9:00:00 AM 4.91 40.838 0.115 7.14 7.53 12.57
3/30/2021 9:15:00 AM 5 41 0.115 7.17 7.82 12.59
3/30/2021 9:30:00 AM 5.11 41.198 0.115 7.17 7.64 12.6
3/30/2021 9:45:00 AM 5.25 41.45 0.115 7.19 7.34 12.6
3/30/2021 10:00:00 AM 5.4 41.72 0.115 7.21 7.17 12.59
3/30/2021 10:15:00 AM 5.58 42.044 0.115 7.24 7.33 12.59
3/30/2021 10:30:00 AM 5.76 42.368 0.115 7.25 7.17 12.57
3/30/2021 10:45:00 AM 5.96 42.728 0.115 7.27 7.43 12.54
3/30/2021 11:00:00 AM 6.16 43.088 0.115 7.29 7.2 12.5
3/30/2021 11:15:00 AM 6.39 43.502 0.114 7.29 7.8 12.48
3/30/2021 11:30:00 AM 6.64 43.952 0.114 7.31 7.63 12.42
3/30/2021 11:45:00 AM 6.89 44.402 0.114 7.33 7.12 12.36
3/30/2021 12:00:00 PM 7.17 44.906 0.114 7.34 7.04 12.31
3/30/2021 12:15:00 PM 7.47 45.446 0.114 7.35 7.2 12.22
3/30/2021 12:30:00 PM 7.77 45.986 0.114 7.36 6.8 12.17
3/30/2021 12:45:00 PM 8.07 46.526 0.114 7.37 6.82 12.08
3/30/2021 1:00:00 PM 8.37 47.066 0.114 7.38 7.08 11.99
3/30/2021 1:15:00 PM 8.66 47.588 0.114 7.4 6.68 11.93
3/30/2021 1:30:00 PM 8.94 48.092 0.114 7.36 6.75 11.85
3/30/2021 1:45:00 PM 9.22 48.596 0.114 7.4 7.03 11.78
3/30/2021 2:00:00 PM 9.48 49.064 0.114 7.42 7.71 11.71
3/30/2021 2:15:00 PM 9.72 49.496 0.114 7.41 6.8 11.64
3/30/2021 2:30:00 PM 9.95 49.91 0.114 7.43 7.07 11.56
3/30/2021 2:45:00 PM 10.15 50.27 0.114 7.43 6.94 11.51
3/30/2021 3:00:00 PM 10.33 50.594 0.114 7.4 6.84 11.45
3/30/2021 3:15:00 PM 10.49 50.882 0.114 7.45 7.36 11.41
3/30/2021 3:30:00 PM 10.62 51.116 0.113 7.46 8.37 11.37
3/30/2021 3:45:00 PM 10.7 51.26 0.114 7.41 8.45 11.33
3/30/2021 4:00:00 PM 10.76 51.368 0.114 7.44 8.73 11.29
3/30/2021 4:15:00 PM 10.81 51.458 0.113 7.45 9.07 11.26
3/30/2021 4:30:00 PM 10.81 51.458 0.114 7.45 17.77 11.24
3/30/2021 4:45:00 PM 10.75 51.35 0.114 7.4 43.26 11.13
3/30/2021 5:00:00 PM 10.68 51.224 0.114 7.38 77.51 11.02
3/30/2021 5:15:00 PM 10.58 51.044 0.114 7.37 81.95 10.97
3/30/2021 5:30:00 PM 10.47 50.846 0.114 7.35 76.99 11
3/30/2021 5:45:00 PM 10.39 50.702 0.114 7.37 53.45 11.04
3/30/2021 6:00:00 PM 10.31 50.558 0.114 7.37 33.92 11.07
3/30/2021 6:15:00 PM 10.22 50.396 0.114 7.38 32.78 11.09
3/30/2021 6:30:00 PM 10.11 50.198 0.114 7.33 17.54 11.09
3/30/2021 6:45:00 PM 9.99 49.982 0.114 7.35 14.36 11.05
3/30/2021 7:00:00 PM 9.87 49.766 0.114 7.33 12.88 11.01
3/30/2021 7:15:00 PM 9.76 49.568 0.114 7.33 11.13 10.97
3/30/2021 7:30:00 PM 9.64 49.352 0.114 7.31 10.43 10.94
3/30/2021 7:45:00 PM 9.54 49.172 0.115 7.29 10.21 10.89
3/30/2021 8:00:00 PM 9.43 48.974 0.115 7.25 9.31 10.85
3/30/2021 8:15:00 PM 9.34 48.812 0.115 7.26 9.2 10.84
3/30/2021 8:30:00 PM 9.25 48.65 0.115 7.23 8.56 10.84
3/30/2021 8:45:00 PM 9.17 48.506 0.115 7.21 8.59 10.83
3/30/2021 9:00:00 PM 9.09 48.362 0.115 7.23 7.99 10.84
3/30/2021 9:15:00 PM 9.01 48.218 0.115 7.18 8.3 10.83
3/30/2021 9:30:00 PM 8.94 48.092 0.115 7.2 8.23 10.85
3/30/2021 9:45:00 PM 8.87 47.966 0.115 7.22 7.66 10.86
3/30/2021 10:00:00 PM 8.81 47.858 0.115 7.17 7.92 10.87
3/30/2021 10:15:00 PM 8.75 47.75 0.115 7.19 7.87 10.88
3/30/2021 10:30:00 PM 8.69 47.642 0.115 7.21 7.78 10.89
3/30/2021 10:45:00 PM 8.64 47.552 0.115 7.18 7.63 10.91
3/30/2021 11:00:00 PM 8.59 47.462 0.115 7.18 7.82 10.91
3/30/2021 11:15:00 PM 8.54 47.372 0.115 7.19 7.86 10.92
3/30/2021 11:30:00 PM 8.5 47.3 0.116 7.18 7.94 10.93
3/30/2021 11:45:00 PM 8.45 47.21 0.116 7.2 7.6 10.95
3/31/2021 12:00:00 AM 8.4 47.12 0.116 7.15 7.72 10.96
3/31/2021 12:15:00 AM 8.36 47.048 0.116 7.17 7.68 10.98
3/31/2021 12:30:00 AM 8.31 46.958 0.116 7.17 7.61 10.99
3/31/2021 12:45:00 AM 8.27 46.886 0.116 7.17 7.93 10.99
3/31/2021 1:00:00 AM 8.22 46.796 0.116 7.19 7.74 10.99
3/31/2021 1:15:00 AM 8.18 46.724 0.116 7.18 7.48 11
3/31/2021 1:30:00 AM 8.14 46.652 0.116 7.13 7.88 11.01
3/31/2021 1:45:00 AM 8.1 46.58 0.117 7.17 7.79 11.02
3/31/2021 2:00:00 AM 8.06 46.508 0.117 7.18 7.37 11.02
3/31/2021 2:15:00 AM 8.03 46.454 0.117 7.15 7.68 11.03
3/31/2021 2:30:00 AM 7.99 46.382 0.117 7.16 7.91 11.04
3/31/2021 2:45:00 AM 7.96 46.328 0.117 7.18 7.31 11.06
3/31/2021 3:00:00 AM 7.93 46.274 0.117 7.17 7.36 11.07
3/31/2021 3:15:00 AM 7.91 46.238 0.117 7.15 7.75 11.07
3/31/2021 3:30:00 AM 7.88 46.184 0.117 7.16 7.52 11.08
3/31/2021 3:45:00 AM 7.85 46.13 0.117 7.17 7.31 11.09
3/31/2021 4:00:00 AM 7.83 46.094 0.117 7.16 7.69 11.09
3/31/2021 4:15:00 AM 7.8 46.04 0.117 7.16 7.02 11.1
3/31/2021 4:30:00 AM 7.77 45.986 0.117 7.18 7.53 11.1
3/31/2021 4:45:00 AM 7.75 45.95 0.117 7.14 7.27 11.1
3/31/2021 5:00:00 AM 7.72 45.896 0.118 7.18 7.42 11.11
3/31/2021 5:15:00 AM 7.7 45.86 0.118 7.15 7.34 11.11
3/31/2021 5:30:00 AM 7.67 45.806 0.118 7.17 7.26 11.11
3/31/2021 5:45:00 AM 7.65 45.77 0.118 7.18 7.2 11.12
3/31/2021 6:00:00 AM 7.63 45.734 0.118 7.16 6.89 11.12
3/31/2021 6:15:00 AM 7.61 45.698 0.118 7.15 8 11.13
3/31/2021 6:30:00 AM 7.59 45.662 0.118 7.17 6.92 11.14
3/31/2021 6:45:00 AM 7.57 45.626 0.118 7.16 7.09 11.14
3/31/2021 7:00:00 AM 7.56 45.608 0.118 7.18 7.61 11.15
3/31/2021 7:15:00 AM 7.54 45.572 0.118 7.14 7.19 11.17
3/31/2021 7:30:00 AM 7.54 45.572 0.118 7.17 6.95 11.2
3/31/2021 7:45:00 AM 7.53 45.554 0.118 7.2 7.04 11.25
3/31/2021 8:00:00 AM 7.54 45.572 0.118 7.21 7.11 11.31
3/31/2021 8:15:00 AM 7.56 45.608 0.118 7.17 6.9 11.38
3/31/2021 8:30:00 AM 7.59 45.662 0.118 7.24 6.93 11.45
3/31/2021 8:45:00 AM 7.62 45.716 0.118 7.25 6.49 11.51
3/31/2021 9:00:00 AM 7.66 45.788 0.118 7.23 6.93 11.58
3/31/2021 9:15:00 AM 7.71 45.878 0.118 7.28 6.34 11.62
3/31/2021 9:30:00 AM 7.75 45.95 0.118 7.26 6.71 11.65
3/31/2021 9:45:00 AM 7.79 46.022 0.118 7.31 6.38 11.67
3/31/2021 10:00:00 AM 7.84 46.112 0.118 7.3 6.77 11.69
3/31/2021 10:15:00 AM 7.89 46.202 0.118 7.3 6.36 11.71
3/31/2021 10:30:00 AM 7.93 46.274 0.118 7.32 7 11.72
3/31/2021 10:45:00 AM 7.97 46.346 0.118 7.33 6.96 11.7
3/31/2021 11:00:00 AM 8 46.4 0.118 7.32 6.24 11.7
3/31/2021 11:15:00 AM 8.04 46.472 0.118 7.35 6.52 11.7
3/31/2021 11:30:00 AM 8.09 46.562 0.118 7.3 6.55 11.7
3/31/2021 11:45:00 AM 8.11 46.598 0.118 7.35 6.55 11.68
3/31/2021 12:00:00 PM 8.13 46.634 0.118 7.33 7 11.64
3/31/2021 12:15:00 PM 8.15 46.67 0.118 7.35 8.28 11.6
3/31/2021 12:30:00 PM 8.16 46.688 0.118 7.3 13.66 11.55
3/31/2021 12:45:00 PM 8.18 46.724 0.118 7.33 19.8 11.5
3/31/2021 1:00:00 PM 8.23 46.814 0.118 7.27 28.39 11.5
3/31/2021 1:15:00 PM 8.26 46.868 0.118 7.31 29.44 11.49
3/31/2021 1:30:00 PM 8.29 46.922 0.118 7.3 39.95 11.45
3/31/2021 1:45:00 PM 8.31 46.958 0.118 7.28 58.88 11.39
3/31/2021 2:00:00 PM 8.33 46.994 0.118 7.3 71.27 11.39
3/31/2021 2:15:00 PM 8.35 47.03 0.118 7.28 38.88 11.42
3/31/2021 2:30:00 PM 8.42 47.156 0.118 7.31 25.95 11.49
3/31/2021 2:45:00 PM 8.43 47.174 0.117 7.32 19.53 11.5
3/31/2021 3:00:00 PM 8.46 47.228 0.117 7.33 14.4 11.49
3/31/2021 3:15:00 PM 8.47 47.246 0.117 7.31 11.75 11.46
3/31/2021 3:30:00 PM 8.47 47.246 0.118 7.32 10.37 11.43
3/31/2021 3:45:00 PM 8.48 47.264 0.118 7.33 9.19 11.41
3/31/2021 4:00:00 PM 8.48 47.264 0.118 7.31 8.49 11.4
3/31/2021 4:15:00 PM 8.48 47.264 0.118 7.3 8.29 11.38
3/31/2021 4:30:00 PM 8.48 47.264 0.118 7.31 8.28 11.35
3/31/2021 4:45:00 PM 8.47 47.246 0.118 7.3 7.79 11.31
3/31/2021 5:00:00 PM 8.47 47.246 0.118 7.27 7.77 11.27
3/31/2021 5:15:00 PM 8.46 47.228 0.118 7.29 7.55 11.25
3/31/2021 5:30:00 PM 8.46 47.228 0.118 7.24 7.14 11.24
3/31/2021 5:45:00 PM 8.45 47.21 0.118 7.28 7.19 11.23
3/31/2021 6:00:00 PM 8.45 47.21 0.118 7.24 7.26 11.21
3/31/2021 6:15:00 PM 8.44 47.192 0.118 7.25 7.16 11.18
3/31/2021 6:30:00 PM 8.42 47.156 0.117 7.26 7.25 11.15
3/31/2021 6:45:00 PM 8.38 47.084 0.117 7.25 7.07 11.13
3/31/2021 7:00:00 PM 8.34 47.012 0.117 7.22 6.63 11.11
3/31/2021 7:15:00 PM 8.3 46.94 0.117 7.23 7.25 11.09
3/31/2021 7:30:00 PM 8.26 46.868 0.117 7.22 7.06 11.07
3/31/2021 7:45:00 PM 8.22 46.796 0.117 7.23 7.27 11.05
3/31/2021 8:00:00 PM 8.18 46.724 0.118 7.2 7.27 11.04
3/31/2021 8:15:00 PM 8.14 46.652 0.118 7.2 7.13 11.04
3/31/2021 8:30:00 PM 8.1 46.58 0.118 7.2 7.18 11.04
3/31/2021 8:45:00 PM 8.07 46.526 0.118 7.21 7.09 11.04
3/31/2021 9:00:00 PM 8.03 46.454 0.118 7.2 7.4 11.05
3/31/2021 9:15:00 PM 8 46.4 0.118 7.2 7.26 11.06
3/31/2021 9:30:00 PM 7.97 46.346 0.118 7.19 7.51 11.07
3/31/2021 9:45:00 PM 7.93 46.274 0.118 7.19 7.84 11.08
3/31/2021 10:00:00 PM 7.9 46.22 0.118 7.19 7.39 11.08
3/31/2021 10:15:00 PM 7.86 46.148 0.118 7.19 7.34 11.09
3/31/2021 10:30:00 PM 7.82 46.076 0.118 7.19 7.26 11.09
3/31/2021 10:45:00 PM 7.79 46.022 0.118 7.18 7.81 11.1
3/31/2021 11:00:00 PM 7.75 45.95 0.118 7.2 7.04 11.1
3/31/2021 11:15:00 PM 7.72 45.896 0.118 7.2 6.92 11.11
3/31/2021 11:30:00 PM 7.69 45.842 0.118 7.15 7.29 11.12
3/31/2021 11:45:00 PM 7.67 45.806 0.118 7.2 7.18 11.13
4/1/2021 12:00:00 AM 7.64 45.752 0.118 7.17 7.49 11.14
4/1/2021 12:15:00 AM 7.6 45.68 0.118 7.18 7.38 11.14
4/1/2021 12:30:00 AM 7.57 45.626 0.118 7.19 7.27 11.16
4/1/2021 12:45:00 AM 7.54 45.572 0.118 7.19 7.31 11.17
4/1/2021 1:00:00 AM 7.51 45.518 0.117 7.18 7.79 11.18
4/1/2021 1:15:00 AM 7.48 45.464 0.117 7.19 7.58 11.19
4/1/2021 1:30:00 AM 7.45 45.41 0.117 7.16 7.73 11.2
4/1/2021 1:45:00 AM 7.41 45.338 0.117 7.18 7.94 11.22
4/1/2021 2:00:00 AM 7.37 45.266 0.117 7.18 7.7 11.22
4/1/2021 2:15:00 AM 7.34 45.212 0.117 7.2 7.88 11.24
4/1/2021 2:30:00 AM 7.3 45.14 0.117 7.18 7.98 11.24
4/1/2021 2:45:00 AM 7.23 45.014 0.117 7.19 7.82 11.25
4/1/2021 3:00:00 AM 7.16 44.888 0.117 7.2 7.93 11.26
4/1/2021 3:15:00 AM 7.04 44.672 0.117 7.15 7.52 11.28
4/1/2021 3:30:00 AM 6.9 44.42 0.117 7.18 7.5 11.31
4/1/2021 3:45:00 AM 6.79 44.222 0.117 7.18 7.73 11.34
4/1/2021 4:00:00 AM 6.68 44.024 0.117 7.2 7.74 11.35
4/1/2021 4:15:00 AM 6.59 43.862 0.117 7.19 8 11.37
4/1/2021 4:30:00 AM 6.52 43.736 0.117 7.2 7.45 11.4
4/1/2021 4:45:00 AM 6.47 43.646 0.117 7.17 7.2 11.43
4/1/2021 5:00:00 AM 6.42 43.556 0.117 7.17 7.33 11.45
4/1/2021 5:15:00 AM 6.35 43.43 0.117 7.19 7.72 11.47
4/1/2021 5:30:00 AM 6.29 43.322 0.117 7.19 7.59 11.5
4/1/2021 5:45:00 AM 6.14 43.052 0.117 7.17 7.76 11.53
4/1/2021 6:00:00 AM 6.01 42.818 0.116 7.17 7.32 11.56
4/1/2021 6:15:00 AM 5.92 42.656 0.116 7.17 7.45 11.58
4/1/2021 6:30:00 AM 5.82 42.476 0.116 7.19 8.04 11.61
4/1/2021 6:45:00 AM 5.77 42.386 0.116 7.19 8.37 11.64
4/1/2021 7:00:00 AM 5.75 42.35 0.116 7.13 7.88 11.67
4/1/2021 7:15:00 AM 5.73 42.314 0.116 7.17 7.47 11.7
4/1/2021 7:30:00 AM 5.73 42.314 0.116 7.18 7.78 11.74
4/1/2021 7:45:00 AM 5.74 42.332 0.116 7.19 7.66 11.8
4/1/2021 8:00:00 AM 5.75 42.35 0.116 7.22 7.51 11.88
4/1/2021 8:15:00 AM 5.75 42.35 0.116 7.21 7.94 11.95
4/1/2021 8:30:00 AM 5.75 42.35 0.116 7.22 7.93 12.04
4/1/2021 8:45:00 AM 5.76 42.368 0.116 7.26 7.76 12.11
4/1/2021 9:00:00 AM 5.77 42.386 0.116 7.26 7.91 12.19
4/1/2021 9:15:00 AM 5.78 42.404 0.116 7.28 7.93 12.25
4/1/2021 9:30:00 AM 5.82 42.476 0.116 7.31 8.35 12.3
4/1/2021 9:45:00 AM 5.91 42.638 0.116 7.31 7.89 12.33
4/1/2021 10:00:00 AM 5.97 42.746 0.115 7.31 7.93 12.34
4/1/2021 10:15:00 AM 6.01 42.818 0.115 7.34 8.07 12.36
4/1/2021 10:30:00 AM 6.14 43.052 0.115 7.34 7.85 12.36
4/1/2021 10:45:00 AM 6.34 43.412 0.115 7.35 7.93 12.36
4/1/2021 11:00:00 AM 6.58 43.844 0.115 7.36 7.88 12.35
4/1/2021 11:15:00 AM 6.74 44.132 0.115 7.37 7.92 12.31
4/1/2021 11:30:00 AM 6.82 44.276 0.115 7.38 8.1 12.29
4/1/2021 11:45:00 AM 6.8 44.24 0.115 7.4 7.93 12.27
4/1/2021 12:00:00 PM 6.92 44.456 0.115 7.36 7.5 12.29
4/1/2021 12:15:00 PM 7.08 44.744 0.115 7.4 8.12 12.28
4/1/2021 12:30:00 PM 7.2 44.96 0.115 7.41 8.25 12.23
4/1/2021 12:45:00 PM 7.34 45.212 0.115 7.4 7.63 12.19
4/1/2021 1:00:00 PM 7.51 45.518 0.115 7.43 7.37 12.16
4/1/2021 1:15:00 PM 7.69 45.842 0.115 7.39 7.75 12.12
4/1/2021 1:30:00 PM 7.82 46.076 0.115 7.42 7.65 12.06
4/1/2021 1:45:00 PM 7.89 46.202 0.115 7.44 7.8 12.02
4/1/2021 2:00:00 PM 7.92 46.256 0.116 7.45 7.8 11.99
4/1/2021 2:15:00 PM 7.91 46.238 0.116 7.42 7.76 11.98
4/1/2021 2:30:00 PM 7.85 46.13 0.116 7.45 7.77 11.99
4/1/2021 2:45:00 PM 7.92 46.256 0.116 7.44 7.5 12
4/1/2021 3:00:00 PM 7.89 46.202 0.116 7.44 7.45 11.98
4/1/2021 3:15:00 PM 7.91 46.238 0.116 7.45 7.5 11.97
4/1/2021 3:30:00 PM 7.95 46.31 0.116 7.44 7.61 11.94
4/1/2021 3:45:00 PM 7.92 46.256 0.116 7.44 7.73 11.94
4/1/2021 4:00:00 PM 7.92 46.256 0.116 7.45 7.66 11.91
4/1/2021 4:15:00 PM 7.91 46.238 0.116 7.43 7.61 11.88
4/1/2021 4:30:00 PM 7.71 45.878 0.116 7.42 7.8 11.85
4/1/2021 4:45:00 PM 7.69 45.842 0.116 7.42 8.02 11.87
4/1/2021 5:00:00 PM 7.6 45.68 0.116 7.42 8.36 11.89
4/1/2021 5:15:00 PM 7.52 45.536 0.116 7.43 8.29 11.92
4/1/2021 5:30:00 PM 7.46 45.428 0.116 7.38 8.41 11.94
4/1/2021 5:45:00 PM 7.35 45.23 0.116 7.42 8.42 11.92
4/1/2021 6:00:00 PM 7.3 45.14 0.116 7.37 8.16 11.92
4/1/2021 6:15:00 PM 7.19 44.942 0.116 7.38 8.57 11.89
4/1/2021 6:30:00 PM 7.09 44.762 0.116 7.37 8.76 11.89
4/1/2021 6:45:00 PM 6.97 44.546 0.116 7.35 9 11.88
4/1/2021 7:00:00 PM 6.83 44.294 0.116 7.34 9.27 11.86
4/1/2021 7:15:00 PM 6.72 44.096 0.116 7.32 9.21 11.84
4/1/2021 7:30:00 PM 6.61 43.898 0.116 7.32 8.81 11.82
4/1/2021 7:45:00 PM 6.49 43.682 0.116 7.29 9.02 11.81
4/1/2021 8:00:00 PM 6.38 43.484 0.116 7.24 9.84 11.77
4/1/2021 8:15:00 PM 6.29 43.322 0.116 7.25 9.63 11.75
4/1/2021 8:30:00 PM 6.18 43.124 0.116 7.23 9.38 11.76
4/1/2021 8:45:00 PM 6.09 42.962 0.116 7.24 9.11 11.77
4/1/2021 9:00:00 PM 6 42.8 0.116 7.19 8.74 11.79
4/1/2021 9:15:00 PM 5.87 42.566 0.116 7.21 9.35 11.81
4/1/2021 9:30:00 PM 5.79 42.422 0.116 7.21 9.38 11.83
4/1/2021 9:45:00 PM 5.73 42.314 0.116 7.2 9.41 11.85
4/1/2021 10:00:00 PM 5.64 42.152 0.116 7.21 9.14 11.87
4/1/2021 10:15:00 PM 5.56 42.008 0.116 7.21 8.91 11.89
4/1/2021 10:30:00 PM 5.49 41.882 0.116 7.15 8.98 11.91
4/1/2021 10:45:00 PM 5.41 41.738 0.116 7.18 9 11.93
4/1/2021 11:00:00 PM 5.35 41.63 0.116 7.18 8.79 11.95
4/1/2021 11:15:00 PM 5.25 41.45 0.116 7.16 9.03 11.99
4/1/2021 11:30:00 PM 5.17 41.306 0.116 7.16 9.18 12.01
4/1/2021 11:45:00 PM 5.1 41.18 0.116 7.15 9.45 12.04
4/2/2021 12:00:00 AM 5.04 41.072 0.116 7.15 9.03 12.06
4/2/2021 12:15:00 AM 4.99 40.982 0.116 7.14 9.02 12.08
4/2/2021 12:30:00 AM 4.91 40.838 0.116 7.14 10.07 12.11
4/2/2021 12:45:00 AM 4.83 40.694 0.116 7.13 9.11 12.14
4/2/2021 1:00:00 AM 4.73 40.514 0.116 7.15 8.43 12.17
4/2/2021 1:15:00 AM 4.65 40.37 0.116 7.1 9.32 12.2
4/2/2021 1:30:00 AM 4.57 40.226 0.116 7.13 8.32 12.23
4/2/2021 1:45:00 AM 4.46 40.028 0.116 7.08 8.87 12.27
4/2/2021 2:00:00 AM 4.36 39.848 0.116 7.11 8.38 12.3
4/2/2021 2:15:00 AM 4.27 39.686 0.116 7.09 8.32 12.33
4/2/2021 2:30:00 AM 4.19 39.542 0.117 7.1 8.42 12.36
4/2/2021 2:45:00 AM 4.1 39.38 0.117 7.1 8.46 12.39
4/2/2021 3:00:00 AM 4.02 39.236 0.117 7.08 8.09 12.41
4/2/2021 3:15:00 AM 3.96 39.128 0.117 7.08 8.15 12.44
4/2/2021 3:30:00 AM 3.9 39.02 0.117 7.07 8.04 12.46
4/2/2021 3:45:00 AM 3.85 38.93 0.117 7.07 8.68 12.48
4/2/2021 4:00:00 AM 3.82 38.876 0.117 7.06 7.81 12.49
4/2/2021 4:15:00 AM 3.77 38.786 0.117 7.06 7.89 12.51
4/2/2021 4:30:00 AM 3.73 38.714 0.117 7.06 7.46 12.52
4/2/2021 4:45:00 AM 3.7 38.66 0.117 7.02 7.69 12.54
4/2/2021 5:00:00 AM 3.66 38.588 0.117 7.04 7.45 12.55
4/2/2021 5:15:00 AM 3.63 38.534 0.117 7.03 7.75 12.56
4/2/2021 5:30:00 AM 3.6 38.48 0.117 7.04 7.49 12.58
4/2/2021 5:45:00 AM 3.56 38.408 0.117 7 7.43 12.59
4/2/2021 6:00:00 AM 3.53 38.354 0.117 7.04 7.75 12.6
4/2/2021 6:15:00 AM 3.5 38.3 0.117 7.02 7.72 12.62
4/2/2021 6:30:00 AM 3.47 38.246 0.117 7.05 7.59 12.63
4/2/2021 6:45:00 AM 3.43 38.174 0.117 7.01 7.67 12.65
4/2/2021 7:00:00 AM 3.4 38.12 0.117 7.04 7.37 12.68
4/2/2021 7:15:00 AM 3.36 38.048 0.117 7.05 7.35 12.72
4/2/2021 7:30:00 AM 3.34 38.012 0.117 7.07 7.25 12.79
4/2/2021 7:45:00 AM 3.32 37.976 0.117 7.09 7.26 12.87
4/2/2021 8:00:00 AM 3.3 37.94 0.118 7.11 7.33 12.95
4/2/2021 8:15:00 AM 3.3 37.94 0.117 7.13 7.65 13.04
4/2/2021 8:30:00 AM 3.3 37.94 0.117 7.17 7.21 13.12
4/2/2021 8:45:00 AM 3.31 37.958 0.118 7.15 7.26 13.17
4/2/2021 9:00:00 AM 3.34 38.012 0.118 7.19 7.04 13.2
4/2/2021 9:15:00 AM 3.35 38.03 0.118 7.19 7.09 13.24
4/2/2021 9:30:00 AM 3.42 38.156 0.118 7.21 6.91 13.27
4/2/2021 9:45:00 AM 3.54 38.372 0.118 7.23 7.18 13.28
4/2/2021 10:00:00 AM 3.71 38.678 0.118 7.24 6.96 13.29
4/2/2021 10:15:00 AM 3.84 38.912 0.118 7.26 7.31 13.29
4/2/2021 10:30:00 AM 4 39.2 0.118 7.28 6.97 13.28
4/2/2021 10:45:00 AM 4.16 39.488 0.118 7.3 6.88 13.25
4/2/2021 11:00:00 AM 4.25 39.65 0.118 7.3 6.99 13.23
4/2/2021 11:15:00 AM 4.33 39.794 0.118 7.32 6.63 13.21
4/2/2021 11:30:00 AM 4.45 40.01 0.118 7.34 6.81 13.19
4/2/2021 11:45:00 AM 4.63 40.334 0.118 7.34 6.46 13.16
4/2/2021 12:00:00 PM 4.9 40.82 0.118 7.35 6.87 13.11
4/2/2021 12:15:00 PM 5.17 41.306 0.118 7.38 6.48 13.05
4/2/2021 12:30:00 PM 5.45 41.81 0.118 7.39 6.54 12.96
4/2/2021 12:45:00 PM 5.71 42.278 0.118 7.38 6.24 12.89
4/2/2021 1:00:00 PM 5.98 42.764 0.118 7.42 6.57 12.83
4/2/2021 1:15:00 PM 6.23 43.214 0.118 7.43 6.4 12.74
4/2/2021 1:30:00 PM 6.47 43.646 0.118 7.44 6.54 12.68
4/2/2021 1:45:00 PM 6.7 44.06 0.118 7.46 6.32 12.61
4/2/2021 2:00:00 PM 6.92 44.456 0.118 7.47 6.26 12.54
4/2/2021 2:15:00 PM 7.11 44.798 0.118 7.47 6.54 12.49
4/2/2021 2:30:00 PM 7.28 45.104 0.118 7.48 6.57 12.43
4/2/2021 2:45:00 PM 7.43 45.374 0.118 7.48 6.92 12.37
4/2/2021 3:00:00 PM 7.57 45.626 0.118 7.48 6.49 12.33
4/2/2021 3:15:00 PM 7.68 45.824 0.118 7.49 6.6 12.29
4/2/2021 3:30:00 PM 7.76 45.968 0.118 7.49 6.93 12.26
4/2/2021 3:45:00 PM 7.81 46.058 0.118 7.49 6.66 12.24
4/2/2021 4:00:00 PM 7.83 46.094 0.118 7.49 6.78 12.21
4/2/2021 4:15:00 PM 7.79 46.022 0.118 7.48 6.21 12.19
4/2/2021 4:30:00 PM 7.74 45.932 0.118 7.48 6.52 12.18
4/2/2021 4:45:00 PM 7.65 45.77 0.118 7.47 6.33 12.17
4/2/2021 5:00:00 PM 7.59 45.662 0.118 7.47 6.19 12.16
4/2/2021 5:15:00 PM 7.5 45.5 0.118 7.47 6.5 12.16
4/2/2021 5:30:00 PM 7.38 45.284 0.118 7.46 6.4 12.18
4/2/2021 5:45:00 PM 7.25 45.05 0.118 7.45 6.5 12.18
4/2/2021 6:00:00 PM 7.09 44.762 0.118 7.45 7.26 12.18
4/2/2021 6:15:00 PM 6.91 44.438 0.118 7.43 6.83 12.18
4/2/2021 6:30:00 PM 6.73 44.114 0.119 7.42 6.78 12.19
4/2/2021 6:45:00 PM 6.56 43.808 0.119 7.4 6.94 12.17
4/2/2021 7:00:00 PM 6.38 43.484 0.119 7.38 6.68 12.15
4/2/2021 7:15:00 PM 6.22 43.196 0.119 7.36 6.77 12.15
4/2/2021 7:30:00 PM 6.06 42.908 0.119 7.34 6.9 12.11
4/2/2021 7:45:00 PM 5.92 42.656 0.119 7.32 6.74 12.07
4/2/2021 8:00:00 PM 5.78 42.404 0.119 7.3 6.87 12.05
4/2/2021 8:15:00 PM 5.66 42.188 0.119 7.28 6.44 12.04
4/2/2021 8:30:00 PM 5.56 42.008 0.119 7.26 6.52 12.04
4/2/2021 8:45:00 PM 5.45 41.81 0.12 7.25 6.47 12.03
4/2/2021 9:00:00 PM 5.35 41.63 0.12 7.23 6.65 12.04
4/2/2021 9:15:00 PM 5.26 41.468 0.12 7.23 6.55 12.05
4/2/2021 9:30:00 PM 5.16 41.288 0.12 7.22 6.55 12.07
4/2/2021 9:45:00 PM 5.08 41.144 0.12 7.21 6.46 12.09
4/2/2021 10:00:00 PM 5 41 0.12 7.21 6.35 12.11
4/2/2021 10:15:00 PM 4.91 40.838 0.12 7.2 6.36 12.14
4/2/2021 10:30:00 PM 4.83 40.694 0.12 7.2 6.57 12.16
4/2/2021 10:45:00 PM 4.76 40.568 0.12 7.19 6.19 12.18
4/2/2021 11:00:00 PM 4.69 40.442 0.12 7.19 6.26 12.2
4/2/2021 11:15:00 PM 4.62 40.316 0.12 7.19 6.18 12.21
4/2/2021 11:30:00 PM 4.56 40.208 0.12 7.19 6.33 12.23
4/2/2021 11:45:00 PM 4.49 40.082 0.12 7.18 6.2 12.25
4/3/2021 12:00:00 AM 4.42 39.956 0.12 7.18 6.33 12.27
4/3/2021 12:15:00 AM 4.35 39.83 0.12 7.18 6.2 12.29
4/3/2021 12:30:00 AM 4.28 39.704 0.12 7.18 6.22 12.31
4/3/2021 12:45:00 AM 4.22 39.596 0.12 7.17 6.21 12.33
4/3/2021 1:00:00 AM 4.15 39.47 0.121 7.17 6.29 12.36
4/3/2021 1:15:00 AM 4.08 39.344 0.121 7.17 6.73 12.38
4/3/2021 1:30:00 AM 4.01 39.218 0.121 7.17 6.12 12.41
4/3/2021 1:45:00 AM 3.94 39.092 0.121 7.17 6.68 12.43
4/3/2021 2:00:00 AM 3.88 38.984 0.121 7.16 6.32 12.45
4/3/2021 2:15:00 AM 3.81 38.858 0.121 7.16 6.49 12.48
4/3/2021 2:30:00 AM 3.75 38.75 0.121 7.16 6.3 12.5
4/3/2021 2:45:00 AM 3.68 38.624 0.121 7.15 6.08 12.52
4/3/2021 3:00:00 AM 3.63 38.534 0.121 7.15 6.12 12.54
4/3/2021 3:15:00 AM 3.56 38.408 0.121 7.15 6.52 12.57
4/3/2021 3:30:00 AM 3.51 38.318 0.121 7.14 6.25 12.59
4/3/2021 3:45:00 AM 3.46 38.228 0.121 7.13 6.06 12.61
4/3/2021 4:00:00 AM 3.4 38.12 0.121 7.13 5.94 12.63
4/3/2021 4:15:00 AM 3.34 38.012 0.121 7.12 5.99 12.65
4/3/2021 4:30:00 AM 3.28 37.904 0.121 7.11 6.02 12.67
4/3/2021 4:45:00 AM 3.23 37.814 0.121 7.11 5.99 12.7
4/3/2021 5:00:00 AM 3.18 37.724 0.122 7.1 6.09 12.72
4/3/2021 5:15:00 AM 3.13 37.634 0.122 7.1 6.24 12.73
4/3/2021 5:30:00 AM 3.08 37.544 0.122 7.09 6.06 12.76
4/3/2021 5:45:00 AM 3.03 37.454 0.122 7.09 6.11 12.78
4/3/2021 6:00:00 AM 2.98 37.364 0.122 7.09 5.79 12.8
4/3/2021 6:15:00 AM 2.93 37.274 0.122 7.09 6.04 12.83
4/3/2021 6:30:00 AM 2.87 37.166 0.122 7.08 5.99 12.85
4/3/2021 6:45:00 AM 2.82 37.076 0.122 7.08 5.86 12.87
4/3/2021 7:00:00 AM 2.78 37.004 0.122 7.07 6.07 12.91
4/3/2021 7:15:00 AM 2.74 36.932 0.122 7.08 6.43 12.96
4/3/2021 7:30:00 AM 2.71 36.878 0.122 7.09 6.37 13.03
4/3/2021 7:45:00 AM 2.69 36.842 0.122 7.1 6.24 13.11
4/3/2021 8:00:00 AM 2.69 36.842 0.122 7.12 5.86 13.21
4/3/2021 8:15:00 AM 2.71 36.878 0.122 7.14 5.91 13.29
4/3/2021 8:30:00 AM 2.75 36.95 0.122 7.16 5.77 13.36
4/3/2021 8:45:00 AM 2.81 37.058 0.122 7.18 5.82 13.41
4/3/2021 9:00:00 AM 2.89 37.202 0.122 7.19 5.77 13.45
4/3/2021 9:15:00 AM 2.99 37.382 0.122 7.21 5.78 13.48
4/3/2021 9:30:00 AM 3.11 37.598 0.122 7.23 5.74 13.5
4/3/2021 9:45:00 AM 3.24 37.832 0.122 7.24 5.78 13.52
4/3/2021 10:00:00 AM 3.4 38.12 0.122 7.26 5.66 13.51
4/3/2021 10:15:00 AM 3.58 38.444 0.122 7.27 5.75 13.49
4/3/2021 10:30:00 AM 3.76 38.768 0.122 7.29 5.59 13.47
4/3/2021 10:45:00 AM 3.99 39.182 0.122 7.31 5.55 13.42
4/3/2021 11:00:00 AM 4.19 39.542 0.122 7.32 5.71 13.38
4/3/2021 11:15:00 AM 4.42 39.956 0.122 7.35 5.49 13.35
4/3/2021 11:30:00 AM 4.65 40.37 0.122 7.36 5.62 13.3
4/3/2021 11:45:00 AM 4.9 40.82 0.122 7.37 5.53 13.25
4/3/2021 12:00:00 PM 5.16 41.288 0.121 7.39 5.51 13.18
4/3/2021 12:15:00 PM 5.42 41.756 0.121 7.4 5.55 13.11
4/3/2021 12:30:00 PM 5.69 42.242 0.121 7.4 5.19 13.04
4/3/2021 12:45:00 PM 5.97 42.746 0.121 7.41 5.26 12.96
4/3/2021 1:00:00 PM 6.23 43.214 0.121 7.42 5.4 12.89
4/3/2021 1:15:00 PM 6.49 43.682 0.121 7.43 5.54 12.82
4/3/2021 1:30:00 PM 6.78 44.204 0.121 7.44 5.75 12.73
4/3/2021 1:45:00 PM 7.06 44.708 0.121 7.44 5.34 12.65
4/3/2021 2:00:00 PM 7.32 45.176 0.121 7.46 5.36 12.57
4/3/2021 2:15:00 PM 7.56 45.608 0.121 7.42 6.7 12.5
4/3/2021 2:30:00 PM 7.79 46.022 0.121 7.46 6.64 12.41
4/3/2021 2:45:00 PM 8.01 46.418 0.121 7.48 6.38 12.34
4/3/2021 3:00:00 PM 8.17 46.706 0.121 7.48 6.41 12.29
4/3/2021 3:15:00 PM 8.25 46.85 0.121 7.47 6.1 12.24
4/3/2021 3:30:00 PM 8.28 46.904 0.121 7.47 6.39 12.2
4/3/2021 3:45:00 PM 8.29 46.922 0.121 7.48 6.76 12.16
4/3/2021 4:00:00 PM 8.3 46.94 0.121 7.48 7.3 12.15
4/3/2021 4:15:00 PM 8.21 46.778 0.121 7.48 7.25 12.14
4/3/2021 4:30:00 PM 8.13 46.634 0.121 7.48 7.27 12.13
4/3/2021 4:45:00 PM 8.06 46.508 0.121 7.48 6.82 12.14
4/3/2021 5:00:00 PM 7.98 46.364 0.121 7.47 6.27 12.13
4/3/2021 5:15:00 PM 7.85 46.13 0.121 7.48 6.09 12.12
4/3/2021 5:30:00 PM 7.76 45.968 0.121 7.47 6.21 12.12
4/3/2021 5:45:00 PM 7.7 45.86 0.121 7.47 5.87 12.13
4/3/2021 6:00:00 PM 7.65 45.77 0.121 7.46 5.73 12.14
4/3/2021 6:15:00 PM 7.58 45.644 0.121 7.46 6.23 12.14
4/3/2021 6:30:00 PM 7.5 45.5 0.121 7.46 6.39 12.14
4/3/2021 6:45:00 PM 7.4 45.32 0.121 7.45 6.36 12.12
4/3/2021 7:00:00 PM 7.29 45.122 0.121 7.42 6.56 12.08
4/3/2021 7:15:00 PM 7.15 44.87 0.121 7.4 6.68 12.02
4/3/2021 7:30:00 PM 7.02 44.636 0.121 7.37 6.69 11.94
4/3/2021 7:45:00 PM 6.9 44.42 0.122 7.34 6.81 11.87
4/3/2021 8:00:00 PM 6.78 44.204 0.122 7.31 6.89 11.81
4/3/2021 8:15:00 PM 6.67 44.006 0.122 7.29 6.83 11.76
4/3/2021 8:30:00 PM 6.57 43.826 0.122 7.27 7.17 11.73
4/3/2021 8:45:00 PM 6.49 43.682 0.122 7.25 7.16 11.71
4/3/2021 9:00:00 PM 6.42 43.556 0.122 7.25 6.97 11.68
4/3/2021 9:15:00 PM 6.37 43.466 0.122 7.24 6.78 11.68
4/3/2021 9:30:00 PM 6.32 43.376 0.122 7.23 6.65 11.68
4/3/2021 9:45:00 PM 6.28 43.304 0.122 7.22 6.77 11.69
4/3/2021 10:00:00 PM 6.25 43.25 0.122 7.22 6.61 11.69
4/3/2021 10:15:00 PM 6.21 43.178 0.122 7.22 6.45 11.7
4/3/2021 10:30:00 PM 6.19 43.142 0.122 7.22 6.61 11.71
4/3/2021 10:45:00 PM 6.16 43.088 0.122 7.21 6.52 11.72
4/3/2021 11:00:00 PM 6.13 43.034 0.122 7.21 6.02 11.72
4/3/2021 11:15:00 PM 6.11 42.998 0.122 7.21 6.28 11.74
4/3/2021 11:30:00 PM 6.09 42.962 0.122 7.21 6.07 11.73
4/3/2021 11:45:00 PM 6.06 42.908 0.122 7.2 5.99 11.73
4/4/2021 12:00:00 AM 6.04 42.872 0.122 7.2 6.12 11.72
4/4/2021 12:15:00 AM 6.02 42.836 0.122 7.2 6.23 11.73
4/4/2021 12:30:00 AM 5.99 42.782 0.122 7.2 6.15 11.74
4/4/2021 12:45:00 AM 5.96 42.728 0.122 7.19 6.19 11.74
4/4/2021 1:00:00 AM 5.93 42.674 0.122 7.19 6.5 11.75
4/4/2021 1:15:00 AM 5.91 42.638 0.122 7.19 6.05 11.75
4/4/2021 1:30:00 AM 5.88 42.584 0.122 7.19 6.15 11.76
4/4/2021 1:45:00 AM 5.86 42.548 0.122 7.19 5.85 11.77
4/4/2021 2:00:00 AM 5.83 42.494 0.123 7.19 6.07 11.77
4/4/2021 2:15:00 AM 5.81 42.458 0.123 7.18 5.96 11.78
4/4/2021 2:30:00 AM 5.79 42.422 0.123 7.18 5.98 11.78
4/4/2021 2:45:00 AM 5.77 42.386 0.123 7.18 5.97 11.79
4/4/2021 3:00:00 AM 5.75 42.35 0.123 7.18 5.92 11.79
4/4/2021 3:15:00 AM 5.73 42.314 0.123 7.18 5.95 11.79
4/4/2021 3:30:00 AM 5.71 42.278 0.123 7.18 5.94 11.8
4/4/2021 3:45:00 AM 5.69 42.242 0.123 7.18 6.1 11.8
4/4/2021 4:00:00 AM 5.67 42.206 0.123 7.18 5.94 11.8
4/4/2021 4:15:00 AM 5.65 42.17 0.123 7.18 5.88 11.81
4/4/2021 4:30:00 AM 5.62 42.116 0.123 7.18 5.93 11.81
4/4/2021 4:45:00 AM 5.6 42.08 0.123 7.18 6.05 11.81
4/4/2021 5:00:00 AM 5.58 42.044 0.123 7.18 5.87 11.82
4/4/2021 5:15:00 AM 5.56 42.008 0.123 7.18 6.04 11.82
4/4/2021 5:30:00 AM 5.54 41.972 0.123 7.17 5.9 11.82
4/4/2021 5:45:00 AM 5.51 41.918 0.123 7.18 5.7 11.83
4/4/2021 6:00:00 AM 5.49 41.882 0.123 7.17 5.69 11.83
4/4/2021 6:15:00 AM 5.47 41.846 0.123 7.17 5.68 11.84
4/4/2021 6:30:00 AM 5.45 41.81 0.123 7.18 6.06 11.84
4/4/2021 6:45:00 AM 5.42 41.756 0.123 7.18 5.73 11.85
4/4/2021 7:00:00 AM 5.4 41.72 0.123 7.18 5.86 11.87
4/4/2021 7:15:00 AM 5.38 41.684 0.123 7.18 5.76 11.92
4/4/2021 7:30:00 AM 5.38 41.684 0.123 7.2 5.77 11.99
4/4/2021 7:45:00 AM 5.38 41.684 0.123 7.21 5.75 12.09
4/4/2021 8:00:00 AM 5.39 41.702 0.123 7.24 5.64 12.2
4/4/2021 8:15:00 AM 5.4 41.72 0.123 7.26 5.8 12.3
4/4/2021 8:30:00 AM 5.43 41.774 0.123 7.28 5.61 12.4
4/4/2021 8:45:00 AM 5.48 41.864 0.123 7.3 5.51 12.47
4/4/2021 9:00:00 AM 5.54 41.972 0.123 7.31 5.65 12.53
4/4/2021 9:15:00 AM 5.63 42.134 0.123 7.33 5.66 12.57
4/4/2021 9:30:00 AM 5.73 42.314 0.123 7.35 5.77 12.61
4/4/2021 9:45:00 AM 5.85 42.53 0.123 7.36 5.75 12.63
4/4/2021 10:00:00 AM 6 42.8 0.123 7.38 5.45 12.62
4/4/2021 10:15:00 AM 6.16 43.088 0.122 7.39 5.54 12.61
4/4/2021 10:30:00 AM 6.33 43.394 0.122 7.4 5.6 12.61
4/4/2021 10:45:00 AM 6.52 43.736 0.122 7.42 5.44 12.61
4/4/2021 11:00:00 AM 6.72 44.096 0.122 7.43 5.31 12.57
4/4/2021 11:15:00 AM 6.93 44.474 0.122 7.44 5.45 12.56
4/4/2021 11:30:00 AM 7.15 44.87 0.122 7.44 5.48 12.53
4/4/2021 11:45:00 AM 7.37 45.266 0.122 7.45 5.4 12.47
4/4/2021 12:00:00 PM 7.62 45.716 0.122 7.46 5.48 12.44
4/4/2021 12:15:00 PM 7.86 46.148 0.122 7.47 5.27 12.38
4/4/2021 12:30:00 PM 8.12 46.616 0.122 7.48 5.37 12.32
4/4/2021 12:45:00 PM 8.37 47.066 0.122 7.49 5.34 12.25
4/4/2021 1:00:00 PM 8.62 47.516 0.122 7.51 5.32 12.21
4/4/2021 1:15:00 PM 8.86 47.948 0.122 7.52 5.46 12.15
4/4/2021 1:30:00 PM 9.16 48.488 0.122 7.52 5.25 12.08
4/4/2021 1:45:00 PM 9.42 48.956 0.122 7.49 5.49 12.03
4/4/2021 2:00:00 PM 9.67 49.406 0.122 7.53 5.15 11.95
4/4/2021 2:15:00 PM 9.9 49.82 0.122 7.54 5.46 11.89
4/4/2021 2:30:00 PM 10.11 50.198 0.122 7.55 5.2 11.82
4/4/2021 2:45:00 PM 10.31 50.558 0.122 7.56 5.25 11.78
4/4/2021 3:00:00 PM 10.46 50.828 0.122 7.57 5.27 11.72
4/4/2021 3:15:00 PM 10.59 51.062 0.122 7.57 5.27 11.68
4/4/2021 3:30:00 PM 10.68 51.224 0.122 7.57 5.41 11.63
4/4/2021 3:45:00 PM 10.76 51.368 0.122 7.58 5.45 11.59
4/4/2021 4:00:00 PM 10.81 51.458 0.122 7.58 5.64 11.57
4/4/2021 4:15:00 PM 10.83 51.494 0.122 7.58 5.27 11.55
4/4/2021 4:30:00 PM 10.82 51.476 0.122 7.58 5.34 11.53
4/4/2021 4:45:00 PM 10.78 51.404 0.122 7.59 5.4 11.5
4/4/2021 5:00:00 PM 10.71 51.278 0.122 7.55 5.2 11.49
4/4/2021 5:15:00 PM 10.58 51.044 0.122 7.55 5.59 11.45
4/4/2021 5:30:00 PM 10.46 50.828 0.122 7.55 5.34 11.45
4/4/2021 5:45:00 PM 10.31 50.558 0.122 7.54 5.38 11.46
4/4/2021 6:00:00 PM 10.16 50.288 0.122 7.54 5.43 11.45
4/4/2021 6:15:00 PM 9.99 49.982 0.122 7.53 5.98 11.44
4/4/2021 6:30:00 PM 9.79 49.622 0.122 7.47 5.89 11.42
4/4/2021 6:45:00 PM 9.62 49.316 0.122 7.47 5.39 11.39
4/4/2021 7:00:00 PM 9.44 48.992 0.122 7.45 5.37 11.36
4/4/2021 7:15:00 PM 9.26 48.668 0.122 7.4 5.47 11.29
4/4/2021 7:30:00 PM 9.1 48.38 0.123 7.38 5.3 11.24
4/4/2021 7:45:00 PM 8.97 48.146 0.123 7.35 5.31 11.18
4/4/2021 8:00:00 PM 8.82 47.876 0.123 7.34 5.79 11.11
4/4/2021 8:15:00 PM 8.69 47.642 0.123 7.26 5.3 11.07
4/4/2021 8:30:00 PM 8.56 47.408 0.123 7.27 5.44 11.04
4/4/2021 8:45:00 PM 8.45 47.21 0.123 7.27 5.61 11.01
4/4/2021 9:00:00 PM 8.33 46.994 0.124 7.23 5.4 11
4/4/2021 9:15:00 PM 8.22 46.796 0.124 7.23 5.81 11.01
4/4/2021 9:30:00 PM 8.12 46.616 0.124 7.22 5.46 11.03
4/4/2021 9:45:00 PM 8.01 46.418 0.124 7.21 5.43 11.04
4/4/2021 10:00:00 PM 7.91 46.238 0.124 7.22 5.61 11.05
4/4/2021 10:15:00 PM 7.81 46.058 0.124 7.2 5.57 11.06
4/4/2021 10:30:00 PM 7.71 45.878 0.124 7.19 5.52 11.09
4/4/2021 10:45:00 PM 7.63 45.734 0.124 7.19 5.66 11.11
4/4/2021 11:00:00 PM 7.54 45.572 0.124 7.18 5.5 11.13
4/4/2021 11:15:00 PM 7.45 45.41 0.124 7.17 5.27 11.14
4/4/2021 11:30:00 PM 7.37 45.266 0.124 7.18 5.6 11.14
4/4/2021 11:45:00 PM 7.3 45.14 0.125 7.17 5.6 11.17
4/5/2021 12:00:00 AM 7.22 44.996 0.125 7.17 5.71 11.2
4/5/2021 12:15:00 AM 7.15 44.87 0.125 7.17 5.8 11.22
4/5/2021 12:30:00 AM 7.08 44.744 0.125 7.16 5.58 11.24
4/5/2021 12:45:00 AM 7.01 44.618 0.125 7.16 5.54 11.25
4/5/2021 1:00:00 AM 6.94 44.492 0.125 7.16 5.24 11.26
4/5/2021 1:15:00 AM 6.87 44.366 0.125 7.16 5.35 11.28
4/5/2021 1:30:00 AM 6.8 44.24 0.125 7.16 5.32 11.3
4/5/2021 1:45:00 AM 6.73 44.114 0.125 7.16 5.42 11.31
4/5/2021 2:00:00 AM 6.67 44.006 0.125 7.16 5.51 11.34
4/5/2021 2:15:00 AM 6.6 43.88 0.125 7.17 5.64 11.37
4/5/2021 2:30:00 AM 6.53 43.754 0.125 7.15 5.38 11.39
4/5/2021 2:45:00 AM 6.46 43.628 0.125 7.17 5.34 11.41
4/5/2021 3:00:00 AM 6.39 43.502 0.125 7.15 5.34 11.41
4/5/2021 3:15:00 AM 6.32 43.376 0.125 7.15 5.27 11.42
4/5/2021 3:30:00 AM 6.25 43.25 0.126 7.15 5.2 11.45
4/5/2021 3:45:00 AM 6.18 43.124 0.126 7.15 5.18 11.47
4/5/2021 4:00:00 AM 6.11 42.998 0.126 7.15 5.33 11.5
4/5/2021 4:15:00 AM 6.05 42.89 0.126 7.16 5.38 11.53
4/5/2021 4:30:00 AM 5.99 42.782 0.126 7.15 5.61 11.55
4/5/2021 4:45:00 AM 5.92 42.656 0.126 7.16 5.18 11.57
4/5/2021 5:00:00 AM 5.86 42.548 0.126 7.15 5.72 11.58
4/5/2021 5:15:00 AM 5.81 42.458 0.126 7.15 5.29 11.6
4/5/2021 5:30:00 AM 5.75 42.35 0.126 7.15 5.04 11.6
4/5/2021 5:45:00 AM 5.7 42.26 0.126 7.15 5.19 11.63
4/5/2021 6:00:00 AM 5.65 42.17 0.126 7.15 5.19 11.65
4/5/2021 6:15:00 AM 5.6 42.08 0.126 7.15 5.4 11.66
4/5/2021 6:30:00 AM 5.54 41.972 0.126 7.15 5.19 11.68
4/5/2021 6:45:00 AM 5.5 41.9 0.126 7.15 5.34 11.7
4/5/2021 7:00:00 AM 5.46 41.828 0.126 7.17 5.24 11.75
4/5/2021 7:15:00 AM 5.42 41.756 0.126 7.14 5.6 11.8
4/5/2021 7:30:00 AM 5.39 41.702 0.126 7.18 5.22 11.88
4/5/2021 7:45:00 AM 5.37 41.666 0.126 7.19 5.25 12
4/5/2021 8:00:00 AM 5.38 41.684 0.126 7.21 5.25 12.1
4/5/2021 8:15:00 AM 5.41 41.738 0.126 7.23 5.13 12.22
4/5/2021 8:30:00 AM 5.45 41.81 0.126 7.26 5.1 12.32
4/5/2021 8:45:00 AM 5.52 41.936 0.126 7.28 5.04 12.41
4/5/2021 9:00:00 AM 5.62 42.116 0.126 7.31 5.38 12.48
4/5/2021 9:15:00 AM 5.75 42.35 0.126 7.3 5.07 12.52
4/5/2021 9:30:00 AM 5.88 42.584 0.126 7.33 5.24 12.55
4/5/2021 9:45:00 AM 6.02 42.836 0.126 7.35 5.13 12.55
4/5/2021 10:00:00 AM 6.2 43.16 0.125 7.37 5.21 12.56
4/5/2021 10:15:00 AM 6.4 43.52 0.125 7.38 4.94 12.56
4/5/2021 10:30:00 AM 6.59 43.862 0.125 7.4 5.18 12.54
4/5/2021 10:45:00 AM 6.81 44.258 0.125 7.41 5.04 12.54
4/5/2021 11:00:00 AM 7.03 44.654 0.125 7.44 4.92 12.5
4/5/2021 11:15:00 AM 7.24 45.032 0.125 7.4 4.99 12.48
4/5/2021 11:30:00 AM 7.48 45.464 0.125 7.44 5.01 12.46
4/5/2021 11:45:00 AM 7.71 45.878 0.125 7.46 5.01 12.41
4/5/2021 12:00:00 PM 7.94 46.292 0.125 7.46 4.77 12.38
4/5/2021 12:15:00 PM 8.2 46.76 0.125 7.47 5.05 12.32
4/5/2021 12:30:00 PM 8.42 47.156 0.125 7.49 5.01 12.27
4/5/2021 12:45:00 PM 8.67 47.606 0.125 7.5 4.88 12.21
4/5/2021 1:00:00 PM 8.9 48.02 0.125 7.5 4.88 12.14
4/5/2021 1:15:00 PM 9.13 48.434 0.125 7.53 4.94 12.1
4/5/2021 1:30:00 PM 9.38 48.884 0.125 7.5 4.9 12.03
4/5/2021 1:45:00 PM 9.62 49.316 0.125 7.53 4.78 11.97
4/5/2021 2:00:00 PM 9.84 49.712 0.125 7.54 4.89 11.92
4/5/2021 2:15:00 PM 10.05 50.09 0.125 7.56 4.94 11.85
4/5/2021 2:30:00 PM 10.26 50.468 0.125 7.56 4.78 11.8
4/5/2021 2:45:00 PM 10.44 50.792 0.125 7.57 5.21 11.74
4/5/2021 3:00:00 PM 10.62 51.116 0.125 7.58 4.81 11.7
4/5/2021 3:15:00 PM 10.75 51.35 0.125 7.58 4.92 11.64
4/5/2021 3:30:00 PM 10.85 51.53 0.125 7.59 4.83 11.61
4/5/2021 3:45:00 PM 10.93 51.674 0.125 7.59 4.77 11.58
4/5/2021 4:00:00 PM 10.96 51.728 0.125 7.59 4.99 11.53
4/5/2021 4:15:00 PM 10.97 51.746 0.125 7.6 4.79 11.52
4/5/2021 4:30:00 PM 10.95 51.71 0.125 7.62 4.92 11.5
4/5/2021 4:45:00 PM 10.89 51.602 0.125 7.58 4.91 11.5
4/5/2021 5:00:00 PM 10.8 51.44 0.125 7.61 4.93 11.47
4/5/2021 5:15:00 PM 10.69 51.242 0.125 7.57 4.92 11.46
4/5/2021 5:30:00 PM 10.54 50.972 0.125 7.58 4.71 11.45
4/5/2021 5:45:00 PM 10.36 50.648 0.125 7.56 4.83 11.44
4/5/2021 6:00:00 PM 10.18 50.324 0.125 7.56 5.08 11.43
4/5/2021 6:15:00 PM 10.02 50.036 0.125 7.5 5.09 11.44
4/5/2021 6:30:00 PM 9.84 49.712 0.125 7.51 5.21 11.42
4/5/2021 6:45:00 PM 9.69 49.442 0.126 7.51 5.6 11.39
4/5/2021 7:00:00 PM 9.51 49.118 0.126 7.43 6.31 11.36
4/5/2021 7:15:00 PM 9.34 48.812 0.126 7.45 6 11.3
4/5/2021 7:30:00 PM 9.19 48.542 0.126 7.4 5.59 11.24
4/5/2021 7:45:00 PM 9.04 48.272 0.126 7.35 5.52 11.16
4/5/2021 8:00:00 PM 8.91 48.038 0.126 7.33 5.16 11.09
4/5/2021 8:15:00 PM 8.78 47.804 0.126 7.32 5.19 11.03
4/5/2021 8:30:00 PM 8.65 47.57 0.127 7.27 5.08 10.99
4/5/2021 8:45:00 PM 8.54 47.372 0.127 7.26 5.16 10.95
4/5/2021 9:00:00 PM 8.44 47.192 0.127 7.25 5.03 10.92
4/5/2021 9:15:00 PM 8.35 47.03 0.127 7.23 5.05 10.93
4/5/2021 9:30:00 PM 8.26 46.868 0.127 7.22 5 10.93
4/5/2021 9:45:00 PM 8.17 46.706 0.127 7.23 4.94 10.93
4/5/2021 10:00:00 PM 8.09 46.562 0.127 7.18 4.98 10.93
4/5/2021 10:15:00 PM 8 46.4 0.127 7.22 5.04 10.94
4/5/2021 10:30:00 PM 7.93 46.274 0.127 7.17 5.09 10.96
4/5/2021 10:45:00 PM 7.86 46.148 0.128 7.21 5.14 10.97
4/5/2021 11:00:00 PM 7.79 46.022 0.128 7.17 5.36 11
4/5/2021 11:15:00 PM 7.71 45.878 0.128 7.2 5.21 11
4/5/2021 11:30:00 PM 7.63 45.734 0.128 7.16 5.18 11.01
4/5/2021 11:45:00 PM 7.55 45.59 0.128 7.17 4.99 11.02
4/6/2021 12:00:00 AM 7.47 45.446 0.128 7.17 4.92 11.05
4/6/2021 12:15:00 AM 7.4 45.32 0.128 7.17 5.02 11.07
4/6/2021 12:30:00 AM 7.32 45.176 0.128 7.17 5.09 11.09
4/6/2021 12:45:00 AM 7.25 45.05 0.128 7.19 4.85 11.1
4/6/2021 1:00:00 AM 7.19 44.942 0.128 7.14 5.1 11.11
4/6/2021 1:15:00 AM 7.11 44.798 0.128 7.17 5.07 11.13
4/6/2021 1:30:00 AM 7.05 44.69 0.128 7.16 4.94 11.15
4/6/2021 1:45:00 AM 6.98 44.564 0.128 7.16 4.99 11.17
4/6/2021 2:00:00 AM 6.91 44.438 0.128 7.18 5.12 11.19
4/6/2021 2:15:00 AM 6.84 44.312 0.128 7.14 5.05 11.21
4/6/2021 2:30:00 AM 6.77 44.186 0.129 7.16 4.89 11.23
4/6/2021 2:45:00 AM 6.71 44.078 0.129 7.16 5.04 11.24
4/6/2021 3:00:00 AM 6.63 43.934 0.129 7.16 4.95 11.26
4/6/2021 3:15:00 AM 6.56 43.808 0.129 7.17 5.04 11.28
4/6/2021 3:30:00 AM 6.49 43.682 0.129 7.18 5.13 11.3
4/6/2021 3:45:00 AM 6.42 43.556 0.129 7.18 5.29 11.32
4/6/2021 4:00:00 AM 6.35 43.43 0.129 7.14 4.88 11.35
4/6/2021 4:15:00 AM 6.28 43.304 0.129 7.17 5.06 11.37
4/6/2021 4:30:00 AM 6.22 43.196 0.129 7.17 5 11.39
4/6/2021 4:45:00 AM 6.15 43.07 0.129 7.17 4.82 11.41
4/6/2021 5:00:00 AM 6.08 42.944 0.129 7.16 5.05 11.42
4/6/2021 5:15:00 AM 6.02 42.836 0.129 7.16 4.93 11.44
4/6/2021 5:30:00 AM 5.95 42.71 0.129 7.16 4.8 11.45
4/6/2021 5:45:00 AM 5.89 42.602 0.129 7.16 5.05 11.47
4/6/2021 6:00:00 AM 5.84 42.512 0.129 7.16 4.77 11.49
4/6/2021 6:15:00 AM 5.77 42.386 0.129 7.17 4.86 11.53
4/6/2021 6:30:00 AM 5.72 42.296 0.129 7.15 4.93 11.54
4/6/2021 6:45:00 AM 5.66 42.188 0.129 7.17 4.82 11.57
4/6/2021 7:00:00 AM 5.61 42.098 0.129 7.12 5 11.62
4/6/2021 7:15:00 AM 5.57 42.026 0.129 7.17 4.77 11.69
4/6/2021 7:30:00 AM 5.54 41.972 0.129 7.19 4.79 11.77
4/6/2021 7:45:00 AM 5.52 41.936 0.129 7.2 4.69 11.89
4/6/2021 8:00:00 AM 5.53 41.954 0.129 7.22 4.71 12.01
4/6/2021 8:15:00 AM 5.56 42.008 0.129 7.24 4.88 12.13
4/6/2021 8:30:00 AM 5.59 42.062 0.129 7.26 4.8 12.22
4/6/2021 8:45:00 AM 5.66 42.188 0.129 7.28 4.8 12.3
4/6/2021 9:00:00 AM 5.75 42.35 0.129 7.3 4.62 12.37
4/6/2021 9:15:00 AM 5.88 42.584 0.129 7.32 4.63 12.45
4/6/2021 9:30:00 AM 6.02 42.836 0.129 7.34 4.8 12.5
4/6/2021 9:45:00 AM 6.17 43.106 0.129 7.35 4.87 12.51
4/6/2021 10:00:00 AM 6.37 43.466 0.129 7.37 4.79 12.51
4/6/2021 10:15:00 AM 6.58 43.844 0.129 7.4 4.72 12.51
4/6/2021 10:30:00 AM 6.8 44.24 0.128 7.41 4.65 12.5
4/6/2021 10:45:00 AM 7.03 44.654 0.128 7.41 4.77 12.49
4/6/2021 11:00:00 AM 7.27 45.086 0.128 7.43 4.68 12.45
4/6/2021 11:15:00 AM 7.53 45.554 0.128 7.45 4.51 12.42
4/6/2021 11:30:00 AM 7.79 46.022 0.128 7.45 4.77 12.39
4/6/2021 11:45:00 AM 8.05 46.49 0.128 7.47 4.66 12.34
4/6/2021 12:00:00 PM 8.32 46.976 0.128 7.48 4.73 12.3
4/6/2021 12:15:00 PM 8.56 47.408 0.128 7.49 4.79 12.25
4/6/2021 12:30:00 PM 8.82 47.876 0.128 7.5 4.65 12.19
4/6/2021 12:45:00 PM 9.1 48.38 0.128 7.52 4.79 12.14
4/6/2021 1:00:00 PM 9.32 48.776 0.128 7.53 4.62 12.09
4/6/2021 1:15:00 PM 9.55 49.19 0.128 7.53 4.6 12.01
4/6/2021 1:30:00 PM 9.78 49.604 0.128 7.55 4.59 11.98
4/6/2021 1:45:00 PM 9.99 49.982 0.128 7.56 4.38 11.93
4/6/2021 2:00:00 PM 10.23 50.414 0.128 7.56 4.7 11.87
4/6/2021 2:15:00 PM 10.33 50.594 0.128 7.57 4.53 11.79
4/6/2021 2:30:00 PM 10.46 50.828 0.128 7.59 4.6 11.78
4/6/2021 2:45:00 PM 10.58 51.044 0.128 7.58 4.48 11.72
4/6/2021 3:00:00 PM 10.66 51.188 0.128 7.6 4.56 11.69
4/6/2021 3:15:00 PM 10.83 51.494 0.128 7.6 4.54 11.66
4/6/2021 3:30:00 PM 10.99 51.782 0.128 7.63 4.55 11.62
4/6/2021 3:45:00 PM 11.13 52.034 0.128 7.62 4.75 11.56
4/6/2021 4:00:00 PM 11.24 52.232 0.128 7.62 4.58 11.52
4/6/2021 4:15:00 PM 11.33 52.394 0.128 7.62 4.64 11.49
4/6/2021 4:30:00 PM 11.36 52.448 0.128 7.63 4.72 11.44
4/6/2021 4:45:00 PM 11.39 52.502 0.128 7.64 4.72 11.43
4/6/2021 5:00:00 PM 11.37 52.466 0.128 7.59 4.46 11.41
4/6/2021 5:15:00 PM 11.3 52.34 0.128 7.61 4.87 11.38
4/6/2021 5:30:00 PM 11.22 52.196 0.128 7.62 4.59 11.36
4/6/2021 5:45:00 PM 11.09 51.962 0.128 7.58 4.63 11.34
4/6/2021 6:00:00 PM 10.94 51.692 0.128 7.57 4.5 11.32
4/6/2021 6:15:00 PM 10.74 51.332 0.128 7.56 4.51 11.31
4/6/2021 6:30:00 PM 10.53 50.954 0.128 7.55 4.57 11.26
4/6/2021 6:45:00 PM 10.34 50.612 0.128 7.51 4.68 11.24
4/6/2021 7:00:00 PM 10.15 50.27 0.129 7.45 4.5 11.19
4/6/2021 7:15:00 PM 9.98 49.964 0.129 7.43 4.67 11.14
4/6/2021 7:30:00 PM 9.82 49.676 0.129 7.42 4.51 11.06
4/6/2021 7:45:00 PM 9.69 49.442 0.129 7.35 4.6 10.99
4/6/2021 8:00:00 PM 9.56 49.208 0.129 7.35 4.63 10.91
4/6/2021 8:15:00 PM 9.44 48.992 0.129 7.3 4.74 10.84
4/6/2021 8:30:00 PM 9.33 48.794 0.129 7.29 4.49 10.79
4/6/2021 8:45:00 PM 9.23 48.614 0.13 7.26 4.5 10.75
4/6/2021 9:00:00 PM 9.13 48.434 0.13 7.26 4.6 10.71
4/6/2021 9:15:00 PM 9.04 48.272 0.13 7.24 4.65 10.69
4/6/2021 9:30:00 PM 8.97 48.146 0.13 7.18 4.53 10.67
4/6/2021 9:45:00 PM 8.9 48.02 0.13 7.2 4.58 10.68
4/6/2021 10:00:00 PM 8.84 47.912 0.13 7.2 4.61 10.68
4/6/2021 10:15:00 PM 8.78 47.804 0.13 7.2 4.51 10.69
4/6/2021 10:30:00 PM 8.72 47.696 0.13 7.2 4.7 10.7
4/6/2021 10:45:00 PM 8.67 47.606 0.13 7.2 4.6 10.69
4/6/2021 11:00:00 PM 8.62 47.516 0.131 7.2 5.04 10.7
4/6/2021 11:15:00 PM 8.58 47.444 0.131 7.13 4.89 10.71
4/6/2021 11:30:00 PM 8.53 47.354 0.131 7.19 4.71 10.72
4/6/2021 11:45:00 PM 8.48 47.264 0.131 7.19 4.75 10.72
4/7/2021 12:00:00 AM 8.44 47.192 0.131 7.12 4.79 10.73
4/7/2021 12:15:00 AM 8.4 47.12 0.131 7.18 4.89 10.74
4/7/2021 12:30:00 AM 8.36 47.048 0.131 7.11 4.83 10.75
4/7/2021 12:45:00 AM 8.33 46.994 0.131 7.18 5.13 10.75
4/7/2021 1:00:00 AM 8.29 46.922 0.131 7.17 4.97 10.76
4/7/2021 1:15:00 AM 8.27 46.886 0.131 7.15 4.98 10.76
4/7/2021 1:30:00 AM 8.25 46.85 0.131 7.18 5.02 10.76
4/7/2021 1:45:00 AM 8.22 46.796 0.131 7.14 4.98 10.76
4/7/2021 2:00:00 AM 8.2 46.76 0.131 7.17 5.12 10.78
4/7/2021 2:15:00 AM 8.17 46.706 0.131 7.14 4.85 10.78
4/7/2021 2:30:00 AM 8.14 46.652 0.131 7.16 4.94 10.78
4/7/2021 2:45:00 AM 8.11 46.598 0.131 7.15 4.84 10.79
4/7/2021 3:00:00 AM 8.09 46.562 0.132 7.16 4.85 10.8
4/7/2021 3:15:00 AM 8.08 46.544 0.132 7.15 4.89 10.8
4/7/2021 3:30:00 AM 8.05 46.49 0.132 7.15 4.6 10.81
4/7/2021 3:45:00 AM 8.01 46.418 0.132 7.15 4.84 10.82
4/7/2021 4:00:00 AM 7.99 46.382 0.132 7.15 4.62 10.83
4/7/2021 4:15:00 AM 7.96 46.328 0.132 7.15 4.61 10.83
4/7/2021 4:30:00 AM 7.93 46.274 0.132 7.17 4.74 10.84
4/7/2021 4:45:00 AM 7.91 46.238 0.132 7.16 4.66 10.85
4/7/2021 5:00:00 AM 7.89 46.202 0.132 7.18 4.72 10.85
4/7/2021 5:15:00 AM 7.87 46.166 0.132 7.1 4.62 10.85
4/7/2021 5:30:00 AM 7.85 46.13 0.132 7.17 4.67 10.86
4/7/2021 5:45:00 AM 7.83 46.094 0.132 7.17 4.67 10.86
4/7/2021 6:00:00 AM 7.81 46.058 0.132 7.14 4.69 10.86
4/7/2021 6:15:00 AM 7.8 46.04 0.132 7.15 5 10.87
4/7/2021 6:30:00 AM 7.77 45.986 0.132 7.18 4.68 10.87
4/7/2021 6:45:00 AM 7.75 45.95 0.132 7.18 4.56 10.89
4/7/2021 7:00:00 AM 7.73 45.914 0.132 7.12 4.81 10.92
4/7/2021 7:15:00 AM 7.72 45.896 0.132 7.15 4.64 10.97
4/7/2021 7:30:00 AM 7.72 45.896 0.132 7.2 4.72 11.03
4/7/2021 7:45:00 AM 7.72 45.896 0.132 7.22 4.75 11.16
4/7/2021 8:00:00 AM 7.73 45.914 0.132 7.17 4.88 11.29
4/7/2021 8:15:00 AM 7.75 45.95 0.132 7.24 4.52 11.42
4/7/2021 8:30:00 AM 7.78 46.004 0.132 7.28 4.46 11.57
4/7/2021 8:45:00 AM 7.85 46.13 0.132 7.3 4.7 11.7
4/7/2021 9:00:00 AM 7.97 46.346 0.132 7.34 4.49 11.81
4/7/2021 9:15:00 AM 8.04 46.472 0.131 7.36 4.41 11.88
4/7/2021 9:30:00 AM 8.12 46.616 0.131 7.39 4.49 11.97
4/7/2021 9:45:00 AM 8.24 46.832 0.131 7.42 4.41 12.01
4/7/2021 10:00:00 AM 8.4 47.12 0.131 7.43 4.4 12.03
4/7/2021 10:15:00 AM 8.59 47.462 0.131 7.46 4.39 12.06
4/7/2021 10:30:00 AM 8.78 47.804 0.131 7.48 4.63 12.05
4/7/2021 10:45:00 AM 9.03 48.254 0.131 7.52 4.44 12.05
4/7/2021 11:00:00 AM 9.2 48.56 0.131 7.48 4.37 12.03
4/7/2021 11:15:00 AM 9.4 48.92 0.131 7.53 4.43 12.01
4/7/2021 11:30:00 AM 9.64 49.352 0.131 7.54 4.27 12
4/7/2021 11:45:00 AM 9.88 49.784 0.131 7.58 4.51 11.99
4/7/2021 12:00:00 PM 10.03 50.054 0.131 7.58 4.41 11.91
4/7/2021 12:15:00 PM 10.1 50.18 0.131 7.59 4.44 11.88
4/7/2021 12:30:00 PM 10.37 50.666 0.131 7.6 4.36 11.87
4/7/2021 12:45:00 PM 10.67 51.206 0.131 7.6 4.37 11.86
4/7/2021 1:00:00 PM 10.95 51.71 0.131 7.61 4.53 11.81
4/7/2021 1:15:00 PM 11.13 52.034 0.131 7.63 4.5 11.76
4/7/2021 1:30:00 PM 11.26 52.268 0.131 7.63 4.54 11.69
4/7/2021 1:45:00 PM 11.45 52.61 0.131 7.66 4.41 11.67
4/7/2021 2:00:00 PM 11.67 53.006 0.131 7.66 4.48 11.58
4/7/2021 2:15:00 PM 11.86 53.348 0.131 7.65 4.32 11.54
4/7/2021 2:30:00 PM 12.04 53.672 0.131 7.68 4.47 11.47
4/7/2021 2:45:00 PM 12.25 54.05 0.131 7.69 4.26 11.43
4/7/2021 3:00:00 PM 12.45 54.41 0.131 7.69 4.39 11.37
4/7/2021 3:15:00 PM 12.63 54.734 0.131 7.7 4.32 11.31
4/7/2021 3:30:00 PM 12.78 55.004 0.131 7.7 4.54 11.26
4/7/2021 3:45:00 PM 12.9 55.22 0.131 7.63 4.28 11.22
4/7/2021 4:00:00 PM 12.99 55.382 0.131 7.7 4.3 11.16
4/7/2021 4:15:00 PM 13.06 55.508 0.131 7.65 4.35 11.14
4/7/2021 4:30:00 PM 13.09 55.562 0.131 7.69 4.66 11.1
4/7/2021 4:45:00 PM 13.09 55.562 0.131 7.67 4.43 11.07
4/7/2021 5:00:00 PM 13.05 55.49 0.131 7.69 4.44 11.03
4/7/2021 5:15:00 PM 13.01 55.418 0.131 7.69 4.44 11.02
4/7/2021 5:30:00 PM 12.92 55.256 0.131 7.67 4.35 11
4/7/2021 5:45:00 PM 12.8 55.04 0.131 7.6 4.36 10.96
4/7/2021 6:00:00 PM 12.66 54.788 0.131 7.56 4.54 10.94
4/7/2021 6:15:00 PM 12.5 54.5 0.131 7.58 4.58 10.9
4/7/2021 6:30:00 PM 12.31 54.158 0.131 7.55 4.61 10.87
4/7/2021 6:45:00 PM 12.15 53.87 0.131 7.55 4.45 10.82
4/7/2021 7:00:00 PM 11.97 53.546 0.131 7.44 4.48 10.73
4/7/2021 7:15:00 PM 11.79 53.222 0.131 7.44 4.44 10.65
4/7/2021 7:30:00 PM 11.62 52.916 0.131 7.4 4.41 10.56
4/7/2021 7:45:00 PM 11.44 52.592 0.132 7.37 4.36 10.47
4/7/2021 8:00:00 PM 11.29 52.322 0.132 7.34 4.4 10.38
4/7/2021 8:15:00 PM 11.14 52.052 0.132 7.31 4.52 10.31
4/7/2021 8:30:00 PM 11 51.8 0.132 7.21 4.57 10.25
4/7/2021 8:45:00 PM 10.85 51.53 0.132 7.27 4.58 10.21
4/7/2021 9:00:00 PM 10.73 51.314 0.132 7.18 4.27 10.19
4/7/2021 9:15:00 PM 10.61 51.098 0.133 7.24 4.45 10.17
4/7/2021 9:30:00 PM 10.5 50.9 0.133 7.22 4.44 10.17
4/7/2021 9:45:00 PM 10.38 50.684 0.133 7.17 4.43 10.17
4/7/2021 10:00:00 PM 10.27 50.486 0.133 7.21 4.41 10.18
4/7/2021 10:15:00 PM 10.17 50.306 0.133 7.2 4.5 10.19
4/7/2021 10:30:00 PM 10.08 50.144 0.133 7.15 4.39 10.21
4/7/2021 10:45:00 PM 9.97 49.946 0.133 7.17 4.52 10.24
4/7/2021 11:00:00 PM 9.88 49.784 0.133 7.17 4.36 10.24
4/7/2021 11:15:00 PM 9.79 49.622 0.133 7.16 4.35 10.26
4/7/2021 11:30:00 PM 9.7 49.46 0.134 7.19 4.43 10.28
4/7/2021 11:45:00 PM 9.62 49.316 0.134 7.17 4.48 10.31
4/8/2021 12:00:00 AM 9.54 49.172 0.134 7.14 4.51 10.31
4/8/2021 12:15:00 AM 9.46 49.028 0.134 7.18 4.45 10.33
4/8/2021 12:30:00 AM 9.38 48.884 0.134 7.18 4.42 10.34
4/8/2021 12:45:00 AM 9.31 48.758 0.134 7.17 4.45 10.36
4/8/2021 1:00:00 AM 9.25 48.65 0.134 7.17 4.4 10.38
4/8/2021 1:15:00 AM 9.18 48.524 0.134 7.14 4.42 10.4
4/8/2021 1:30:00 AM 9.12 48.416 0.134 7.17 4.43 10.41
4/8/2021 1:45:00 AM 9.05 48.29 0.134 7.15 4.62 10.41
4/8/2021 2:00:00 AM 8.99 48.182 0.134 7.17 4.42 10.43
4/8/2021 2:15:00 AM 8.93 48.074 0.134 7.11 4.53 10.44
4/8/2021 2:30:00 AM 8.87 47.966 0.134 7.14 4.29 10.46
4/8/2021 2:45:00 AM 8.82 47.876 0.135 7.15 4.43 10.47
4/8/2021 3:00:00 AM 8.76 47.768 0.135 7.15 4.49 10.49
4/8/2021 3:15:00 AM 8.71 47.678 0.135 7.17 4.59 10.5
4/8/2021 3:30:00 AM 8.65 47.57 0.135 7.16 4.54 10.51
4/8/2021 3:45:00 AM 8.59 47.462 0.135 7.17 4.39 10.52
4/8/2021 4:00:00 AM 8.55 47.39 0.135 7.11 4.47 10.53
4/8/2021 4:15:00 AM 8.49 47.282 0.135 7.17 4.57 10.56
4/8/2021 4:30:00 AM 8.44 47.192 0.135 7.1 4.58 10.58
4/8/2021 4:45:00 AM 8.39 47.102 0.135 7.14 4.45 10.6
4/8/2021 5:00:00 AM 8.33 46.994 0.135 7.16 4.33 10.6
4/8/2021 5:15:00 AM 8.28 46.904 0.135 7.11 4.47 10.62
4/8/2021 5:30:00 AM 8.23 46.814 0.135 7.16 4.51 10.61
4/8/2021 5:45:00 AM 8.18 46.724 0.135 7.1 4.42 10.64
4/8/2021 6:00:00 AM 8.12 46.616 0.135 7.16 4.32 10.66
4/8/2021 6:15:00 AM 8.07 46.526 0.135 7.14 4.43 10.67
4/8/2021 6:30:00 AM 8.02 46.436 0.135 7.13 4.53 10.69
4/8/2021 6:45:00 AM 7.97 46.346 0.135 7.17 4.44 10.72
4/8/2021 7:00:00 AM 7.93 46.274 0.135 7.11 4.42 10.78
4/8/2021 7:15:00 AM 7.89 46.202 0.135 7.15 4.33 10.85
4/8/2021 7:30:00 AM 7.86 46.148 0.135 7.2 4.42 10.95
4/8/2021 7:45:00 AM 7.85 46.13 0.135 7.15 4.26 11.06
4/8/2021 8:00:00 AM 7.86 46.148 0.135 7.21 4.78 11.22
4/8/2021 8:15:00 AM 7.9 46.22 0.135 7.26 4.33 11.35
4/8/2021 8:30:00 AM 7.95 46.31 0.135 7.22 4.48 11.49
4/8/2021 8:45:00 AM 8.03 46.454 0.135 7.31 4.41 11.6
4/8/2021 9:00:00 AM 8.14 46.652 0.135 7.33 4.3 11.69
4/8/2021 9:15:00 AM 8.28 46.904 0.135 7.32 4.28 11.78
4/8/2021 9:30:00 AM 8.43 47.174 0.135 7.36 4.25 11.85
4/8/2021 9:45:00 AM 8.61 47.498 0.135 7.41 4.36 11.87
4/8/2021 10:00:00 AM 8.8 47.84 0.135 7.43 4.19 11.88
4/8/2021 10:15:00 AM 9.02 48.236 0.135 7.46 4.32 11.92
4/8/2021 10:30:00 AM 9.26 48.668 0.134 7.4 4.19 11.89
4/8/2021 10:45:00 AM 9.52 49.136 0.134 7.47 4.27 11.92
4/8/2021 11:00:00 AM 9.77 49.586 0.134 7.51 4.23 11.88
4/8/2021 11:15:00 AM 10.05 50.09 0.134 7.52 4.16 11.88
4/8/2021 11:30:00 AM 10.33 50.594 0.134 7.55 4.2 11.81
4/8/2021 11:45:00 AM 10.61 51.098 0.134 7.51 4.15 11.75
4/8/2021 12:00:00 PM 10.87 51.566 0.134 7.57 4.13 11.77
4/8/2021 12:15:00 PM 11.14 52.052 0.134 7.56 4.16 11.74
4/8/2021 12:30:00 PM 11.41 52.538 0.134 7.59 4.33 11.72
4/8/2021 12:45:00 PM 11.66 52.988 0.134 7.55 4.19 11.67
4/8/2021 1:00:00 PM 11.91 53.438 0.134 7.63 4.27 11.58
4/8/2021 1:15:00 PM 12.16 53.888 0.134 7.58 4.12 11.55
4/8/2021 1:30:00 PM 12.41 54.338 0.134 7.62 4.12 11.49
4/8/2021 1:45:00 PM 12.63 54.734 0.134 7.64 4.66 11.42
4/8/2021 2:00:00 PM 12.83 55.094 0.134 7.65 4.35 11.4
4/8/2021 2:15:00 PM 13.07 55.526 0.134 7.66 4.43 11.33
4/8/2021 2:30:00 PM 13.26 55.868 0.134 7.67 4.44 11.26
4/8/2021 2:45:00 PM 13.46 56.228 0.134 7.7 4.3 11.21
4/8/2021 3:00:00 PM 13.63 56.534 0.134 7.63 4.24 11.18
4/8/2021 3:15:00 PM 13.77 56.786 0.134 7.71 4.32 11.1
4/8/2021 3:30:00 PM 13.92 57.056 0.134 7.71 4.2 11.06
4/8/2021 3:45:00 PM 14.05 57.29 0.134 7.65 4.31 11.01
4/8/2021 4:00:00 PM 14.13 57.434 0.134 7.72 4.18 10.98
4/8/2021 4:15:00 PM 14.2 57.56 0.134 7.73 4.15 10.94
4/8/2021 4:30:00 PM 14.23 57.614 0.134 7.73 4.14 10.88
4/8/2021 4:45:00 PM 14.25 57.65 0.134 7.67 4.25 10.83
4/8/2021 5:00:00 PM 14.22 57.596 0.134 7.69 4.16 10.81
4/8/2021 5:15:00 PM 14.14 57.452 0.134 7.68 4.15 10.79
4/8/2021 5:30:00 PM 14.07 57.326 0.134 7.67 4.18 10.73
4/8/2021 5:45:00 PM 13.96 57.128 0.134 7.66 4.12 10.73
4/8/2021 6:00:00 PM 13.83 56.894 0.134 7.64 4.32 10.7
4/8/2021 6:15:00 PM 13.67 56.606 0.134 7.62 4.28 10.69
4/8/2021 6:30:00 PM 13.49 56.282 0.134 7.61 4.33 10.62
4/8/2021 6:45:00 PM 13.29 55.922 0.134 7.58 4.22 10.57
4/8/2021 7:00:00 PM 13.09 55.562 0.134 7.47 4.2 10.49
4/8/2021 7:15:00 PM 12.92 55.256 0.134 7.5 4.27 10.41
4/8/2021 7:30:00 PM 12.71 54.878 0.135 7.39 4.25 10.32
4/8/2021 7:45:00 PM 12.54 54.572 0.135 7.39 4.34 10.21
4/8/2021 8:00:00 PM 12.39 54.302 0.135 7.35 4.27 10.1
4/8/2021 8:15:00 PM 12.23 54.014 0.135 7.33 4.23 10.02
4/8/2021 8:30:00 PM 12.1 53.78 0.135 7.29 4.25 9.96
4/8/2021 8:45:00 PM 11.95 53.51 0.135 7.25 4.3 9.91
4/8/2021 9:00:00 PM 11.82 53.276 0.135 7.24 4.17 9.87
4/8/2021 9:15:00 PM 11.7 53.06 0.135 7.23 4.34 9.83
4/8/2021 9:30:00 PM 11.6 52.88 0.136 7.21 4.27 9.83
4/8/2021 9:45:00 PM 11.49 52.682 0.136 7.23 4.16 9.83
4/8/2021 10:00:00 PM 11.38 52.484 0.136 7.16 4.46 9.84
4/8/2021 10:15:00 PM 11.3 52.34 0.136 7.19 4.14 9.85
4/8/2021 10:30:00 PM 11.21 52.178 0.136 7.18 4.31 9.85
4/8/2021 10:45:00 PM 11.12 52.016 0.136 7.21 4.24 9.87
4/8/2021 11:00:00 PM 11.05 51.89 0.136 7.13 4.24 9.87
4/8/2021 11:15:00 PM 10.97 51.746 0.136 7.18 4.24 9.88
4/8/2021 11:30:00 PM 10.89 51.602 0.136 7.17 4.34 9.9
4/8/2021 11:45:00 PM 10.82 51.476 0.136 7.17 4.29 9.92
4/9/2021 12:00:00 AM 10.75 51.35 0.137 7.17 4.23 9.92
4/9/2021 12:15:00 AM 10.68 51.224 0.137 7.19 4.33 9.92
4/9/2021 12:30:00 AM 10.62 51.116 0.137 7.18 4.3 9.94
4/9/2021 12:45:00 AM 10.56 51.008 0.137 7.18 4.11 9.97
4/9/2021 1:00:00 AM 10.51 50.918 0.137 7.13 4.17 9.97
4/9/2021 1:15:00 AM 10.46 50.828 0.137 7.16 4.26 9.98
4/9/2021 1:30:00 AM 10.41 50.738 0.137 7.16 4.13 10
4/9/2021 1:45:00 AM 10.37 50.666 0.137 7.18 4.16 10
4/9/2021 2:00:00 AM 10.33 50.594 0.137 7.18 4.24 10.01
4/9/2021 2:15:00 AM 10.29 50.522 0.137 7.12 4.29 10.02
4/9/2021 2:30:00 AM 10.25 50.45 0.137 7.17 4.26 10.03
4/9/2021 2:45:00 AM 10.21 50.378 0.137 7.16 4.2 10.03
4/9/2021 3:00:00 AM 10.16 50.288 0.137 7.16 4.08 10.04
4/9/2021 3:15:00 AM 10.12 50.216 0.137 7.15 4.23 10.06
4/9/2021 3:30:00 AM 10.08 50.144 0.138 7.16 4.15 10.07
4/9/2021 3:45:00 AM 10.04 50.072 0.138 7.17 4.3 10.07
4/9/2021 4:00:00 AM 10 50 0.138 7.14 4.23 10.09
4/9/2021 4:15:00 AM 9.96 49.928 0.138 7.17 4.17 10.09
4/9/2021 4:30:00 AM 9.92 49.856 0.138 7.14 4.36 10.09
4/9/2021 4:45:00 AM 9.88 49.784 0.138 7.17 4.17 10.1
4/9/2021 5:00:00 AM 9.85 49.73 0.138 7.14 4.13 10.1
4/9/2021 5:15:00 AM 9.81 49.658 0.138 7.17 4.17 10.12
4/9/2021 5:30:00 AM 9.78 49.604 0.138 7.1 4.1 10.14
4/9/2021 5:45:00 AM 9.76 49.568 0.138 7.15 4.2 10.14
4/9/2021 6:00:00 AM 9.73 49.514 0.138 7.14 4.2 10.16
4/9/2021 6:15:00 AM 9.71 49.478 0.138 7.14 4.23 10.16
4/9/2021 6:30:00 AM 9.68 49.424 0.138 7.18 4.2 10.16
4/9/2021 6:45:00 AM 9.65 49.37 0.139 7.11 4.12 10.18
4/9/2021 7:00:00 AM 9.62 49.316 0.139 7.15 4.41 10.21
4/9/2021 7:15:00 AM 9.59 49.262 0.139 7.17 4.18 10.26
4/9/2021 7:30:00 AM 9.58 49.244 0.139 7.19 4.14 10.34
4/9/2021 7:45:00 AM 9.57 49.226 0.139 7.19 4.03 10.46
4/9/2021 8:00:00 AM 9.56 49.208 0.139 7.22 4.16 10.62
4/9/2021 8:15:00 AM 9.58 49.244 0.138 7.24 4.11 10.77
4/9/2021 8:30:00 AM 9.63 49.334 0.138 7.3 4.17 10.95
4/9/2021 8:45:00 AM 9.7 49.46 0.138 7.29 4.07 11.12
4/9/2021 9:00:00 AM 9.8 49.64 0.138 7.37 4.07 11.25
4/9/2021 9:15:00 AM 9.92 49.856 0.138 7.35 4.08 11.34
4/9/2021 9:30:00 AM 10.04 50.072 0.138 7.43 4.06 11.42
4/9/2021 9:45:00 AM 10.14 50.252 0.138 7.41 4.02 11.44
4/9/2021 10:00:00 AM 10.21 50.378 0.138 7.45 3.97 11.48
4/9/2021 10:15:00 AM 10.29 50.522 0.138 7.48 4.11 11.51
4/9/2021 10:30:00 AM 10.34 50.612 0.138 7.49 4.1 11.52
4/9/2021 10:45:00 AM 10.36 50.648 0.138 7.52 4.02 11.47
4/9/2021 11:00:00 AM 10.34 50.612 0.138 7.44 4.1 11.41
4/9/2021 11:15:00 AM 10.32 50.576 0.138 7.5 4.03 11.37
4/9/2021 11:30:00 AM 10.3 50.54 0.138 7.46 4.12 11.33
4/9/2021 11:45:00 AM 10.28 50.504 0.138 7.48 4.18 11.3
4/9/2021 12:00:00 PM 10.26 50.468 0.138 7.45 4.03 11.32
4/9/2021 12:15:00 PM 10.29 50.522 0.138 7.48 4.03 11.37
4/9/2021 12:30:00 PM 10.33 50.594 0.138 7.49 3.92 11.42
4/9/2021 12:45:00 PM 10.41 50.738 0.137 7.54 4.04 11.48
4/9/2021 1:00:00 PM 10.55 50.99 0.137 7.55 4.19 11.53
4/9/2021 1:15:00 PM 10.75 51.35 0.137 7.53 3.97 11.57
4/9/2021 1:30:00 PM 10.89 51.602 0.137 7.6 3.98 11.59
4/9/2021 1:45:00 PM 11.09 51.962 0.137 7.59 4.11 11.59
4/9/2021 2:00:00 PM 11.23 52.214 0.137 7.61 4.21 11.6
4/9/2021 2:15:00 PM 11.3 52.34 0.137 7.64 3.97 11.54
4/9/2021 2:30:00 PM 11.42 52.556 0.137 7.63 4.02 11.52
4/9/2021 2:45:00 PM 11.5 52.7 0.137 7.65 4.04 11.5
4/9/2021 3:00:00 PM 11.51 52.718 0.137 7.65 3.92 11.45
4/9/2021 3:15:00 PM 11.5 52.7 0.137 7.65 4.07 11.41
4/9/2021 3:30:00 PM 11.5 52.7 0.137 7.64 4.08 11.4
4/9/2021 3:45:00 PM 11.5 52.7 0.137 7.64 4.25 11.38
4/9/2021 4:00:00 PM 11.5 52.7 0.137 7.64 4 11.39
4/9/2021 4:15:00 PM 11.51 52.718 0.137 7.66 4.05 11.37
4/9/2021 4:30:00 PM 11.54 52.772 0.137 7.67 4.4 11.37
4/9/2021 4:45:00 PM 11.59 52.862 0.137 7.67 4.21 11.37
4/9/2021 5:00:00 PM 11.56 52.808 0.137 7.64 4.08 11.33
4/9/2021 5:15:00 PM 11.55 52.79 0.137 7.63 4.07 11.29
4/9/2021 5:30:00 PM 11.59 52.862 0.137 7.67 3.98 11.32
4/9/2021 5:45:00 PM 11.63 52.934 0.137 7.62 4 11.28
4/9/2021 6:00:00 PM 11.57 52.826 0.137 7.61 4.35 11.24
4/9/2021 6:15:00 PM 11.49 52.682 0.137 7.58 4.03 11.15
4/9/2021 6:30:00 PM 11.46 52.628 0.137 7.57 4.06 11.15
4/9/2021 6:45:00 PM 11.38 52.484 0.137 7.55 4.17 11.09
4/9/2021 7:00:00 PM 11.29 52.322 0.137 7.51 4.15 11
4/9/2021 7:15:00 PM 11.18 52.124 0.137 7.48 4.23 10.89
4/9/2021 7:30:00 PM 11.08 51.944 0.137 7.43 4.4 10.78
4/9/2021 7:45:00 PM 10.99 51.782 0.138 7.39 4.66 10.67
4/9/2021 8:00:00 PM 10.88 51.584 0.138 7.35 4.62 10.54
4/9/2021 8:15:00 PM 10.81 51.458 0.138 7.32 4.61 10.43
4/9/2021 8:30:00 PM 10.75 51.35 0.138 7.28 4.25 10.33
4/9/2021 8:45:00 PM 10.7 51.26 0.138 7.26 4.18 10.27
4/9/2021 9:00:00 PM 10.65 51.17 0.139 7.24 4.17 10.2
4/9/2021 9:15:00 PM 10.61 51.098 0.139 7.25 4.12 10.15
4/9/2021 9:30:00 PM 10.58 51.044 0.139 7.16 4.13 10.11
4/9/2021 9:45:00 PM 10.55 50.99 0.139 7.21 4.12 10.08
4/9/2021 10:00:00 PM 10.51 50.918 0.139 7.19 4.07 10.06
4/9/2021 10:15:00 PM 10.49 50.882 0.139 7.19 4.01 10.04
4/9/2021 10:30:00 PM 10.46 50.828 0.139 7.18 4.45 10.03
4/9/2021 10:45:00 PM 10.42 50.756 0.139 7.19 4.14 10.03
4/9/2021 11:00:00 PM 10.38 50.684 0.139 7.17 4.33 10.03
4/9/2021 11:15:00 PM 10.36 50.648 0.139 7.18 4.21 10.03
4/9/2021 11:30:00 PM 10.34 50.612 0.139 7.16 4.08 10.02
4/9/2021 11:45:00 PM 10.32 50.576 0.14 7.16 4.11 10.02
4/10/2021 12:00:00 AM 10.3 50.54 0.14 7.16 4.1 10.03
4/10/2021 12:15:00 AM 10.28 50.504 0.14 7.16 4.24 10.02
4/10/2021 12:30:00 AM 10.26 50.468 0.14 7.18 3.98 10.03
4/10/2021 12:45:00 AM 10.25 50.45 0.14 7.16 4.09 10.01
4/10/2021 1:00:00 AM 10.23 50.414 0.14 7.15 4.03 10.03
4/10/2021 1:15:00 AM 10.22 50.396 0.14 7.17 4.05 10.02
4/10/2021 1:30:00 AM 10.2 50.36 0.14 7.16 4.08 10.04
4/10/2021 1:45:00 AM 10.18 50.324 0.14 7.18 4.14 10.03
4/10/2021 2:00:00 AM 10.17 50.306 0.141 7.14 4.09 10.03
4/10/2021 2:15:00 AM 10.16 50.288 0.141 7.15 4.09 10.03
4/10/2021 2:30:00 AM 10.15 50.27 0.141 7.18 3.99 10.02
4/10/2021 2:45:00 AM 10.14 50.252 0.141 7.12 4.03 10.03
4/10/2021 3:00:00 AM 10.13 50.234 0.141 7.16 4.04 10.02
4/10/2021 3:15:00 AM 10.11 50.198 0.141 7.14 4.02 10.02
4/10/2021 3:30:00 AM 10.1 50.18 0.141 7.17 4.06 10.02
4/10/2021 3:45:00 AM 10.09 50.162 0.141 7.17 4.08 10.03
4/10/2021 4:00:00 AM 10.08 50.144 0.141 7.1 4.08 10.01
4/10/2021 4:15:00 AM 10.07 50.126 0.141 7.17 4.09 10.02
4/10/2021 4:30:00 AM 10.06 50.108 0.141 7.16 3.98 10.02
4/10/2021 4:45:00 AM 10.05 50.09 0.141 7.16 3.99 10.02
4/10/2021 5:00:00 AM 10.04 50.072 0.141 7.13 4.01 10.01
4/10/2021 5:15:00 AM 10.03 50.054 0.141 7.16 3.96 10.02
4/10/2021 5:30:00 AM 10.02 50.036 0.141 7.13 3.99 10.01
4/10/2021 5:45:00 AM 10.02 50.036 0.142 7.13 4.05 10.01
4/10/2021 6:00:00 AM 10.01 50.018 0.142 7.15 4.04 10.02
4/10/2021 6:15:00 AM 10 50 0.142 7.15 4.06 10.01
4/10/2021 6:30:00 AM 9.99 49.982 0.142 7.14 4.03 10.02
4/10/2021 6:45:00 AM 9.98 49.964 0.142 7.14 3.88 10.02
4/10/2021 7:00:00 AM 9.98 49.964 0.142 7.18 3.95 10.05
4/10/2021 7:15:00 AM 9.98 49.964 0.142 7.12 4 10.07
4/10/2021 7:30:00 AM 9.98 49.964 0.142 7.19 4.07 10.12
4/10/2021 7:45:00 AM 9.99 49.982 0.142 7.15 4.05 10.22
4/10/2021 8:00:00 AM 10 50 0.142 7.23 3.95 10.33
4/10/2021 8:15:00 AM 10.02 50.036 0.142 7.18 4.04 10.45
4/10/2021 8:30:00 AM 10.04 50.072 0.142 7.24 3.92 10.58
4/10/2021 8:45:00 AM 10.07 50.126 0.142 7.26 3.9 10.72
4/10/2021 9:00:00 AM 10.11 50.198 0.142 7.29 3.96 10.85
4/10/2021 9:15:00 AM 10.15 50.27 0.142 7.32 3.98 10.95
4/10/2021 9:30:00 AM 10.2 50.36 0.142 7.37 3.96 11.06
4/10/2021 9:45:00 AM 10.26 50.468 0.142 7.33 3.88 11.16
4/10/2021 10:00:00 AM 10.33 50.594 0.141 7.42 3.99 11.24
4/10/2021 10:15:00 AM 10.41 50.738 0.141 7.37 3.94 11.3
4/10/2021 10:30:00 AM 10.5 50.9 0.141 7.47 4.01 11.37
4/10/2021 10:45:00 AM 10.62 51.116 0.141 7.44 3.91 11.43
4/10/2021 11:00:00 AM 10.77 51.386 0.141 7.52 4 11.48
4/10/2021 11:15:00 AM 10.95 51.71 0.141 7.49 3.95 11.51
4/10/2021 11:30:00 AM 11.23 52.214 0.141 7.54 3.95 11.59
4/10/2021 11:45:00 AM 11.54 52.772 0.141 7.58 3.96 11.53
4/10/2021 12:00:00 PM 11.92 53.456 0.141 7.6 3.84 11.45
4/10/2021 12:15:00 PM 12.29 54.122 0.141 7.56 3.77 11.44
4/10/2021 12:30:00 PM 12.67 54.806 0.141 7.6 3.83 11.37
4/10/2021 12:45:00 PM 12.97 55.346 0.141 7.62 3.86 11.3
4/10/2021 1:00:00 PM 13.21 55.778 0.141 7.65 3.8 11.26
4/10/2021 1:15:00 PM 13.42 56.156 0.141 7.67 3.97 11.24
4/10/2021 1:30:00 PM 13.63 56.534 0.141 7.67 3.93 11.18
4/10/2021 1:45:00 PM 13.81 56.858 0.141 7.66 3.87 11.17
4/10/2021 2:00:00 PM 13.96 57.128 0.141 7.7 4.09 11.14
4/10/2021 2:15:00 PM 14.09 57.362 0.141 7.69 3.87 11.15
4/10/2021 2:30:00 PM 14.19 57.542 0.141 7.73 3.9 11.08
4/10/2021 2:45:00 PM 14.3 57.74 0.141 7.69 4.01 11.04
4/10/2021 3:00:00 PM 14.41 57.938 0.141 7.74 3.83 11.05
4/10/2021 3:15:00 PM 14.44 57.992 0.141 7.73 3.93 10.97
4/10/2021 3:30:00 PM 14.49 58.082 0.141 7.78 3.9 11.01
4/10/2021 3:45:00 PM 14.52 58.136 0.141 7.71 6.84 10.93
4/10/2021 4:00:00 PM 14.53 58.154 0.141 7.74 4.66 10.89
4/10/2021 4:15:00 PM 14.57 58.226 0.141 7.75 4.36 10.88
4/10/2021 4:30:00 PM 14.57 58.226 0.141 7.75 4.25 10.86
4/10/2021 4:45:00 PM 14.53 58.154 0.141 7.75 4.03 10.83
4/10/2021 5:00:00 PM 14.48 58.064 0.141 7.74 4.06 10.79
4/10/2021 5:15:00 PM 14.41 57.938 0.141 7.75 3.92 10.76
4/10/2021 5:30:00 PM 14.34 57.812 0.141 7.75 3.93 10.73
4/10/2021 5:45:00 PM 14.27 57.686 0.141 7.73 4.06 10.71
4/10/2021 6:00:00 PM 14.16 57.488 0.141 7.64 3.8 10.65
4/10/2021 6:15:00 PM 14.07 57.326 0.141 7.68 3.89 10.62
4/10/2021 6:30:00 PM 13.91 57.038 0.141 7.64 3.94 10.54
4/10/2021 6:45:00 PM 13.8 56.84 0.142 7.61 3.84 10.47
4/10/2021 7:00:00 PM 13.68 56.624 0.142 7.51 3.85 10.38
4/10/2021 7:15:00 PM 13.54 56.372 0.142 7.52 4.01 10.27
4/10/2021 7:30:00 PM 13.4 56.12 0.142 7.42 3.91 10.15
4/10/2021 7:45:00 PM 13.27 55.886 0.142 7.4 3.92 10.02
4/10/2021 8:00:00 PM 13.11 55.598 0.142 7.35 3.88 9.88
4/10/2021 8:15:00 PM 13 55.4 0.142 7.35 3.97 9.77
4/10/2021 8:30:00 PM 12.88 55.184 0.143 7.24 3.93 9.68
4/10/2021 8:45:00 PM 12.73 54.914 0.143 7.28 3.85 9.6
4/10/2021 9:00:00 PM 12.64 54.752 0.143 7.22 3.95 9.54
4/10/2021 9:15:00 PM 12.52 54.536 0.143 7.22 3.95 9.5
4/10/2021 9:30:00 PM 12.42 54.356 0.143 7.19 3.94 9.45
4/10/2021 9:45:00 PM 12.33 54.194 0.143 7.19 3.91 9.45
4/10/2021 10:00:00 PM 12.24 54.032 0.143 7.21 3.92 9.43
4/10/2021 10:15:00 PM 12.16 53.888 0.143 7.13 3.96 9.44
4/10/2021 10:30:00 PM 12.08 53.744 0.143 7.12 3.94 9.44
4/10/2021 10:45:00 PM 12 53.6 0.143 7.16 4 9.43
4/10/2021 11:00:00 PM 11.93 53.474 0.144 7.16 4.01 9.45
4/10/2021 11:15:00 PM 11.88 53.384 0.144 7.15 3.88 9.45
4/10/2021 11:30:00 PM 11.81 53.258 0.144 7.18 4.01 9.45
4/10/2021 11:45:00 PM 11.76 53.168 0.144 7.11 3.87 9.45
4/11/2021 12:00:00 AM 11.7 53.06 0.144 7.14 4.06 9.47
4/11/2021 12:15:00 AM 11.64 52.952 0.144 7.17 3.94 9.47
4/11/2021 12:30:00 AM 11.59 52.862 0.144 7.13 3.96 9.49
4/11/2021 12:45:00 AM 11.53 52.754 0.144 7.16 3.99 9.48
4/11/2021 1:00:00 AM 11.49 52.682 0.144 7.17 4.11 9.5
4/11/2021 1:15:00 AM 11.45 52.61 0.144 7.16 4.45 9.5
4/11/2021 1:30:00 AM 11.41 52.538 0.144 7.1 4.07 9.5
4/11/2021 1:45:00 AM 11.38 52.484 0.144 7.16 3.99 9.51
4/11/2021 2:00:00 AM 11.34 52.412 0.144 7.11 4.02 9.51
4/11/2021 2:15:00 AM 11.29 52.322 0.144 7.16 4.19 9.52
4/11/2021 2:30:00 AM 11.26 52.268 0.144 7.16 4 9.54
4/11/2021 2:45:00 AM 11.24 52.232 0.144 7.08 4.02 9.51
4/11/2021 3:00:00 AM 11.21 52.178 0.144 7.15 4.01 9.53
4/11/2021 3:15:00 AM 11.17 52.106 0.145 7.09 3.92 9.55
4/11/2021 3:30:00 AM 11.14 52.052 0.145 7.12 4.01 9.54
4/11/2021 3:45:00 AM 11.11 51.998 0.145 7.15 4.04 9.54
4/11/2021 4:00:00 AM 11.09 51.962 0.145 7.08 3.99 9.53
4/11/2021 4:15:00 AM 11.06 51.908 0.145 7.14 3.95 9.55
4/11/2021 4:30:00 AM 11.04 51.872 0.145 7.08 3.96 9.55
4/11/2021 4:45:00 AM 11.02 51.836 0.145 7.12 4.08 9.54
4/11/2021 5:00:00 AM 10.99 51.782 0.145 7.13 4.08 9.55
4/11/2021 5:15:00 AM 10.98 51.764 0.145 7.14 4.06 9.55
4/11/2021 5:30:00 AM 10.96 51.728 0.145 7.15 3.91 9.55
4/11/2021 5:45:00 AM 10.95 51.71 0.145 7.15 4.05 9.55
4/11/2021 6:00:00 AM 10.93 51.674 0.145 7.13 4.2 9.55
4/11/2021 6:15:00 AM 10.92 51.656 0.145 7.13 3.92 9.56
4/11/2021 6:30:00 AM 10.91 51.638 0.145 7.15 4.02 9.56
4/11/2021 6:45:00 AM 10.91 51.638 0.146 7.14 4.05 9.57
4/11/2021 7:00:00 AM 10.9 51.62 0.146 7.14 3.92 9.59
4/11/2021 7:15:00 AM 10.9 51.62 0.146 7.12 4.03 9.64
4/11/2021 7:30:00 AM 10.9 51.62 0.146 7.15 3.92 9.73
4/11/2021 7:45:00 AM 10.9 51.62 0.146 7.2 3.89 9.78
4/11/2021 8:00:00 AM 10.91 51.638 0.146 7.12 4.15 9.85
4/11/2021 8:15:00 AM 10.92 51.656 0.145 7.22 3.94 9.94
4/11/2021 8:30:00 AM 10.95 51.71 0.145 7.17 3.87 10.1
4/11/2021 8:45:00 AM 10.98 51.764 0.145 7.24 3.91 10.24
4/11/2021 9:00:00 AM 11 51.8 0.145 7.26 3.95 10.32
4/11/2021 9:15:00 AM 11.02 51.836 0.145 7.27 3.92 10.38
4/11/2021 9:30:00 AM 11.05 51.89 0.145 7.31 3.93 10.46
4/11/2021 9:45:00 AM 11.09 51.962 0.145 7.34 3.84 10.56
4/11/2021 10:00:00 AM 11.12 52.016 0.144 7.36 3.92 10.61
4/11/2021 10:15:00 AM 11.15 52.07 0.144 7.38 3.86 10.66
4/11/2021 10:30:00 AM 11.17 52.106 0.144 7.31 3.94 10.66
4/11/2021 10:45:00 AM 11.2 52.16 0.144 7.36 3.84 10.67
4/11/2021 11:00:00 AM 11.23 52.214 0.144 7.41 3.95 10.71
4/11/2021 11:15:00 AM 11.27 52.286 0.143 7.36 3.93 10.78
4/11/2021 11:30:00 AM 11.31 52.358 0.143 7.4 3.94 10.82
4/11/2021 11:45:00 AM 11.35 52.43 0.143 7.43 4 10.88
4/11/2021 12:00:00 PM 11.4 52.52 0.143 7.45 4.07 10.94
4/11/2021 12:15:00 PM 11.45 52.61 0.143 7.47 3.91 10.94
4/11/2021 12:30:00 PM 11.54 52.772 0.143 7.49 3.85 11.01
4/11/2021 12:45:00 PM 11.66 52.988 0.142 7.53 3.87 11.07
4/11/2021 1:00:00 PM 11.75 53.15 0.142 7.54 3.91 11.07
4/11/2021 1:15:00 PM 11.82 53.276 0.142 7.55 3.8 11.09
4/11/2021 1:30:00 PM 11.88 53.384 0.142 7.56 3.85 11.07
4/11/2021 1:45:00 PM 11.96 53.528 0.142 7.61 3.89 11.07
4/11/2021 2:00:00 PM 12.07 53.726 0.142 7.56 3.89 11.1
4/11/2021 2:15:00 PM 12.16 53.888 0.142 7.64 3.94 11.1
4/11/2021 2:30:00 PM 12.21 53.978 0.142 7.64 3.88 11.08
4/11/2021 2:45:00 PM 12.25 54.05 0.142 7.62 3.83 11.07
4/11/2021 3:00:00 PM 12.31 54.158 0.142 7.65 3.95 11.05
4/11/2021 3:15:00 PM 12.37 54.266 0.142 7.68 3.99 11.02
4/11/2021 3:30:00 PM 12.4 54.32 0.142 7.6 3.92 11.01
4/11/2021 3:45:00 PM 12.44 54.392 0.142 7.68 3.99 11
4/11/2021 4:00:00 PM 12.44 54.392 0.141 7.6 4.91 10.91
4/11/2021 4:15:00 PM 12.44 54.392 0.141 7.66 4.07 10.9
4/11/2021 4:30:00 PM 12.45 54.41 0.141 7.62 4.1 10.88
4/11/2021 4:45:00 PM 12.45 54.41 0.14 7.59 4.14 10.8
4/11/2021 5:00:00 PM 12.44 54.392 0.14 7.6 4.11 10.77
4/11/2021 5:15:00 PM 12.43 54.374 0.14 7.59 4.08 10.73
4/11/2021 5:30:00 PM 12.42 54.356 0.139 7.6 4.23 10.69
4/11/2021 5:45:00 PM 12.39 54.302 0.139 7.51 4.17 10.63
4/11/2021 6:00:00 PM 12.38 54.284 0.139 7.52 4.09 10.52
4/11/2021 6:15:00 PM 12.36 54.248 0.138 7.53 4.14 10.45
4/11/2021 6:30:00 PM 12.32 54.176 0.138 7.49 4.15 10.32
4/11/2021 6:45:00 PM 12.3 54.14 0.138 7.38 4.23 10.22
4/11/2021 7:00:00 PM 12.26 54.068 0.137 7.4 4.24 10.12
4/11/2021 7:15:00 PM 12.23 54.014 0.137 7.4 4.36 10.01
4/11/2021 7:30:00 PM 12.2 53.96 0.137 7.31 4.45 9.91
4/11/2021 7:45:00 PM 12.17 53.906 0.137 7.31 4.56 9.81
4/11/2021 8:00:00 PM 12.14 53.852 0.137 7.32 4.96 9.75
4/11/2021 8:15:00 PM 12.12 53.816 0.138 7.23 5.25 9.69
4/11/2021 8:30:00 PM 12.1 53.78 0.137 7.26 5.55 9.64
4/11/2021 8:45:00 PM 12.09 53.762 0.137 7.24 5.89 9.63
4/11/2021 9:00:00 PM 12.08 53.744 0.137 7.28 6.18 9.62
4/11/2021 9:15:00 PM 12.07 53.726 0.136 7.28 6.84 9.62
4/11/2021 9:30:00 PM 12.07 53.726 0.136 7.21 6.99 9.64
4/11/2021 9:45:00 PM 12.06 53.708 0.135 7.26 7.22 9.65
4/11/2021 10:00:00 PM 12.05 53.69 0.135 7.26 9.55 9.67
4/11/2021 10:15:00 PM 12.03 53.654 0.135 7.26 12.55 9.68
4/11/2021 10:30:00 PM 12.02 53.636 0.135 7.3 13.75 9.7
4/11/2021 10:45:00 PM 12.01 53.618 0.134 7.22 16.26 9.71
4/11/2021 11:00:00 PM 12 53.6 0.133 7.27 14.05 9.74
4/11/2021 11:15:00 PM 11.98 53.564 0.132 7.26 14.3 9.75
4/11/2021 11:30:00 PM 11.95 53.51 0.131 7.29 13.86 9.76
4/11/2021 11:45:00 PM 11.92 53.456 0.131 7.28 13.28 9.78
4/12/2021 12:00:00 AM 11.89 53.402 0.13 7.22 12.81 9.79
4/12/2021 12:15:00 AM 11.85 53.33 0.129 7.29 13.42 9.8
4/12/2021 12:30:00 AM 11.82 53.276 0.128 7.24 12.55 9.81
4/12/2021 12:45:00 AM 11.78 53.204 0.128 7.24 12.5 9.82
4/12/2021 1:00:00 AM 11.74 53.132 0.127 7.27 13.24 9.83
4/12/2021 1:15:00 AM 11.7 53.06 0.126 7.25 13.94 9.84
4/12/2021 1:30:00 AM 11.67 53.006 0.126 7.26 15.03 9.85
4/12/2021 1:45:00 AM 11.63 52.934 0.126 7.18 15.21 9.86
4/12/2021 2:00:00 AM 11.59 52.862 0.126 7.22 15.13 9.87
4/12/2021 2:15:00 AM 11.55 52.79 0.126 7.22 15.89 9.88
4/12/2021 2:30:00 AM 11.51 52.718 0.126 7.24 16.6 9.89
4/12/2021 2:45:00 AM 11.48 52.664 0.126 7.26 16.93 9.91
4/12/2021 3:00:00 AM 11.44 52.592 0.127 7.25 16.83 9.91
4/12/2021 3:15:00 AM 11.41 52.538 0.127 7.26 16.68 9.92
4/12/2021 3:30:00 AM 11.37 52.466 0.127 7.21 16.5 9.93
4/12/2021 3:45:00 AM 11.34 52.412 0.127 7.18 16.13 9.93
4/12/2021 4:00:00 AM 11.3 52.34 0.127 7.2 15.44 9.93
4/12/2021 4:15:00 AM 11.26 52.268 0.127 7.21 15.77 9.95
4/12/2021 4:30:00 AM 11.22 52.196 0.127 7.25 15.47 9.96
4/12/2021 4:45:00 AM 11.18 52.124 0.127 7.17 14.5 9.98
4/12/2021 5:00:00 AM 11.14 52.052 0.127 7.25 14.3 9.99
4/12/2021 5:15:00 AM 11.1 51.98 0.127 7.24 13.58 10
4/12/2021 5:30:00 AM 11.06 51.908 0.126 7.15 13.58 10
4/12/2021 5:45:00 AM 11.02 51.836 0.126 7.22 12.86 10.01
4/12/2021 6:00:00 AM 10.97 51.746 0.126 7.2 12.16 10.01
4/12/2021 6:15:00 AM 10.94 51.692 0.126 7.24 12.19 10.03
4/12/2021 6:30:00 AM 10.9 51.62 0.126 7.24 12.39 10.03
4/12/2021 6:45:00 AM 10.86 51.548 0.125 7.15 11.97 10.05
4/12/2021 7:00:00 AM 10.82 51.476 0.125 7.2 11.79 10.07
4/12/2021 7:15:00 AM 10.78 51.404 0.125 7.24 11.02 10.09
4/12/2021 7:30:00 AM 10.75 51.35 0.125 7.16 11.6 10.12
4/12/2021 7:45:00 AM 10.72 51.296 0.125 7.24 10.93 10.15
4/12/2021 8:00:00 AM 10.69 51.242 0.124 7.13 10.47 10.17
4/12/2021 8:15:00 AM 10.66 51.188 0.124 7.26 10.28 10.21
4/12/2021 8:30:00 AM 10.61 51.098 0.124 7.25 10.15 10.23
4/12/2021 8:45:00 AM 10.57 51.026 0.124 7.19 9.91 10.27
4/12/2021 9:00:00 AM 10.52 50.936 0.124 7.27 9.12 10.31
4/12/2021 9:15:00 AM 10.48 50.864 0.124 7.19 9.15 10.36
4/12/2021 9:30:00 AM 10.45 50.81 0.124 7.27 9.5 10.4
4/12/2021 9:45:00 AM 10.42 50.756 0.124 7.27 9.8 10.44
4/12/2021 10:00:00 AM 10.38 50.684 0.124 7.25 9.94 10.48
4/12/2021 10:15:00 AM 10.36 50.648 0.124 7.26 10.55 10.53
4/12/2021 10:30:00 AM 10.33 50.594 0.124 7.31 10.04 10.57
4/12/2021 10:45:00 AM 10.31 50.558 0.124 7.27 9.93 10.62
4/12/2021 11:00:00 AM 10.3 50.54 0.123 7.3 11.26 10.66
4/12/2021 11:15:00 AM 10.29 50.522 0.123 7.32 10.93 10.71
4/12/2021 11:30:00 AM 10.28 50.504 0.123 7.36 10.84 10.76
4/12/2021 11:45:00 AM 10.28 50.504 0.123 7.37 11.11 10.8
4/12/2021 12:00:00 PM 10.28 50.504 0.123 7.39 10.2 10.84
4/12/2021 12:15:00 PM 10.28 50.504 0.123 7.31 10.06 10.89
4/12/2021 12:30:00 PM 10.28 50.504 0.123 7.38 8.68 10.91
4/12/2021 12:45:00 PM 10.28 50.504 0.123 7.42 8.91 10.94
4/12/2021 1:00:00 PM 10.28 50.504 0.123 7.38 8.54 10.94
4/12/2021 1:15:00 PM 10.27 50.486 0.123 7.42 11.73 10.94
4/12/2021 1:30:00 PM 10.28 50.504 0.123 7.37 14.23 10.95
4/12/2021 1:45:00 PM 10.3 50.54 0.123 7.41 13.13 10.99
4/12/2021 2:00:00 PM 10.29 50.522 0.123 7.45 11.4 11
4/12/2021 2:15:00 PM 10.29 50.522 0.123 7.41 9.65 11.01
4/12/2021 2:30:00 PM 10.3 50.54 0.123 7.43 8.55 11.03
4/12/2021 2:45:00 PM 10.3 50.54 0.123 7.46 8 11.03
4/12/2021 3:00:00 PM 10.3 50.54 0.123 7.42 7.98 11.04
4/12/2021 3:15:00 PM 10.31 50.558 0.123 7.48 7.64 11.05
4/12/2021 3:30:00 PM 10.3 50.54 0.123 7.4 7.41 11.04
4/12/2021 3:45:00 PM 10.31 50.558 0.123 7.47 8.48 11.04
4/12/2021 4:00:00 PM 10.32 50.576 0.123 7.46 7.93 11.06
4/12/2021 4:15:00 PM 10.33 50.594 0.123 7.48 8.38 11.07
4/12/2021 4:30:00 PM 10.33 50.594 0.123 7.49 8.31 11.05
4/12/2021 4:45:00 PM 10.31 50.558 0.123 7.37 7.9 11.01
4/12/2021 5:00:00 PM 10.28 50.504 0.123 7.41 7.57 10.94
4/12/2021 5:15:00 PM 10.24 50.432 0.123 7.42 7.55 10.9
4/12/2021 5:30:00 PM 10.22 50.396 0.123 7.37 7.25 10.85
4/12/2021 5:45:00 PM 10.19 50.342 0.124 7.36 7.19 10.81
4/12/2021 6:00:00 PM 10.16 50.288 0.124 7.37 6.84 10.76
4/12/2021 6:15:00 PM 10.13 50.234 0.124 7.36 6.78 10.72
4/12/2021 6:30:00 PM 10.1 50.18 0.124 7.24 7.14 10.68
4/12/2021 6:45:00 PM 10.07 50.126 0.124 7.29 6.54 10.64
4/12/2021 7:00:00 PM 10.05 50.09 0.124 7.28 6.31 10.61
4/12/2021 7:15:00 PM 10.01 50.018 0.124 7.26 6.68 10.57
4/12/2021 7:30:00 PM 9.98 49.964 0.124 7.25 6.36 10.53
4/12/2021 7:45:00 PM 9.95 49.91 0.124 7.24 6.28 10.49
4/12/2021 8:00:00 PM 9.92 49.856 0.124 7.26 6.32 10.46
4/12/2021 8:15:00 PM 9.89 49.802 0.124 7.18 6.09 10.43
4/12/2021 8:30:00 PM 9.86 49.748 0.124 7.23 6.11 10.41
4/12/2021 8:45:00 PM 9.84 49.712 0.125 7.17 6.24 10.4
4/12/2021 9:00:00 PM 9.81 49.658 0.125 7.19 6.22 10.4
4/12/2021 9:15:00 PM 9.78 49.604 0.125 7.19 6.32 10.4
4/12/2021 9:30:00 PM 9.76 49.568 0.125 7.19 6.08 10.4
4/12/2021 9:45:00 PM 9.73 49.514 0.125 7.21 6 10.41
4/12/2021 10:00:00 PM 9.71 49.478 0.125 7.2 6.17 10.41
4/12/2021 10:15:00 PM 9.69 49.442 0.125 7.21 6.23 10.41
4/12/2021 10:30:00 PM 9.67 49.406 0.125 7.12 6.24 10.41
4/12/2021 10:45:00 PM 9.64 49.352 0.125 7.21 5.99 10.42
4/12/2021 11:00:00 PM 9.62 49.316 0.125 7.14 6.28 10.42
4/12/2021 11:15:00 PM 9.6 49.28 0.125 7.17 5.87 10.42
4/12/2021 11:30:00 PM 9.58 49.244 0.125 7.16 6.36 10.42
4/12/2021 11:45:00 PM 9.56 49.208 0.125 7.17 6.03 10.43
4/13/2021 12:00:00 AM 9.54 49.172 0.125 7.17 6.11 10.43
4/13/2021 12:15:00 AM 9.52 49.136 0.125 7.17 6.06 10.43
4/13/2021 12:30:00 AM 9.5 49.1 0.125 7.19 6.03 10.44
4/13/2021 12:45:00 AM 9.49 49.082 0.125 7.15 5.95 10.44
4/13/2021 1:00:00 AM 9.47 49.046 0.125 7.16 6.41 10.45
4/13/2021 1:15:00 AM 9.45 49.01 0.125 7.16 6.2 10.46
4/13/2021 1:30:00 AM 9.43 48.974 0.125 7.19 5.87 10.45
4/13/2021 1:45:00 AM 9.41 48.938 0.126 7.2 6.2 10.47
4/13/2021 2:00:00 AM 9.39 48.902 0.126 7.14 6 10.47
4/13/2021 2:15:00 AM 9.38 48.884 0.126 7.2 6.01 10.47
4/13/2021 2:30:00 AM 9.36 48.848 0.126 7.17 5.92 10.49
4/13/2021 2:45:00 AM 9.34 48.812 0.126 7.15 5.77 10.5
4/13/2021 3:00:00 AM 9.33 48.794 0.126 7.17 6.16 10.51
4/13/2021 3:15:00 AM 9.31 48.758 0.126 7.18 5.93 10.51
4/13/2021 3:30:00 AM 9.29 48.722 0.126 7.2 6.19 10.52
4/13/2021 3:45:00 AM 9.26 48.668 0.126 7.15 6.02 10.52
4/13/2021 4:00:00 AM 9.24 48.632 0.126 7.19 6.01 10.53
4/13/2021 4:15:00 AM 9.22 48.596 0.126 7.16 6.04 10.54
4/13/2021 4:30:00 AM 9.19 48.542 0.126 7.2 6.02 10.54
4/13/2021 4:45:00 AM 9.17 48.506 0.126 7.19 6.35 10.55
4/13/2021 5:00:00 AM 9.14 48.452 0.126 7.21 6.19 10.55
4/13/2021 5:15:00 AM 9.11 48.398 0.126 7.21 6.16 10.55
4/13/2021 5:30:00 AM 9.08 48.344 0.126 7.17 6.03 10.57
4/13/2021 5:45:00 AM 9.05 48.29 0.126 7.19 6.1 10.58
4/13/2021 6:00:00 AM 9.02 48.236 0.126 7.21 6.08 10.6
4/13/2021 6:15:00 AM 8.98 48.164 0.126 7.19 6.13 10.6
4/13/2021 6:30:00 AM 8.95 48.11 0.126 7.18 5.98 10.63
4/13/2021 6:45:00 AM 8.92 48.056 0.126 7.19 5.94 10.66
4/13/2021 7:00:00 AM 8.9 48.02 0.126 7.2 5.94 10.71
4/13/2021 7:15:00 AM 8.89 48.002 0.126 7.21 5.91 10.79
4/13/2021 7:30:00 AM 8.89 48.002 0.126 7.25 5.93 10.88
4/13/2021 7:45:00 AM 8.9 48.02 0.126 7.27 6.24 11
4/13/2021 8:00:00 AM 8.92 48.056 0.126 7.28 5.88 11.11
4/13/2021 8:15:00 AM 8.95 48.11 0.126 7.31 5.75 11.21
4/13/2021 8:30:00 AM 9 48.2 0.126 7.34 5.64 11.3
4/13/2021 8:45:00 AM 9.04 48.272 0.126 7.36 5.63 11.37
4/13/2021 9:00:00 AM 9.12 48.416 0.125 7.38 5.88 11.43
4/13/2021 9:15:00 AM 9.22 48.596 0.125 7.4 5.71 11.48
4/13/2021 9:30:00 AM 9.35 48.83 0.125 7.42 5.59 11.52
4/13/2021 9:45:00 AM 9.51 49.118 0.125 7.44 5.41 11.54
4/13/2021 10:00:00 AM 9.71 49.478 0.125 7.45 5.53 11.52
4/13/2021 10:15:00 AM 9.9 49.82 0.125 7.47 5.94 11.52
4/13/2021 10:30:00 AM 10.09 50.162 0.125 7.48 5.61 11.5
4/13/2021 10:45:00 AM 10.27 50.486 0.125 7.5 5.89 11.48
4/13/2021 11:00:00 AM 10.47 50.846 0.125 7.51 5.92 11.48
4/13/2021 11:15:00 AM 10.68 51.224 0.125 7.52 5.6 11.45
4/13/2021 11:30:00 AM 10.91 51.638 0.125 7.53 5.55 11.42
4/13/2021 11:45:00 AM 11.16 52.088 0.125 7.54 5.62 11.39
4/13/2021 12:00:00 PM 11.41 52.538 0.125 7.55 5.46 11.35
4/13/2021 12:15:00 PM 11.66 52.988 0.125 7.57 5.41 11.31
4/13/2021 12:30:00 PM 11.92 53.456 0.125 7.58 5.43 11.26
4/13/2021 12:45:00 PM 12.2 53.96 0.125 7.6 5.28 11.19
4/13/2021 1:00:00 PM 12.46 54.428 0.125 7.57 5.47 11.14
4/13/2021 1:15:00 PM 12.74 54.932 0.125 7.61 5.44 11.1
4/13/2021 1:30:00 PM 13 55.4 0.125 7.63 5.28 11.04
4/13/2021 1:45:00 PM 13.26 55.868 0.125 7.65 5.34 10.98
4/13/2021 2:00:00 PM 13.51 56.318 0.125 7.63 5.18 10.91
4/13/2021 2:15:00 PM 13.74 56.732 0.125 7.64 5.13 10.85
4/13/2021 2:30:00 PM 13.95 57.11 0.125 7.65 5.37 10.81
4/13/2021 2:45:00 PM 14.14 57.452 0.125 7.65 5.35 10.77
4/13/2021 3:00:00 PM 14.29 57.722 0.125 7.65 5.11 10.73
4/13/2021 3:15:00 PM 14.42 57.956 0.125 7.68 5.16 10.67
4/13/2021 3:30:00 PM 14.52 58.136 0.125 7.68 5.36 10.64
4/13/2021 3:45:00 PM 14.59 58.262 0.125 7.63 5.06 10.6
4/13/2021 4:00:00 PM 14.64 58.352 0.125 7.69 5.1 10.58
4/13/2021 4:15:00 PM 14.67 58.406 0.126 7.62 5.21 10.55
4/13/2021 4:30:00 PM 14.64 58.352 0.126 7.65 5.05 10.51
4/13/2021 4:45:00 PM 14.61 58.298 0.126 7.65 5.21 10.51
4/13/2021 5:00:00 PM 14.53 58.154 0.126 7.66 5.36 10.48
4/13/2021 5:15:00 PM 14.43 57.974 0.126 7.66 5.26 10.46
4/13/2021 5:30:00 PM 14.32 57.776 0.126 7.64 4.94 10.44
4/13/2021 5:45:00 PM 14.16 57.488 0.126 7.61 5.07 10.4
4/13/2021 6:00:00 PM 13.99 57.182 0.126 7.51 5.01 10.35
4/13/2021 6:15:00 PM 13.82 56.876 0.126 7.54 4.9 10.32
4/13/2021 6:30:00 PM 13.62 56.516 0.126 7.52 5.06 10.25
4/13/2021 6:45:00 PM 13.44 56.192 0.126 7.41 5.17 10.21
4/13/2021 7:00:00 PM 13.3 55.94 0.126 7.46 5.04 10.14
4/13/2021 7:15:00 PM 13.16 55.688 0.127 7.4 5.09 10.1
4/13/2021 7:30:00 PM 13.03 55.454 0.127 7.4 4.96 10.03
4/13/2021 7:45:00 PM 12.91 55.238 0.127 7.36 5.55 9.95
4/13/2021 8:00:00 PM 12.79 55.022 0.127 7.33 5.14 9.89
4/13/2021 8:15:00 PM 12.67 54.806 0.127 7.23 5.02 9.83
4/13/2021 8:30:00 PM 12.55 54.59 0.127 7.18 5.05 9.78
4/13/2021 8:45:00 PM 12.45 54.41 0.128 7.24 5.14 9.75
4/13/2021 9:00:00 PM 12.36 54.248 0.128 7.2 5.04 9.73
4/13/2021 9:15:00 PM 12.28 54.104 0.128 7.23 5.17 9.73
4/13/2021 9:30:00 PM 12.18 53.924 0.128 7.13 5.06 9.72
4/13/2021 9:45:00 PM 12.1 53.78 0.128 7.18 5.14 9.72
4/13/2021 10:00:00 PM 12.02 53.636 0.128 7.17 5.2 9.73
4/13/2021 10:15:00 PM 11.93 53.474 0.128 7.21 5.06 9.74
4/13/2021 10:30:00 PM 11.84 53.312 0.128 7.1 5.08 9.76
4/13/2021 10:45:00 PM 11.76 53.168 0.128 7.2 4.92 9.76
4/13/2021 11:00:00 PM 11.67 53.006 0.129 7.09 4.94 9.77
4/13/2021 11:15:00 PM 11.59 52.862 0.129 7.19 5.24 9.79
4/13/2021 11:30:00 PM 11.49 52.682 0.129 7.12 5 9.8
4/13/2021 11:45:00 PM 11.41 52.538 0.129 7.18 4.91 9.82
4/14/2021 12:00:00 AM 11.32 52.376 0.129 7.17 5.05 9.84
4/14/2021 12:15:00 AM 11.24 52.232 0.129 7.15 5.09 9.85
4/14/2021 12:30:00 AM 11.16 52.088 0.129 7.14 4.96 9.88
4/14/2021 12:45:00 AM 11.07 51.926 0.129 7.19 4.92 9.89
4/14/2021 1:00:00 AM 10.99 51.782 0.129 7.16 4.94 9.91
4/14/2021 1:15:00 AM 10.91 51.638 0.129 7.18 5.06 9.93
4/14/2021 1:30:00 AM 10.82 51.476 0.129 7.15 4.86 9.96
4/14/2021 1:45:00 AM 10.75 51.35 0.13 7.18 4.96 9.97
4/14/2021 2:00:00 AM 10.67 51.206 0.13 7.16 4.85 9.98
4/14/2021 2:15:00 AM 10.6 51.08 0.13 7.14 4.97 9.99
4/14/2021 2:30:00 AM 10.52 50.936 0.13 7.17 5.02 10.02
4/14/2021 2:45:00 AM 10.44 50.792 0.13 7.18 4.91 10.04
4/14/2021 3:00:00 AM 10.37 50.666 0.13 7.16 4.83 10.06
4/14/2021 3:15:00 AM 10.3 50.54 0.13 7.16 4.95 10.08
4/14/2021 3:30:00 AM 10.23 50.414 0.13 7.16 5.06 10.09
4/14/2021 3:45:00 AM 10.18 50.324 0.13 7.16 4.88 10.1
4/14/2021 4:00:00 AM 10.11 50.198 0.13 7.16 4.97 10.12
4/14/2021 4:15:00 AM 10.07 50.126 0.13 7.17 4.98 10.14
4/14/2021 4:30:00 AM 10.03 50.054 0.131 7.16 4.79 10.15
4/14/2021 4:45:00 AM 9.99 49.982 0.131 7.16 4.8 10.15
4/14/2021 5:00:00 AM 9.96 49.928 0.131 7.17 4.86 10.16
4/14/2021 5:15:00 AM 9.93 49.874 0.131 7.16 4.97 10.18
4/14/2021 5:30:00 AM 9.9 49.82 0.131 7.18 4.9 10.18
4/14/2021 5:45:00 AM 9.87 49.766 0.131 7.17 4.78 10.19
4/14/2021 6:00:00 AM 9.82 49.676 0.131 7.16 4.9 10.19
4/14/2021 6:15:00 AM 9.77 49.586 0.131 7.16 4.72 10.21
4/14/2021 6:30:00 AM 9.74 49.532 0.131 7.18 4.79 10.21
4/14/2021 6:45:00 AM 9.7 49.46 0.131 7.16 4.79 10.26
4/14/2021 7:00:00 AM 9.67 49.406 0.131 7.18 4.78 10.31
4/14/2021 7:15:00 AM 9.64 49.352 0.131 7.18 4.77 10.39
4/14/2021 7:30:00 AM 9.62 49.316 0.131 7.2 4.77 10.49
4/14/2021 7:45:00 AM 9.62 49.316 0.131 7.22 4.68 10.62
4/14/2021 8:00:00 AM 9.64 49.352 0.131 7.24 4.65 10.76
4/14/2021 8:15:00 AM 9.66 49.388 0.131 7.27 4.6 10.84
4/14/2021 8:30:00 AM 9.72 49.496 0.131 7.31 4.76 11
4/14/2021 8:45:00 AM 9.83 49.694 0.131 7.32 4.72 11.08
4/14/2021 9:00:00 AM 9.92 49.856 0.131 7.36 4.64 11.15
4/14/2021 9:15:00 AM 10.04 50.072 0.131 7.37 4.57 11.22
4/14/2021 9:30:00 AM 10.19 50.342 0.131 7.4 4.59 11.26
4/14/2021 9:45:00 AM 10.35 50.63 0.131 7.42 4.54 11.28
4/14/2021 10:00:00 AM 10.5 50.9 0.131 7.44 4.63 11.29
4/14/2021 10:15:00 AM 10.69 51.242 0.131 7.47 4.58 11.31
4/14/2021 10:30:00 AM 10.83 51.494 0.131 7.47 4.47 11.29
4/14/2021 10:45:00 AM 10.97 51.746 0.13 7.49 4.57 11.3
4/14/2021 11:00:00 AM 11.21 52.178 0.13 7.5 4.48 11.31
4/14/2021 11:15:00 AM 11.39 52.502 0.13 7.52 4.59 11.29
4/14/2021 11:30:00 AM 11.53 52.754 0.13 7.53 4.46 11.24
4/14/2021 11:45:00 AM 11.79 53.222 0.13 7.55 4.44 11.25
4/14/2021 12:00:00 PM 12.03 53.654 0.13 7.57 4.43 11.19
4/14/2021 12:15:00 PM 12.19 53.942 0.13 7.58 4.48 11.14
4/14/2021 12:30:00 PM 12.42 54.356 0.13 7.58 4.68 11.11
4/14/2021 12:45:00 PM 12.64 54.752 0.13 7.59 4.49 11.07
4/14/2021 1:00:00 PM 12.84 55.112 0.13 7.6 4.46 11.02
4/14/2021 1:15:00 PM 12.95 55.31 0.13 7.6 4.6 11.01
4/14/2021 1:30:00 PM 13.09 55.562 0.13 7.6 4.45 10.92
4/14/2021 1:45:00 PM 13.02 55.436 0.13 7.59 4.36 10.86
4/14/2021 2:00:00 PM 12.89 55.202 0.13 7.57 4.54 10.75
4/14/2021 2:15:00 PM 12.72 54.896 0.13 7.54 4.44 10.66
4/14/2021 2:30:00 PM 12.52 54.536 0.131 7.52 4.42 10.59
4/14/2021 2:45:00 PM 12.36 54.248 0.131 7.49 4.41 10.57
4/14/2021 3:00:00 PM 12.21 53.978 0.131 7.48 4.54 10.54
4/14/2021 3:15:00 PM 12.09 53.762 0.131 7.46 4.54 10.55
4/14/2021 3:30:00 PM 12 53.6 0.131 7.46 4.47 10.57
4/14/2021 3:45:00 PM 11.92 53.456 0.131 7.46 4.46 10.59
4/14/2021 4:00:00 PM 11.87 53.366 0.131 7.46 4.45 10.64
4/14/2021 4:15:00 PM 11.85 53.33 0.131 7.47 4.37 10.72
4/14/2021 4:30:00 PM 12.01 53.618 0.13 7.51 4.47 10.82
4/14/2021 4:45:00 PM 12.1 53.78 0.13 7.53 4.45 10.86
4/14/2021 5:00:00 PM 12.19 53.942 0.13 7.53 4.61 10.86
4/14/2021 5:15:00 PM 12.25 54.05 0.13 7.53 4.43 10.84
4/14/2021 5:30:00 PM 12.19 53.942 0.13 7.52 4.47 10.77
4/14/2021 5:45:00 PM 12.14 53.852 0.13 7.51 4.33 10.73
4/14/2021 6:00:00 PM 12.08 53.744 0.13 7.49 4.35 10.68
4/14/2021 6:15:00 PM 12.01 53.618 0.131 7.48 4.39 10.66
4/14/2021 6:30:00 PM 11.95 53.51 0.13 7.47 4.39 10.64
4/14/2021 6:45:00 PM 11.89 53.402 0.131 7.46 4.44 10.6
4/14/2021 7:00:00 PM 11.82 53.276 0.131 7.44 4.39 10.53
4/14/2021 7:15:00 PM 11.75 53.15 0.131 7.41 4.41 10.44
4/14/2021 7:30:00 PM 11.69 53.042 0.131 7.38 4.51 10.36
4/14/2021 7:45:00 PM 11.63 52.934 0.131 7.35 4.46 10.25
4/14/2021 8:00:00 PM 11.57 52.826 0.131 7.31 4.34 10.16
4/14/2021 8:15:00 PM 11.51 52.718 0.131 7.28 4.39 10.06
4/14/2021 8:30:00 PM 11.46 52.628 0.131 7.26 4.62 9.98
4/14/2021 8:45:00 PM 11.42 52.556 0.131 7.24 4.51 9.92
4/14/2021 9:00:00 PM 11.37 52.466 0.131 7.23 4.63 9.89
4/14/2021 9:15:00 PM 11.34 52.412 0.132 7.21 4.57 9.86
4/14/2021 9:30:00 PM 11.3 52.34 0.132 7.21 4.65 9.84
4/14/2021 9:45:00 PM 11.25 52.25 0.132 7.21 4.93 9.85
4/14/2021 10:00:00 PM 11.2 52.16 0.132 7.21 4.82 9.85
4/14/2021 10:15:00 PM 11.14 52.052 0.132 7.22 4.84 9.83
4/14/2021 10:30:00 PM 11.07 51.926 0.132 7.22 4.7 9.84
4/14/2021 10:45:00 PM 10.99 51.782 0.132 7.22 4.65 9.84
4/14/2021 11:00:00 PM 10.92 51.656 0.132 7.2 4.63 9.86
4/14/2021 11:15:00 PM 10.84 51.512 0.132 7.2 4.49 9.88
4/14/2021 11:30:00 PM 10.78 51.404 0.132 7.19 4.56 9.89
4/14/2021 11:45:00 PM 10.71 51.278 0.132 7.2 4.59 9.89
4/15/2021 12:00:00 AM 10.65 51.17 0.132 7.2 4.67 9.91
4/15/2021 12:15:00 AM 10.58 51.044 0.132 7.19 4.67 9.93
4/15/2021 12:30:00 AM 10.53 50.954 0.132 7.19 4.64 9.94
4/15/2021 12:45:00 AM 10.48 50.864 0.132 7.18 4.64 9.95
4/15/2021 1:00:00 AM 10.43 50.774 0.132 7.18 4.59 9.97
4/15/2021 1:15:00 AM 10.37 50.666 0.132 7.18 4.56 9.98
4/15/2021 1:30:00 AM 10.31 50.558 0.132 7.18 4.61 9.99
4/15/2021 1:45:00 AM 10.25 50.45 0.132 7.17 4.68 9.98
4/15/2021 2:00:00 AM 10.19 50.342 0.132 7.17 4.6 10
4/15/2021 2:15:00 AM 10.13 50.234 0.132 7.18 4.55 10.02
4/15/2021 2:30:00 AM 10.07 50.126 0.132 7.17 4.56 10.04
4/15/2021 2:45:00 AM 10.02 50.036 0.132 7.17 4.74 10.05
4/15/2021 3:00:00 AM 9.99 49.982 0.132 7.17 4.68 10.05
4/15/2021 3:15:00 AM 9.95 49.91 0.132 7.17 4.59 10.06
4/15/2021 3:30:00 AM 9.93 49.874 0.132 7.17 4.81 10.05
4/15/2021 3:45:00 AM 9.9 49.82 0.132 7.17 4.63 10.06
4/15/2021 4:00:00 AM 9.88 49.784 0.132 7.17 4.58 10.04
4/15/2021 4:15:00 AM 9.85 49.73 0.132 7.17 4.57 10.06
4/15/2021 4:30:00 AM 9.82 49.676 0.132 7.17 4.46 10.07
4/15/2021 4:45:00 AM 9.8 49.64 0.132 7.17 4.61 10.09
4/15/2021 5:00:00 AM 9.77 49.586 0.132 7.18 4.47 10.09
4/15/2021 5:15:00 AM 9.74 49.532 0.132 7.18 4.61 10.11
4/15/2021 5:30:00 AM 9.72 49.496 0.132 7.17 4.45 10.11
4/15/2021 5:45:00 AM 9.69 49.442 0.132 7.18 4.6 10.11
4/15/2021 6:00:00 AM 9.66 49.388 0.132 7.18 4.47 10.13
4/15/2021 6:15:00 AM 9.63 49.334 0.132 7.16 4.56 10.12
4/15/2021 6:30:00 AM 9.6 49.28 0.132 7.18 4.44 10.14
4/15/2021 6:45:00 AM 9.58 49.244 0.132 7.17 4.46 10.15
4/15/2021 7:00:00 AM 9.56 49.208 0.132 7.18 4.48 10.19
4/15/2021 7:15:00 AM 9.54 49.172 0.132 7.18 4.48 10.22
4/15/2021 7:30:00 AM 9.52 49.136 0.132 7.19 4.38 10.27
4/15/2021 7:45:00 AM 9.52 49.136 0.132 7.2 4.54 10.38
4/15/2021 8:00:00 AM 9.52 49.136 0.132 7.22 4.35 10.47
4/15/2021 8:15:00 AM 9.53 49.154 0.132 7.25 4.42 10.55
4/15/2021 8:30:00 AM 9.53 49.154 0.132 7.25 4.43 10.61
4/15/2021 8:45:00 AM 9.54 49.172 0.132 7.26 4.34 10.67
4/15/2021 9:00:00 AM 9.55 49.19 0.132 7.28 4.36 10.74
4/15/2021 9:15:00 AM 9.56 49.208 0.132 7.29 4.38 10.78
4/15/2021 9:30:00 AM 9.59 49.262 0.132 7.32 4.45 10.86
4/15/2021 9:45:00 AM 9.63 49.334 0.132 7.33 4.4 10.93
4/15/2021 10:00:00 AM 9.68 49.424 0.132 7.35 4.39 11.04
4/15/2021 10:15:00 AM 9.77 49.586 0.132 7.39 4.33 11.11
4/15/2021 10:30:00 AM 9.83 49.694 0.131 7.39 4.35 11.15
4/15/2021 10:45:00 AM 9.89 49.802 0.131 7.42 4.49 11.19
4/15/2021 11:00:00 AM 9.97 49.946 0.131 7.43 4.31 11.21
4/15/2021 11:15:00 AM 10.06 50.108 0.131 7.45 4.4 11.25
4/15/2021 11:30:00 AM 10.12 50.216 0.131 7.48 4.4 11.28
4/15/2021 11:45:00 AM 10.16 50.288 0.131 7.49 4.36 11.28
4/15/2021 12:00:00 PM 10.21 50.378 0.131 7.5 4.48 11.27
4/15/2021 12:15:00 PM 10.2 50.36 0.131 7.49 4.32 11.23
4/15/2021 12:30:00 PM 10.19 50.342 0.131 7.5 4.36 11.21
4/15/2021 12:45:00 PM 10.17 50.306 0.131 7.49 4.36 11.18
4/15/2021 1:00:00 PM 10.15 50.27 0.131 7.49 4.4 11.19
4/15/2021 1:15:00 PM 10.11 50.198 0.131 7.48 4.37 11.12
4/15/2021 1:30:00 PM 10.07 50.126 0.13 7.46 4.36 11.1
4/15/2021 1:45:00 PM 10.05 50.09 0.13 7.47 4.39 11.08
4/15/2021 2:00:00 PM 10.02 50.036 0.13 7.48 4.41 11.09
4/15/2021 2:15:00 PM 10.01 50.018 0.13 7.47 4.37 11.13
4/15/2021 2:30:00 PM 10.06 50.108 0.13 7.49 10.91 11.19
4/15/2021 2:45:00 PM 10.15 50.27 0.13 7.51 4.43 11.25
4/15/2021 3:00:00 PM 10.27 50.486 0.13 7.52 4.3 11.28
4/15/2021 3:15:00 PM 10.34 50.612 0.13 7.53 4.36 11.28
4/15/2021 3:30:00 PM 10.38 50.684 0.13 7.54 4.31 11.25
4/15/2021 3:45:00 PM 10.36 50.648 0.13 7.53 4.55 11.16
4/15/2021 4:00:00 PM 10.29 50.522 0.13 7.48 4.42 11.04
4/15/2021 4:15:00 PM 10.21 50.378 0.13 7.46 4.59 10.98
4/15/2021 4:30:00 PM 10.13 50.234 0.131 7.45 4.37 10.94
4/15/2021 4:45:00 PM 10.06 50.108 0.131 7.44 4.61 10.94
4/15/2021 5:00:00 PM 10.01 50.018 0.13 7.45 4.35 10.97
4/15/2021 5:15:00 PM 9.97 49.946 0.13 7.44 4.38 11
4/15/2021 5:30:00 PM 9.94 49.892 0.13 7.45 4.53 11.03
4/15/2021 5:45:00 PM 9.89 49.802 0.13 7.44 4.57 11
4/15/2021 6:00:00 PM 9.84 49.712 0.13 7.43 4.57 10.94
4/15/2021 6:15:00 PM 9.79 49.622 0.13 7.39 5.56 10.86
4/15/2021 6:30:00 PM 9.74 49.532 0.13 7.38 4.51 10.79
4/15/2021 6:45:00 PM 9.68 49.424 0.13 7.35 4.48 10.7
4/15/2021 7:00:00 PM 9.64 49.352 0.131 7.34 4.42 10.64
4/15/2021 7:15:00 PM 9.6 49.28 0.13 7.31 4.43 10.57
4/15/2021 7:30:00 PM 9.56 49.208 0.13 7.29 4.53 10.53
4/15/2021 7:45:00 PM 9.51 49.118 0.13 7.27 4.46 10.48
4/15/2021 8:00:00 PM 9.48 49.064 0.13 7.26 4.47 10.44
4/15/2021 8:15:00 PM 9.43 48.974 0.13 7.24 4.43 10.41
4/15/2021 8:30:00 PM 9.4 48.92 0.13 7.24 4.52 10.39
4/15/2021 8:45:00 PM 9.36 48.848 0.13 7.23 4.54 10.39
4/15/2021 9:00:00 PM 9.32 48.776 0.13 7.23 4.59 10.38
4/15/2021 9:15:00 PM 9.27 48.686 0.13 7.2 4.77 10.37
4/15/2021 9:30:00 PM 9.21 48.578 0.13 7.21 4.66 10.37
4/15/2021 9:45:00 PM 9.16 48.488 0.13 7.2 4.75 10.37
4/15/2021 10:00:00 PM 9.11 48.398 0.13 7.2 4.73 10.38
4/15/2021 10:15:00 PM 9.07 48.326 0.13 7.2 4.72 10.38
4/15/2021 10:30:00 PM 9.04 48.272 0.13 7.21 4.77 10.39
4/15/2021 10:45:00 PM 8.99 48.182 0.13 7.2 4.63 10.4
4/15/2021 11:00:00 PM 8.93 48.074 0.13 7.2 4.74 10.41
4/15/2021 11:15:00 PM 8.86 47.948 0.13 7.19 4.76 10.42
4/15/2021 11:30:00 PM 8.8 47.84 0.13 7.18 4.8 10.45
4/15/2021 11:45:00 PM 8.72 47.696 0.13 7.18 4.64 10.44
4/16/2021 12:00:00 AM 8.65 47.57 0.13 7.19 4.69 10.45
4/16/2021 12:15:00 AM 8.59 47.462 0.13 7.19 4.66 10.47
4/16/2021 12:30:00 AM 8.52 47.336 0.13 7.19 4.74 10.48
4/16/2021 12:45:00 AM 8.45 47.21 0.13 7.19 4.61 10.51
4/16/2021 1:00:00 AM 8.41 47.138 0.13 7.16 4.66 10.53
4/16/2021 1:15:00 AM 8.37 47.066 0.13 7.17 4.62 10.55
4/16/2021 1:30:00 AM 8.35 47.03 0.13 7.16 4.68 10.55
4/16/2021 1:45:00 AM 8.32 46.976 0.13 7.16 4.69 10.57
4/16/2021 2:00:00 AM 8.29 46.922 0.13 7.16 4.62 10.57
4/16/2021 2:15:00 AM 8.27 46.886 0.13 7.16 4.59 10.56
4/16/2021 2:30:00 AM 8.24 46.832 0.13 7.17 4.73 10.58
4/16/2021 2:45:00 AM 8.21 46.778 0.13 7.18 4.68 10.58
4/16/2021 3:00:00 AM 8.18 46.724 0.13 7.17 4.75 10.59
4/16/2021 3:15:00 AM 8.16 46.688 0.13 7.16 4.65 10.59
4/16/2021 3:30:00 AM 8.13 46.634 0.13 7.16 4.68 10.6
4/16/2021 3:45:00 AM 8.11 46.598 0.13 7.17 4.64 10.61
4/16/2021 4:00:00 AM 8.08 46.544 0.13 7.16 4.51 10.61
4/16/2021 4:15:00 AM 8.07 46.526 0.13 7.16 4.57 10.62
4/16/2021 4:30:00 AM 8.04 46.472 0.13 7.17 4.62 10.63
4/16/2021 4:45:00 AM 8.02 46.436 0.13 7.16 4.68 10.64
4/16/2021 5:00:00 AM 8.01 46.418 0.13 7.15 4.61 10.64
4/16/2021 5:15:00 AM 7.99 46.382 0.13 7.15 4.56 10.64
4/16/2021 5:30:00 AM 7.97 46.346 0.13 7.16 4.74 10.65
4/16/2021 5:45:00 AM 7.94 46.292 0.13 7.14 4.77 10.66
4/16/2021 6:00:00 AM 7.9 46.22 0.13 7.15 4.52 10.67
4/16/2021 6:15:00 AM 7.87 46.166 0.13 7.15 4.63 10.67
4/16/2021 6:30:00 AM 7.84 46.112 0.13 7.15 4.6 10.7
4/16/2021 6:45:00 AM 7.81 46.058 0.127 7.15 8.96 10.71
4/16/2021 7:00:00 AM 7.78 46.004 0.129 7.15 4.54 10.74
4/16/2021 7:15:00 AM 7.76 45.968 0.129 7.14 4.52 10.77
4/16/2021 7:30:00 AM 7.74 45.932 0.129 7.16 4.53 10.84
4/16/2021 7:45:00 AM 7.72 45.896 0.129 7.17 4.5 10.89
4/16/2021 8:00:00 AM 7.7 45.86 0.129 7.19 4.62 10.98
4/16/2021 8:15:00 AM 7.7 45.86 0.129 7.21 4.44 11.07
4/16/2021 8:30:00 AM 7.69 45.842 0.129 7.23 4.6 11.16
4/16/2021 8:45:00 AM 7.71 45.878 0.129 7.26 4.59 11.27
4/16/2021 9:00:00 AM 7.75 45.95 0.129 7.27 4.57 11.39
4/16/2021 9:15:00 AM 7.79 46.022 0.129 7.3 4.61 11.5
4/16/2021 9:30:00 AM 7.83 46.094 0.128 7.32 8.46 11.58
4/16/2021 9:45:00 AM 7.87 46.166 0.128 7.35 4.59 11.63
4/16/2021 10:00:00 AM 7.92 46.256 0.128 7.37 4.53 11.67
4/16/2021 10:15:00 AM 7.99 46.382